Provisional Data: Quittapahilla Creek near Syner, PA


Please select a monitoring station.
Please select start date.
Please select start date.

Toggle Unit: C/F Toggle Unit: C/F
Sample Time Temperature (C) Temperature (F) Specific Conductivity (mS/cm) pH   Turbidity (NTU+) DO (mg/L)
3/7/2021 12:00:00 AM 7.65 45.77 0.597 7.87 612.2 10.97
3/7/2021 12:15:00 AM 7.65 45.77 0.596 7.87 309.8 10.97
3/7/2021 12:30:00 AM 7.64 45.752 0.597 7.87 369.1 10.92
3/7/2021 12:45:00 AM 7.62 45.716 0.599 7.86 287.6 10.88
3/7/2021 1:00:00 AM 7.63 45.734 0.599 7.87 253.2 10.85
3/7/2021 1:15:00 AM 7.63 45.734 0.597 7.86 254 10.83
3/7/2021 1:30:00 AM 7.63 45.734 0.597 7.85 240.4 10.79
3/7/2021 1:45:00 AM 7.63 45.734 0.595 7.85 268.7 10.76
3/7/2021 2:00:00 AM 7.62 45.716 0.596 7.85 277.4 10.72
3/7/2021 2:15:00 AM 7.62 45.716 0.596 7.84 272.9 10.72
3/7/2021 2:30:00 AM 7.61 45.698 0.596 7.84 271.5 10.69
3/7/2021 2:45:00 AM 7.59 45.662 0.596 7.84 271.3 10.69
3/7/2021 3:00:00 AM 7.56 45.608 0.596 7.84 291.9 10.67
3/7/2021 3:15:00 AM 7.53 45.554 0.597 7.84 299 10.7
3/7/2021 3:30:00 AM 7.49 45.482 0.596 7.84 381.3 10.7
3/7/2021 4:00:00 AM 7.41 45.338 0.601 7.83 280.3 10.68
3/7/2021 4:15:00 AM 7.39 45.302 0.599 7.83 292.7 10.66
3/7/2021 4:30:00 AM 7.38 45.284 0.599 7.83 307.8 10.66
3/7/2021 4:45:00 AM 7.35 45.23 0.597 7.83 275.9 10.64
3/7/2021 5:00:00 AM 7.32 45.176 0.596 7.83 255.1 10.66
3/7/2021 5:15:00 AM 7.28 45.104 0.597 7.83 616.5 10.64
3/7/2021 5:30:00 AM 7.24 45.032 0.597 7.83 306.9 10.63
3/7/2021 5:45:00 AM 7.2 44.96 0.597 7.83 757.5 10.61
3/7/2021 6:00:00 AM 7.16 44.888 0.596 7.82 301.9 10.59
3/7/2021 6:15:00 AM 7.12 44.816 0.595 7.82 870 10.6
3/7/2021 6:30:00 AM 7.09 44.762 0.596 7.82 194.9 10.61
3/7/2021 6:45:00 AM 7.06 44.708 0.596 7.82 3725 10.65
3/7/2021 7:00:00 AM 7.01 44.618 0.597 7.82 1085 10.69
3/7/2021 7:15:00 AM 6.97 44.546 0.6 7.83 312.6 10.75
3/7/2021 7:30:00 AM 6.97 44.546 0.602 7.84 303 10.82
3/7/2021 7:45:00 AM 6.99 44.582 0.6 7.84 235.4 10.92
3/7/2021 8:00:00 AM 7 44.6 0.599 7.84 2165 11.04
3/7/2021 8:15:00 AM 7.02 44.636 0.598 7.85 247 11.18
3/7/2021 8:30:00 AM 7.05 44.69 0.598 7.86 205.7 11.36
3/7/2021 8:45:00 AM 7.08 44.744 0.597 7.87 1192 11.53
3/7/2021 9:00:00 AM 7.13 44.834 0.597 7.88 4206 11.75
3/7/2021 9:15:00 AM 7.2 44.96 0.597 7.89 888.1 11.92
3/7/2021 9:30:00 AM 7.26 45.068 0.597 7.91 698.3 12.13
3/7/2021 9:45:00 AM 7.33 45.194 0.596 7.92 148.2 12.34
3/7/2021 10:00:00 AM 7.39 45.302 0.596 7.93 2314 12.52
3/7/2021 10:15:00 AM 7.46 45.428 0.599 7.94 2305 12.69
3/7/2021 10:30:00 AM 7.57 45.626 0.599 7.96 531.1 12.87
3/7/2021 10:45:00 AM 7.68 45.824 0.597 7.97 740.8 13.06
3/7/2021 11:00:00 AM 7.77 45.986 0.596 7.98 864.9 13.24
3/7/2021 11:15:00 AM 7.86 46.148 0.598 7.99 932 13.33
3/7/2021 11:30:00 AM 7.97 46.346 0.599 8 907.6 13.5
3/7/2021 11:45:00 AM 8.1 46.58 0.596 8.01 1060 13.64
3/7/2021 12:00:00 PM 8.22 46.796 0.594 8.02 990.6 13.73
3/7/2021 12:15:00 PM 8.34 47.012 0.593 8.03 304 13.9
3/7/2021 12:30:00 PM 8.45 47.21 0.592 8.04 35.9 14.01
3/7/2021 12:45:00 PM 8.56 47.408 0.592 8.05 912.9 14.11
3/7/2021 1:00:00 PM 8.66 47.588 0.592 8.07 1802 14.22
3/7/2021 1:15:00 PM 8.76 47.768 0.591 8.08 2762 14.3
3/7/2021 1:30:00 PM 8.85 47.93 0.591 8.08 346.6 14.43
3/7/2021 1:45:00 PM 8.93 48.074 0.591 8.09 53.63 14.46
3/7/2021 2:00:00 PM 9.01 48.218 0.59 8.1 4085 14.52
3/7/2021 2:15:00 PM 9.05 48.29 0.591 8.11 4034 14.6
3/7/2021 2:30:00 PM 9.06 48.308 0.594 8.13 185.7 14.61
3/7/2021 2:45:00 PM 9.11 48.398 0.594 8.13 4481 14.63
3/7/2021 3:00:00 PM 9.17 48.506 0.591 8.14 76.2 14.63
3/7/2021 3:15:00 PM 9.21 48.578 0.59 8.14 160.3 14.58
3/7/2021 3:30:00 PM 9.25 48.65 0.589 8.15 2448 14.56
3/7/2021 3:45:00 PM 9.26 48.668 0.588 8.15 52.8 14.52
3/7/2021 4:00:00 PM 9.27 48.686 0.588 8.15 31.49 14.41
3/7/2021 4:15:00 PM 9.25 48.65 0.589 8.15 427.5 14.33
3/7/2021 4:30:00 PM 9.23 48.614 0.589 8.14 164.7 14.2
3/7/2021 4:45:00 PM 9.23 48.614 0.589 8.14 526.9 14.03
3/7/2021 5:00:00 PM 9.2 48.56 0.59 8.13 248.9 13.83
3/7/2021 5:15:00 PM 9.18 48.524 0.59 8.12 187.6 13.66
3/7/2021 5:30:00 PM 9.14 48.452 0.59 8.11 1899 13.45
3/7/2021 5:45:00 PM 9.11 48.398 0.592 8.1 4247 13.26
3/7/2021 6:00:00 PM 9.06 48.308 0.595 8.09 399.2 13.06
3/7/2021 6:15:00 PM 9.02 48.236 0.595 8.08 181.6 12.86
3/7/2021 6:30:00 PM 9.01 48.218 0.593 8.07 25.98 12.7
3/7/2021 6:45:00 PM 9 48.2 0.592 8.05 12.46 12.53
3/7/2021 7:00:00 PM 8.97 48.146 0.592 8.05 28.91 12.37
3/7/2021 7:15:00 PM 8.95 48.11 0.592 8.03 28.95 12.24
3/7/2021 7:30:00 PM 8.92 48.056 0.592 8.02 14.77 12.08
3/7/2021 7:45:00 PM 8.88 47.984 0.592 8.01 11.43 11.97
3/7/2021 8:00:00 PM 8.85 47.93 0.592 8 17.74 11.86
3/7/2021 8:15:00 PM 8.81 47.858 0.592 7.99 89.94 11.75
3/7/2021 8:30:00 PM 8.78 47.804 0.592 7.98 26.92 11.65
3/7/2021 8:45:00 PM 8.74 47.732 0.593 7.98 49.76 11.57
3/7/2021 9:00:00 PM 8.71 47.678 0.592 7.97 489.5 11.46
3/7/2021 9:15:00 PM 8.67 47.606 0.593 7.96 66.57 11.39
3/7/2021 9:30:00 PM 8.63 47.534 0.593 7.95 155.6 11.3
3/7/2021 9:45:00 PM 8.6 47.48 0.594 7.94 420.8 11.23
3/7/2021 10:00:00 PM 8.56 47.408 0.594 7.93 1217 11.15
3/7/2021 10:15:00 PM 8.52 47.336 0.594 7.92 435.1 11.1
3/7/2021 10:30:00 PM 8.48 47.264 0.594 7.92 486.1 11.03
3/7/2021 10:45:00 PM 8.45 47.21 0.594 7.91 244.8 10.97
3/7/2021 11:00:00 PM 8.41 47.138 0.596 7.91 672.5 10.94
3/7/2021 11:15:00 PM 8.38 47.084 0.595 7.9 522.5 10.89
3/7/2021 11:30:00 PM 8.34 47.012 0.595 7.9 1059 10.84
3/7/2021 11:45:00 PM 8.3 46.94 0.596 7.89 625.5 10.8
3/8/2021 12:00:00 AM 8.26 46.868 0.595 7.89 431.2 10.76
3/8/2021 12:15:00 AM 8.22 46.796 0.596 7.88 466.9 10.72
3/8/2021 12:30:00 AM 8.18 46.724 0.597 7.87 187.4 10.7
3/8/2021 12:45:00 AM 8.14 46.652 0.598 7.87 28.39 10.65
3/8/2021 1:00:00 AM 8.1 46.58 0.598 7.87 40.9 10.62
3/8/2021 1:15:00 AM 8.06 46.508 0.599 7.86 55.61 10.61
3/8/2021 1:30:00 AM 8.01 46.418 0.6 7.86 7.27 10.58
3/8/2021 1:45:00 AM 7.97 46.346 0.6 7.85 120.5 10.57
3/8/2021 2:00:00 AM 7.93 46.274 0.6 7.85 85.17 10.55
3/8/2021 2:15:00 AM 7.88 46.184 0.601 7.84 21.88 10.55
3/8/2021 2:30:00 AM 7.83 46.094 0.601 7.84 21.39 10.53
3/8/2021 2:45:00 AM 7.79 46.022 0.601 7.84 9.96 10.52
3/8/2021 3:00:00 AM 7.74 45.932 0.602 7.84 8.57 10.53
3/8/2021 3:15:00 AM 7.69 45.842 0.602 7.83 18.42 10.52
3/8/2021 3:30:00 AM 7.65 45.77 0.602 7.83 9.13 10.52
3/8/2021 3:45:00 AM 7.6 45.68 0.603 7.83 10.77 10.51
3/8/2021 4:00:00 AM 7.54 45.572 0.603 7.83 25.66 10.5
3/8/2021 4:15:00 AM 7.49 45.482 0.603 7.82 67.35 10.53
3/8/2021 4:30:00 AM 7.44 45.392 0.604 7.82 208.8 10.54
3/8/2021 4:45:00 AM 7.39 45.302 0.603 7.83 58.68 10.55
3/8/2021 5:00:00 AM 7.33 45.194 0.603 7.82 107 10.55
3/8/2021 5:15:00 AM 7.28 45.104 0.603 7.82 72.47 10.58
3/8/2021 5:30:00 AM 7.23 45.014 0.604 7.82 47.74 10.59
3/8/2021 5:45:00 AM 7.17 44.906 0.603 7.82 19.93 10.6
3/8/2021 6:00:00 AM 7.13 44.834 0.604 7.82 52.19 10.61
3/8/2021 6:15:00 AM 7.08 44.744 0.603 7.82 104.2 10.62
3/8/2021 6:30:00 AM 7.03 44.654 0.604 7.82 64.25 10.65
3/8/2021 6:45:00 AM 6.98 44.564 0.603 7.82 131.6 10.67
3/8/2021 7:00:00 AM 6.94 44.492 0.603 7.82 56.09 10.71
3/8/2021 7:15:00 AM 6.9 44.42 0.603 7.82 173.3 10.76
3/8/2021 7:30:00 AM 6.88 44.384 0.603 7.82 126.8 10.82
3/8/2021 7:45:00 AM 6.86 44.348 0.604 7.83 187.9 10.94
3/8/2021 8:00:00 AM 6.86 44.348 0.604 7.83 82.23 11.06
3/8/2021 8:15:00 AM 6.88 44.384 0.604 7.84 59.25 11.23
3/8/2021 8:30:00 AM 6.92 44.456 0.603 7.85 43.06 11.43
3/8/2021 8:45:00 AM 6.97 44.546 0.602 7.86 151.6 11.66
3/8/2021 9:00:00 AM 7.01 44.618 0.602 7.87 85.27 11.88
3/8/2021 9:15:00 AM 7.08 44.744 0.601 7.88 41.3 12.08
3/8/2021 9:30:00 AM 7.14 44.852 0.6 7.9 111.2 12.32
3/8/2021 9:45:00 AM 7.21 44.978 0.599 7.91 81.85 12.52
3/8/2021 10:00:00 AM 7.29 45.122 0.599 7.93 229.1 12.72
3/8/2021 10:15:00 AM 7.37 45.266 0.599 7.94 188.8 12.95
3/8/2021 10:30:00 AM 7.48 45.464 0.598 7.95 64.09 13.13
3/8/2021 10:45:00 AM 7.59 45.662 0.598 7.97 382.1 13.32
3/8/2021 11:00:00 AM 7.7 45.86 0.597 7.98 117.7 13.5
3/8/2021 11:15:00 AM 7.81 46.058 0.597 7.99 452.2 13.69
3/8/2021 11:30:00 AM 7.93 46.274 0.597 8.01 551.4 13.87
3/8/2021 11:45:00 AM 8.02 46.436 0.596 8.02 972.6 14.01
3/8/2021 12:00:00 PM 8.14 46.652 0.596 8.04 1402 14.16
3/8/2021 12:15:00 PM 8.26 46.868 0.595 8.05 1342 14.33
3/8/2021 12:30:00 PM 8.37 47.066 0.595 8.07 519.8 14.47
3/8/2021 12:45:00 PM 8.49 47.282 0.594 8.08 776.9 14.59
3/8/2021 1:00:00 PM 8.6 47.48 0.594 8.1 855.9 14.71
3/8/2021 1:15:00 PM 8.7 47.66 0.594 8.1 336.8 14.79
3/8/2021 1:30:00 PM 8.8 47.84 0.594 8.12 642.3 14.88
3/8/2021 1:45:00 PM 8.88 47.984 0.594 8.12 313.5 14.94
3/8/2021 2:00:00 PM 8.97 48.146 0.594 8.13 233.1 15.04
3/8/2021 2:15:00 PM 9.03 48.254 0.593 8.15 144.8 15.07
3/8/2021 2:30:00 PM 9.11 48.398 0.593 8.15 147.5 15.15
3/8/2021 2:45:00 PM 9.2 48.56 0.593 8.16 166.2 15.22
3/8/2021 3:00:00 PM 9.27 48.686 0.592 8.17 143.1 15.24
3/8/2021 3:15:00 PM 9.33 48.794 0.591 8.18 113.2 15.3
3/8/2021 3:30:00 PM 9.38 48.884 0.591 8.19 231.5 15.29
3/8/2021 3:45:00 PM 9.41 48.938 0.591 8.19 151.4 15.21
3/8/2021 4:00:00 PM 9.41 48.938 0.592 8.2 105.6 15.14
3/8/2021 4:15:00 PM 9.38 48.884 0.593 8.19 113.6 14.95
3/8/2021 4:30:00 PM 9.37 48.866 0.592 8.19 317.7 14.79
3/8/2021 4:45:00 PM 9.34 48.812 0.592 8.18 67.39 14.58
3/8/2021 5:00:00 PM 9.33 48.794 0.592 8.17 314.4 14.37
3/8/2021 5:15:00 PM 9.34 48.812 0.593 8.16 287.2 14.12
3/8/2021 5:30:00 PM 9.35 48.83 0.593 8.15 174 13.92
3/8/2021 5:45:00 PM 9.36 48.848 0.593 8.14 270.8 13.71
3/8/2021 6:00:00 PM 9.36 48.848 0.594 8.13 307.8 13.5
3/8/2021 6:15:00 PM 9.35 48.83 0.594 8.11 320 13.28
3/8/2021 6:30:00 PM 9.33 48.794 0.594 8.1 334.2 13.07
3/8/2021 6:45:00 PM 9.32 48.776 0.595 8.08 459.4 12.88
3/8/2021 7:00:00 PM 9.3 48.74 0.595 8.07 532.2 12.69
3/8/2021 7:15:00 PM 9.28 48.704 0.595 8.06 101.2 12.53
3/8/2021 7:30:00 PM 9.27 48.686 0.596 8.05 582.8 12.35
3/8/2021 7:45:00 PM 9.25 48.65 0.596 8.03 417.9 12.18
3/8/2021 8:00:00 PM 9.23 48.614 0.597 8.02 992.7 12.06
3/8/2021 8:15:00 PM 9.21 48.578 0.597 8.01 1049 11.95
3/8/2021 8:30:00 PM 9.19 48.542 0.597 8 1576 11.82
3/8/2021 8:45:00 PM 9.16 48.488 0.597 8 1155 11.69
3/8/2021 9:00:00 PM 9.13 48.434 0.597 7.99 886.2 11.58
3/8/2021 9:15:00 PM 9.11 48.398 0.598 7.98 1504 11.49
3/8/2021 9:30:00 PM 9.08 48.344 0.598 7.97 840.4 11.38
3/8/2021 9:45:00 PM 9.07 48.326 0.597 7.96 1461 11.25
3/8/2021 10:00:00 PM 9.06 48.308 0.597 7.95 1073 11.14
3/8/2021 10:15:00 PM 9.04 48.272 0.597 7.94 1619 11.04
3/8/2021 10:30:00 PM 9.01 48.218 0.597 7.93 1775 10.94
3/8/2021 10:45:00 PM 8.99 48.182 0.597 7.93 1504 10.86
3/8/2021 11:00:00 PM 8.96 48.128 0.597 7.92 324 10.79
3/8/2021 11:15:00 PM 8.93 48.074 0.597 7.92 904.3 10.72
3/8/2021 11:30:00 PM 8.89 48.002 0.597 7.91 915 10.68
3/8/2021 11:45:00 PM 8.85 47.93 0.597 7.91 1509 10.66
3/9/2021 12:00:00 AM 8.82 47.876 0.599 7.9 1518 10.65
3/9/2021 12:15:00 AM 8.79 47.822 0.599 7.9 83.23 10.62
3/9/2021 12:30:00 AM 8.76 47.768 0.599 7.89 974.7 10.59
3/9/2021 12:45:00 AM 8.75 47.75 0.599 7.89 1888 10.55
3/9/2021 1:00:00 AM 8.72 47.696 0.6 7.88 1062 10.53
3/9/2021 1:15:00 AM 8.69 47.642 0.6 7.87 24.71 10.48
3/9/2021 1:30:00 AM 8.66 47.588 0.6 7.87 1582 10.46
3/9/2021 1:45:00 AM 8.63 47.534 0.6 7.86 199.1 10.43
3/9/2021 2:00:00 AM 8.6 47.48 0.6 7.86 2212 10.42
3/9/2021 2:15:00 AM 8.57 47.426 0.6 7.86 1365 10.4
3/9/2021 2:30:00 AM 8.54 47.372 0.6 7.86 200.8 10.36
3/9/2021 2:45:00 AM 8.51 47.318 0.6 7.85 1656 10.37
3/9/2021 3:00:00 AM 8.49 47.282 0.601 7.85 1911 10.34
3/9/2021 3:15:00 AM 8.48 47.264 0.602 7.85 1910 10.33
3/9/2021 3:30:00 AM 8.45 47.21 0.602 7.85 1679 10.32
3/9/2021 3:45:00 AM 8.43 47.174 0.603 7.84 29.2 10.31
3/9/2021 4:00:00 AM 8.4 47.12 0.603 7.84 248.8 10.3
3/9/2021 4:15:00 AM 8.38 47.084 0.603 7.84 2460 10.32
3/9/2021 4:30:00 AM 8.36 47.048 0.603 7.84 2742 10.3
3/9/2021 4:45:00 AM 8.33 46.994 0.602 7.84 2581 10.3
3/9/2021 5:00:00 AM 8.3 46.94 0.604 7.84 1631 10.3
3/9/2021 5:15:00 AM 8.27 46.886 0.603 7.83 1223 10.28
3/9/2021 5:30:00 AM 8.23 46.814 0.603 7.83 757.6 10.28
3/9/2021 5:45:00 AM 8.2 46.76 0.603 7.83 272.5 10.3
3/9/2021 6:00:00 AM 8.17 46.706 0.604 7.83 51.19 10.28
3/9/2021 6:15:00 AM 8.13 46.634 0.604 7.82 2496 10.29
3/9/2021 6:30:00 AM 8.1 46.58 0.605 7.82 1877 10.3
3/9/2021 6:45:00 AM 8.07 46.526 0.604 7.82 1334 10.33
3/9/2021 7:00:00 AM 8.04 46.472 0.605 7.82 1479 10.37
3/9/2021 7:15:00 AM 8.01 46.418 0.605 7.83 2482 10.42
3/9/2021 7:30:00 AM 8 46.4 0.606 7.83 1996 10.53
3/9/2021 7:45:00 AM 8 46.4 0.605 7.84 2093 10.64
3/9/2021 8:00:00 AM 8.01 46.418 0.605 7.84 1551 10.81
3/9/2021 8:15:00 AM 8.03 46.454 0.605 7.86 2014 11.06
3/9/2021 8:30:00 AM 8.04 46.472 0.606 7.87 706 11.29
3/9/2021 8:45:00 AM 8.08 46.544 0.61 7.88 1661 11.53
3/9/2021 9:00:00 AM 8.16 46.688 0.609 7.9 1287 11.77
3/9/2021 9:15:00 AM 8.26 46.868 0.605 7.91 964.5 11.99
3/9/2021 9:30:00 AM 8.36 47.048 0.603 7.92 1683 12.24
3/9/2021 9:45:00 AM 8.46 47.228 0.602 7.94 1195 12.5
3/9/2021 10:00:00 AM 8.56 47.408 0.604 7.95 1360 12.74
3/9/2021 10:15:00 AM 8.68 47.624 0.606 7.97 1582 12.99
3/9/2021 10:30:00 AM 8.81 47.858 0.606 7.99 1673 13.23
3/9/2021 10:45:00 AM 8.93 48.074 0.606 8 383.5 13.49
3/9/2021 11:00:00 AM 9.06 48.308 0.606 8.02 1123 13.72
3/9/2021 11:15:00 AM 9.16 48.488 0.605 8.04 1134 13.9
3/9/2021 11:30:00 AM 9.28 48.704 0.604 8.05 1020 14.09
3/9/2021 11:45:00 AM 9.4 48.92 0.6 8.07 1248 14.3
3/9/2021 12:00:00 PM 9.52 49.136 0.598 8.09 470.2 14.5
3/9/2021 12:15:00 PM 9.63 49.334 0.596 8.11 1586 14.69
3/9/2021 12:30:00 PM 9.74 49.532 0.595 8.12 1239 14.89
3/9/2021 12:45:00 PM 9.88 49.784 0.595 8.14 253.4 15.06
3/9/2021 1:00:00 PM 10 50 0.595 8.15 1120 15.21
3/9/2021 1:15:00 PM 10.12 50.216 0.594 8.17 270.4 15.38
3/9/2021 1:30:00 PM 10.25 50.45 0.593 8.19 459.6 15.52
3/9/2021 1:45:00 PM 10.33 50.594 0.592 8.2 127.4 15.57
3/9/2021 2:00:00 PM 10.42 50.756 0.591 8.21 138.5 15.67
3/9/2021 2:15:00 PM 10.47 50.846 0.591 8.22 409.9 15.72
3/9/2021 2:30:00 PM 10.52 50.936 0.591 8.23 568 15.75
3/9/2021 2:45:00 PM 10.55 50.99 0.591 8.24 281 15.73
3/9/2021 3:00:00 PM 10.6 51.08 0.59 8.25 39.41 15.74
3/9/2021 3:15:00 PM 10.65 51.17 0.59 8.26 1442 15.72
3/9/2021 3:30:00 PM 10.69 51.242 0.59 8.27 224.8 15.68
3/9/2021 3:45:00 PM 10.73 51.314 0.589 8.27 263.4 15.62
3/9/2021 4:00:00 PM 10.76 51.368 0.59 8.27 441.5 15.5
3/9/2021 4:15:00 PM 10.77 51.386 0.59 8.27 98.77 15.36
3/9/2021 4:30:00 PM 10.78 51.404 0.589 8.27 238.4 15.16
3/9/2021 4:45:00 PM 10.78 51.404 0.59 8.26 556.2 14.93
3/9/2021 5:00:00 PM 10.78 51.404 0.591 8.25 258.6 14.66
3/9/2021 5:15:00 PM 10.77 51.386 0.59 8.24 213.2 14.43
3/9/2021 5:30:00 PM 10.78 51.404 0.591 8.23 504.5 14.17
3/9/2021 5:45:00 PM 10.77 51.386 0.591 8.22 189.6 13.9
3/9/2021 6:00:00 PM 10.75 51.35 0.591 8.2 501.3 13.61
3/9/2021 6:15:00 PM 10.72 51.296 0.591 8.18 562.7 13.3
3/9/2021 6:30:00 PM 10.69 51.242 0.591 8.17 464.8 13.03
3/9/2021 6:45:00 PM 10.66 51.188 0.592 8.15 136.1 12.8
3/9/2021 7:00:00 PM 10.63 51.134 0.593 8.13 499.9 12.58
3/9/2021 7:15:00 PM 10.6 51.08 0.593 8.12 254.8 12.38
3/9/2021 7:30:00 PM 10.57 51.026 0.593 8.1 425.5 12.18
3/9/2021 7:45:00 PM 10.55 50.99 0.593 8.08 366.3 12
3/9/2021 8:00:00 PM 10.52 50.936 0.594 8.07 206.5 11.83
3/9/2021 8:15:00 PM 10.49 50.882 0.594 8.06 72.44 11.69
3/9/2021 8:30:00 PM 10.46 50.828 0.594 8.04 88.52 11.56
3/9/2021 8:45:00 PM 10.43 50.774 0.595 8.03 465.8 11.41
3/9/2021 9:00:00 PM 10.4 50.72 0.595 8.02 1381 11.3
3/9/2021 9:15:00 PM 10.37 50.666 0.594 8.01 63.58 11.16
3/9/2021 9:30:00 PM 10.34 50.612 0.594 8 220.2 11.05
3/9/2021 9:45:00 PM 10.31 50.558 0.594 7.99 135.9 10.93
3/9/2021 10:00:00 PM 10.28 50.504 0.594 7.98 70.84 10.84
3/9/2021 10:15:00 PM 10.25 50.45 0.594 7.96 153 10.74
3/9/2021 10:30:00 PM 10.22 50.396 0.594 7.95 202.6 10.63
3/9/2021 10:45:00 PM 10.18 50.324 0.594 7.94 116.9 10.56
3/9/2021 11:00:00 PM 10.15 50.27 0.594 7.93 225.3 10.47
3/9/2021 11:15:00 PM 10.11 50.198 0.595 7.93 91.14 10.4
3/9/2021 11:30:00 PM 10.08 50.144 0.595 7.92 439.2 10.34
3/9/2021 11:45:00 PM 10.04 50.072 0.594 7.91 111.6 10.29
3/10/2021 12:00:00 AM 10 50 0.595 7.91 132.4 10.24
3/10/2021 12:15:00 AM 9.97 49.946 0.595 7.9 1313 10.2
3/10/2021 12:30:00 AM 9.93 49.874 0.595 7.9 181.1 10.15
3/10/2021 12:45:00 AM 9.89 49.802 0.596 7.89 101.1 10.11
3/10/2021 1:00:00 AM 9.85 49.73 0.595 7.89 62.32 10.09
3/10/2021 1:15:00 AM 9.81 49.658 0.597 7.88 131 10.06
3/10/2021 1:30:00 AM 9.76 49.568 0.598 7.87 332.6 10.04
3/10/2021 1:45:00 AM 9.72 49.496 0.598 7.87 22.16 10.03
3/10/2021 2:00:00 AM 9.68 49.424 0.599 7.86 1276 10
3/10/2021 2:15:00 AM 9.64 49.352 0.6 7.86 1046 10.02
3/10/2021 2:30:00 AM 9.59 49.262 0.6 7.86 2906 9.99
3/10/2021 2:45:00 AM 9.54 49.172 0.601 7.85 2275 10.01
3/10/2021 3:00:00 AM 9.5 49.1 0.602 7.85 2062 10
3/10/2021 3:15:00 AM 9.46 49.028 0.602 7.85 2447 9.99
3/10/2021 3:30:00 AM 9.41 48.938 0.602 7.85 2139 10
3/10/2021 3:45:00 AM 9.37 48.866 0.601 7.85 2449 9.99
3/10/2021 4:00:00 AM 9.32 48.776 0.602 7.85 657 10.01
3/10/2021 4:15:00 AM 9.28 48.704 0.603 7.85 2887 9.99
3/10/2021 4:30:00 AM 9.23 48.614 0.603 7.84 2382 10.01
3/10/2021 4:45:00 AM 9.18 48.524 0.603 7.84 1118 10.02
3/10/2021 5:00:00 AM 9.13 48.434 0.604 7.84 1554 10.03
3/10/2021 5:15:00 AM 9.08 48.344 0.604 7.84 2068 10.04
3/10/2021 5:30:00 AM 9.03 48.254 0.604 7.83 3256 10.06
3/10/2021 5:45:00 AM 8.99 48.182 0.604 7.83 3021 10.08
3/10/2021 6:00:00 AM 8.94 48.092 0.604 7.83 4204 10.07
3/10/2021 6:15:00 AM 8.89 48.002 0.605 7.83 2683 10.1
3/10/2021 6:30:00 AM 8.84 47.912 0.605 7.83 3293 10.12
3/10/2021 6:45:00 AM 8.8 47.84 0.605 7.84 3354 10.15
3/10/2021 7:00:00 AM 8.75 47.75 0.605 7.84 3620 10.2
3/10/2021 7:15:00 AM 8.72 47.696 0.605 7.84 3875 10.29
3/10/2021 7:30:00 AM 8.69 47.642 0.606 7.84 3730 10.4
3/10/2021 7:45:00 AM 8.67 47.606 0.605 7.85 3055 10.54
3/10/2021 8:00:00 AM 8.66 47.588 0.606 7.86 3902 10.72
3/10/2021 8:15:00 AM 8.67 47.606 0.606 7.87 4274 10.97
3/10/2021 8:30:00 AM 8.71 47.678 0.605 7.89 3909 11.24
3/10/2021 8:45:00 AM 8.76 47.768 0.605 7.9 3888 11.52
3/10/2021 9:00:00 AM 8.82 47.876 0.605 7.92 3981 11.81
3/10/2021 9:15:00 AM 8.89 48.002 0.604 7.94 3096 12.12
3/10/2021 9:30:00 AM 8.97 48.146 0.605 7.95 3184 12.44
3/10/2021 9:45:00 AM 9.06 48.308 0.604 7.98 3725 12.72
3/10/2021 10:00:00 AM 9.16 48.488 0.604 7.99 3385 13.02
3/10/2021 10:15:00 AM 9.28 48.704 0.603 8.01 4284 13.3
3/10/2021 10:30:00 AM 9.39 48.902 0.601 8.04 3253 13.58
3/10/2021 10:45:00 AM 9.51 49.118 0.602 8.06 3747 13.84
3/10/2021 11:00:00 AM 9.63 49.334 0.599 8.08 3697 14.11
3/10/2021 11:15:00 AM 9.75 49.55 0.599 8.09 2891 14.33
3/10/2021 11:30:00 AM 9.87 49.766 0.598 8.11 2920 14.56
3/10/2021 11:45:00 AM 10 50 0.598 8.13 3205 14.77
3/10/2021 12:00:00 PM 10.12 50.216 0.597 8.15 3120 14.97
3/10/2021 12:15:00 PM 10.25 50.45 0.596 8.17 2558 15.18
3/10/2021 12:30:00 PM 10.38 50.684 0.596 8.19 1845 15.38
3/10/2021 12:45:00 PM 10.5 50.9 0.596 8.2 2379 15.53
3/10/2021 1:00:00 PM 10.62 51.116 0.595 8.22 2537 15.71
3/10/2021 1:15:00 PM 10.73 51.314 0.594 8.23 2092 15.84
3/10/2021 1:30:00 PM 10.83 51.494 0.595 8.25 2383 15.97
3/10/2021 1:45:00 PM 10.93 51.674 0.593 8.26 3921 16.08
3/10/2021 2:00:00 PM 11.02 51.836 0.594 8.28 2808 16.17
3/10/2021 2:15:00 PM 11.1 51.98 0.592 8.29 3062 16.22
3/10/2021 2:30:00 PM 11.17 52.106 0.591 8.3 3130 16.29
3/10/2021 2:45:00 PM 11.22 52.196 0.59 8.31 1838 16.28
3/10/2021 3:00:00 PM 11.28 52.304 0.59 8.32 2884 16.26
3/10/2021 3:15:00 PM 11.32 52.376 0.589 8.33 2549 16.22
3/10/2021 3:30:00 PM 11.36 52.448 0.589 8.34 2557 16.17
3/10/2021 3:45:00 PM 11.39 52.502 0.589 8.34 3123 16.07
3/10/2021 4:00:00 PM 11.4 52.52 0.589 8.34 2760 15.97
3/10/2021 4:15:00 PM 11.41 52.538 0.589 8.34 2424 15.78
3/10/2021 4:30:00 PM 11.41 52.538 0.589 8.33 1986 15.6
3/10/2021 4:45:00 PM 11.4 52.52 0.589 8.33 4249 15.34
3/10/2021 5:00:00 PM 11.38 52.484 0.59 8.31 4035 15.05
3/10/2021 5:15:00 PM 11.37 52.466 0.59 8.3 4404 14.7
3/10/2021 5:30:00 PM 11.36 52.448 0.591 8.28 3936 14.35
3/10/2021 5:45:00 PM 11.34 52.412 0.592 8.27 4406 14.04
3/10/2021 6:00:00 PM 11.34 52.412 0.592 8.25 3936 13.73
3/10/2021 6:15:00 PM 11.32 52.376 0.593 8.23 4503 13.44
3/10/2021 6:30:00 PM 11.31 52.358 0.593 8.21 4102 13.15
3/10/2021 6:45:00 PM 11.28 52.304 0.594 8.19 2286 12.91
3/10/2021 7:00:00 PM 11.26 52.268 0.594 8.18 4086 12.66
3/10/2021 7:15:00 PM 11.23 52.214 0.594 8.16 4204 12.44
3/10/2021 7:30:00 PM 11.2 52.16 0.594 8.14 4111 12.22
3/10/2021 7:45:00 PM 11.17 52.106 0.595 8.12 4351 12
3/10/2021 8:00:00 PM 11.15 52.07 0.595 8.11 4451 11.83
3/10/2021 8:15:00 PM 11.13 52.034 0.595 8.09 4374 11.66
3/10/2021 8:30:00 PM 11.1 51.98 0.595 8.08 4395 11.51
3/10/2021 8:45:00 PM 11.08 51.944 0.596 8.06 3970 11.36
3/10/2021 9:00:00 PM 11.05 51.89 0.596 8.05 4454 11.2
3/10/2021 9:15:00 PM 11.02 51.836 0.596 8.04 3785 11.07
3/10/2021 9:30:00 PM 10.99 51.782 0.596 8.02 4172 10.93
3/10/2021 9:45:00 PM 10.96 51.728 0.597 8.01 4157 10.82
3/10/2021 10:00:00 PM 10.93 51.674 0.597 7.99 3902 10.68
3/10/2021 10:15:00 PM 10.94 51.692 0.597 7.98 4534 10.53
3/10/2021 10:30:00 PM 10.93 51.674 0.597 7.97 4505 10.4
3/10/2021 10:45:00 PM 10.91 51.638 0.597 7.96 4539 10.28
3/10/2021 11:00:00 PM 10.89 51.602 0.597 7.95 4413 10.17
3/10/2021 11:15:00 PM 10.86 51.548 0.597 7.94 4539 10.08
3/10/2021 11:30:00 PM 10.83 51.494 0.597 7.93 1335 10
3/10/2021 11:45:00 PM 10.79 51.422 0.597 7.92 4207 9.96
3/11/2021 12:00:00 AM 10.73 51.314 0.597 7.91 4539 9.92
3/11/2021 12:15:00 AM 10.67 51.206 0.597 7.91 3560 9.92
3/11/2021 12:30:00 AM 10.63 51.134 0.598 7.9 4483 9.89
3/11/2021 12:45:00 AM 10.59 51.062 0.598 7.9 3397 9.87
3/11/2021 1:00:00 AM 10.56 51.008 0.598 7.89 4343 9.83
3/11/2021 1:15:00 AM 10.53 50.954 0.599 7.88 4515 9.81
3/11/2021 1:30:00 AM 10.49 50.882 0.599 7.88 4533 9.76
3/11/2021 1:45:00 AM 10.46 50.828 0.6 7.87 4527 9.74
3/11/2021 2:00:00 AM 10.43 50.774 0.6 7.87 4473 9.72
3/11/2021 2:15:00 AM 10.4 50.72 0.6 7.86 3656 9.69
3/11/2021 2:30:00 AM 10.36 50.648 0.601 7.86 3832 9.68
3/11/2021 2:45:00 AM 10.34 50.612 0.601 7.86 4538 9.65
3/11/2021 3:00:00 AM 10.3 50.54 0.601 7.85 4539 9.65
3/11/2021 3:15:00 AM 10.26 50.468 0.601 7.85 3980 9.64
3/11/2021 3:30:00 AM 10.23 50.414 0.602 7.85 3322 9.66
3/11/2021 3:45:00 AM 10.19 50.342 0.602 7.85 3102 9.65
3/11/2021 4:00:00 AM 10.15 50.27 0.602 7.84 1884 9.64
3/11/2021 4:15:00 AM 10.11 50.198 0.603 7.84 4436 9.65
3/11/2021 4:30:00 AM 10.07 50.126 0.565 7.84 4490 9.65
3/11/2021 4:45:00 AM 10.03 50.054 0.604 7.84 3304 9.66
3/11/2021 5:00:00 AM 9.99 49.982 0.604 7.84 2517 9.66
3/11/2021 5:15:00 AM 9.95 49.91 0.605 7.84 2028 9.67
3/11/2021 5:30:00 AM 9.91 49.838 0.606 7.83 2663 9.68
3/11/2021 5:45:00 AM 9.87 49.766 0.606 7.84 4486 9.67
3/11/2021 6:00:00 AM 9.84 49.712 0.607 7.84 2254 9.69
3/11/2021 6:15:00 AM 9.8 49.64 0.606 7.84 2965 9.7
3/11/2021 6:30:00 AM 9.76 49.568 0.606 7.84 3864 9.72
3/11/2021 6:45:00 AM 9.71 49.478 0.606 7.84 4399 9.74
3/11/2021 7:00:00 AM 9.68 49.424 0.606 7.84 4361 9.82
3/11/2021 7:15:00 AM 9.67 49.406 0.606 7.84 2447 9.91
3/11/2021 7:30:00 AM 9.66 49.388 0.607 7.84 2124 10.02
3/11/2021 7:45:00 AM 9.64 49.352 0.606 7.85 3383 10.16
3/11/2021 8:00:00 AM 9.65 49.37 0.606 7.86 4312 10.4
3/11/2021 8:15:00 AM 9.67 49.406 0.606 7.88 2723 10.69
3/11/2021 8:30:00 AM 9.71 49.478 0.605 7.9 4536 11.05
3/11/2021 8:45:00 AM 9.72 49.496 0.605 7.92 4505 11.24
3/11/2021 9:00:00 AM 9.77 49.586 0.604 7.93 3259 11.59
3/11/2021 9:15:00 AM 9.82 49.676 0.604 7.95 2768 11.87
3/11/2021 9:30:00 AM 9.91 49.838 0.603 7.98 3895 12.25
3/11/2021 9:45:00 AM 10.01 50.018 0.602 8 4263 12.59
3/11/2021 10:00:00 AM 10.12 50.216 0.602 8.02 4205 12.9
3/11/2021 10:15:00 AM 10.24 50.432 0.601 8.04 4045 13.28
3/11/2021 10:30:00 AM 10.36 50.648 0.6 8.07 3262 13.57
3/11/2021 10:45:00 AM 10.5 50.9 0.599 8.09 3077 13.9
3/11/2021 11:00:00 AM 10.63 51.134 0.598 8.12 2789 14.22
3/11/2021 11:15:00 AM 10.76 51.368 0.598 8.14 3759 14.47
3/11/2021 11:30:00 AM 10.89 51.602 0.597 8.16 4075 14.72
3/11/2021 11:45:00 AM 11.01 51.818 0.595 8.18 3460 14.95
3/11/2021 12:00:00 PM 11.15 52.07 0.594 8.2 3440 15.2
3/11/2021 12:15:00 PM 11.28 52.304 0.596 8.22 924 15.42
3/11/2021 12:30:00 PM 11.41 52.538 0.595 8.24 1357 15.64
3/11/2021 12:45:00 PM 11.54 52.772 0.594 8.26 181.7 15.85
3/11/2021 1:00:00 PM 11.64 52.952 0.594 8.28 944.5 16.05
3/11/2021 1:15:00 PM 11.76 53.168 0.593 8.3 2792 16.26
3/11/2021 1:30:00 PM 11.88 53.384 0.593 8.32 140.6 16.37
3/11/2021 1:45:00 PM 11.98 53.564 0.596 8.33 245.7 16.44
3/11/2021 2:00:00 PM 12.08 53.744 0.599 8.34 195.5 16.57
3/11/2021 2:15:00 PM 12.19 53.942 0.595 8.36 643.4 16.67
3/11/2021 2:30:00 PM 12.28 54.104 0.592 8.37 16.05 16.7
3/11/2021 2:45:00 PM 12.34 54.212 0.591 8.38 876.2 16.71
3/11/2021 3:00:00 PM 12.39 54.302 0.59 8.39 1584 16.69
3/11/2021 3:15:00 PM 12.42 54.356 0.59 8.4 707.6 16.64
3/11/2021 3:30:00 PM 12.46 54.428 0.59 8.4 388.2 16.55
3/11/2021 3:45:00 PM 12.46 54.428 0.589 8.39 2.38 16.44
3/11/2021 4:00:00 PM 12.47 54.446 0.589 8.41 2.55 16.33
3/11/2021 4:15:00 PM 12.49 54.482 0.588 8.41 2.52 16.11
3/11/2021 4:30:00 PM 12.51 54.518 0.588 8.41 2.19 15.92
3/11/2021 4:45:00 PM 12.54 54.572 0.589 8.4 2.25 15.62
3/11/2021 5:00:00 PM 12.58 54.644 0.589 8.38 2.49 15.19
3/11/2021 5:15:00 PM 12.57 54.626 0.589 8.36 2.75 14.74
3/11/2021 5:30:00 PM 12.53 54.554 0.59 8.34 2.64 14.24
3/11/2021 5:45:00 PM 12.5 54.5 0.591 8.32 2.55 13.87
3/11/2021 6:00:00 PM 12.48 54.464 0.592 8.29 2.32 13.53
3/11/2021 6:15:00 PM 12.47 54.446 0.593 8.27 2.99 13.19
3/11/2021 6:30:00 PM 12.47 54.446 0.593 8.25 2.85 12.89
3/11/2021 6:45:00 PM 12.46 54.428 0.594 8.23 2.68 12.59
3/11/2021 7:00:00 PM 12.46 54.428 0.594 8.21 3.11 12.35
3/11/2021 7:15:00 PM 12.45 54.41 0.595 8.19 3 12.1
3/11/2021 7:30:00 PM 12.43 54.374 0.595 8.17 2.86 11.87
3/11/2021 7:45:00 PM 12.42 54.356 0.595 8.15 3.45 11.69
3/11/2021 8:00:00 PM 12.39 54.302 0.595 8.13 4.19 11.45
3/11/2021 8:15:00 PM 12.37 54.266 0.595 8.12 4.25 11.27
3/11/2021 8:30:00 PM 12.35 54.23 0.596 8.1 3.91 11.08
3/11/2021 8:45:00 PM 12.32 54.176 0.596 8.09 3.79 10.94
3/11/2021 9:00:00 PM 12.29 54.122 0.596 8.07 4.28 10.79
3/11/2021 9:15:00 PM 12.27 54.086 0.597 8.06 3.85 10.65
3/11/2021 9:30:00 PM 12.24 54.032 0.597 8.04 3.72 10.51
3/11/2021 9:45:00 PM 12.21 53.978 0.597 8.02 4.89 10.36
3/11/2021 10:00:00 PM 12.19 53.942 0.597 8 4.7 10.23
3/11/2021 10:15:00 PM 12.17 53.906 0.597 7.99 4.75 10.08
3/11/2021 10:30:00 PM 12.15 53.87 0.597 7.97 5.38 9.96
3/11/2021 10:45:00 PM 12.13 53.834 0.598 7.96 4.67 9.88
3/11/2021 11:00:00 PM 12.11 53.798 0.598 7.95 4.71 9.78
3/11/2021 11:15:00 PM 12.09 53.762 0.598 7.94 4.96 9.7
3/11/2021 11:30:00 PM 12.07 53.726 0.598 7.92 5.24 9.61
3/11/2021 11:45:00 PM 12.05 53.69 0.598 7.92 4.8 9.53
3/12/2021 12:00:00 AM 12.04 53.672 0.598 7.91 4.24 9.48
3/12/2021 12:15:00 AM 12.02 53.636 0.598 7.9 5.33 9.42
3/12/2021 12:30:00 AM 12 53.6 0.598 7.89 4.87 9.38
3/12/2021 12:45:00 AM 11.98 53.564 0.598 7.89 5.39 9.33
3/12/2021 1:00:00 AM 11.96 53.528 0.598 7.88 4.59 9.3
3/12/2021 1:15:00 AM 11.95 53.51 0.598 7.87 4.57 9.27
3/12/2021 1:30:00 AM 11.93 53.474 0.599 7.87 5.1 9.23
3/12/2021 1:45:00 AM 11.92 53.456 0.599 7.86 5.27 9.2
3/12/2021 2:00:00 AM 11.92 53.456 0.599 7.85 4.82 9.18
3/12/2021 2:15:00 AM 11.9 53.42 0.599 7.85 4.38 9.15
3/12/2021 2:30:00 AM 11.89 53.402 0.6 7.84 5.62 9.14
3/12/2021 2:45:00 AM 11.88 53.384 0.6 7.84 4.67 9.11
3/12/2021 3:00:00 AM 11.87 53.366 0.6 7.84 5.4 9.08
3/12/2021 3:15:00 AM 11.85 53.33 0.601 7.84 5.58 9.09
3/12/2021 3:30:00 AM 11.83 53.294 0.601 7.84 4.53 9.09
3/12/2021 3:45:00 AM 11.8 53.24 0.601 7.83 5.14 9.06
3/12/2021 4:00:00 AM 11.78 53.204 0.602 7.83 4.88 9.05
3/12/2021 4:15:00 AM 11.77 53.186 0.602 7.83 5.01 9.07
3/12/2021 4:30:00 AM 11.75 53.15 0.602 7.83 5.17 9.06
3/12/2021 4:45:00 AM 11.73 53.114 0.602 7.83 4.6 9.04
3/12/2021 5:00:00 AM 11.71 53.078 0.603 7.83 4.65 9.05
3/12/2021 5:15:00 AM 11.69 53.042 0.603 7.83 4.22 9.05
3/12/2021 5:30:00 AM 11.68 53.024 0.603 7.83 28.87 9.07
3/12/2021 5:45:00 AM 11.66 52.988 0.603 7.83 4.95 9.07
3/12/2021 6:00:00 AM 11.64 52.952 0.604 7.82 5.07 9.06
3/12/2021 6:15:00 AM 11.62 52.916 0.605 7.82 10.34 9.07
3/12/2021 6:30:00 AM 11.6 52.88 0.604 7.81 4.78 9.07
3/12/2021 6:45:00 AM 11.58 52.844 0.605 7.81 4.42 9.1
3/12/2021 7:00:00 AM 11.57 52.826 0.605 7.81 4.73 9.12
3/12/2021 7:15:00 AM 11.56 52.808 0.606 7.81 4.42 9.16
3/12/2021 7:30:00 AM 11.55 52.79 0.606 7.82 6.03 9.28
3/12/2021 7:45:00 AM 11.54 52.772 0.606 7.82 3.63 9.39
3/12/2021 8:00:00 AM 11.53 52.754 0.607 7.83 3.4 9.48
3/12/2021 8:15:00 AM 11.53 52.754 0.607 7.83 2.63 9.67
3/12/2021 8:30:00 AM 11.54 52.772 0.607 7.85 2.47 9.95
3/12/2021 8:45:00 AM 11.55 52.79 0.606 7.87 2.52 10.33
3/12/2021 9:00:00 AM 11.6 52.88 0.606 7.9 2.8 10.82
3/12/2021 9:15:00 AM 11.64 52.952 0.605 7.93 2.19 11.21
3/12/2021 9:30:00 AM 11.7 53.06 0.605 7.95 2.62 11.61
3/12/2021 9:45:00 AM 11.75 53.15 0.604 7.98 13.45 11.96
3/12/2021 10:00:00 AM 11.84 53.312 0.604 8 3.47 12.38
3/12/2021 10:15:00 AM 11.93 53.474 0.603 8.03 2.6 12.77
3/12/2021 10:30:00 AM 12.04 53.672 0.602 8.06 2.01 13.16
3/12/2021 10:45:00 AM 12.13 53.834 0.602 8.08 1.86 13.5
3/12/2021 11:00:00 AM 12.22 53.996 0.601 8.1 2.02 13.82
3/12/2021 11:15:00 AM 12.32 54.176 0.601 8.13 2.91 14.12
3/12/2021 11:30:00 AM 12.4 54.32 0.6 8.15 2.04 14.43
3/12/2021 11:45:00 AM 12.5 54.5 0.599 8.17 2.19 14.69
3/12/2021 12:00:00 PM 12.6 54.68 0.599 8.19 2.15 15
3/12/2021 12:15:00 PM 12.72 54.896 0.598 8.21 2.05 15.27
3/12/2021 12:30:00 PM 12.86 55.148 0.597 8.24 1.83 15.49
3/12/2021 12:45:00 PM 12.99 55.382 0.596 8.25 2.06 15.68
3/12/2021 1:00:00 PM 13.1 55.58 0.595 8.27 2.46 15.88
3/12/2021 1:15:00 PM 13.19 55.742 0.595 8.29 2.21 16.07
3/12/2021 1:30:00 PM 13.25 55.85 0.594 8.31 2.18 16.19
3/12/2021 1:45:00 PM 13.29 55.922 0.593 8.33 1.97 16.28
3/12/2021 2:00:00 PM 13.33 55.994 0.593 8.34 1.85 16.37
3/12/2021 2:15:00 PM 13.34 56.012 0.593 8.36 1.9 16.44
3/12/2021 2:30:00 PM 13.33 55.994 0.592 8.37 2.16 16.48
3/12/2021 2:45:00 PM 13.28 55.904 0.592 8.38 2.17 16.46
3/12/2021 3:00:00 PM 13.23 55.814 0.591 8.38 1.97 16.37
3/12/2021 3:15:00 PM 13.23 55.814 0.591 8.39 2.14 16.31
3/12/2021 3:30:00 PM 13.22 55.796 0.59 8.39 2.5 16.28
3/12/2021 3:45:00 PM 13.21 55.778 0.59 8.4 2.77 16.14
3/12/2021 4:00:00 PM 13.16 55.688 0.59 8.4 2.17 15.92
3/12/2021 4:15:00 PM 13.12 55.616 0.59 8.39 2.89 15.71
3/12/2021 4:30:00 PM 13.06 55.508 0.59 8.38 2.9 15.46
3/12/2021 4:45:00 PM 13.02 55.436 0.59 8.37 3.14 15.17
3/12/2021 5:00:00 PM 12.97 55.346 0.591 8.36 2.84 14.83
3/12/2021 5:15:00 PM 12.92 55.256 0.591 8.35 3.15 14.51
3/12/2021 5:30:00 PM 12.85 55.13 0.591 8.33 3.5 14.07
3/12/2021 5:45:00 PM 12.8 55.04 0.591 8.31 3.18 13.72
3/12/2021 6:00:00 PM 12.74 54.932 0.592 8.29 2.59 13.35
3/12/2021 6:15:00 PM 12.68 54.824 0.593 8.26 2.71 13.02
3/12/2021 6:30:00 PM 12.63 54.734 0.593 8.25 3.22 12.7
3/12/2021 6:45:00 PM 12.59 54.662 0.593 8.22 3.31 12.41
3/12/2021 7:00:00 PM 12.55 54.59 0.593 8.2 2.94 12.13
3/12/2021 7:15:00 PM 12.51 54.518 0.593 8.19 3 11.89
3/12/2021 7:30:00 PM 12.46 54.428 0.594 8.17 3.45 11.69
3/12/2021 7:45:00 PM 12.41 54.338 0.594 8.15 4.82 11.5
3/12/2021 8:00:00 PM 12.35 54.23 0.594 8.13 37.69 11.3
3/12/2021 8:15:00 PM 12.28 54.104 0.595 8.12 36.46 11.13
3/12/2021 8:30:00 PM 12.23 54.014 0.595 8.1 3.75 10.97
3/12/2021 8:45:00 PM 12.17 53.906 0.595 8.09 4.17 10.81
3/12/2021 9:00:00 PM 12.12 53.816 0.595 8.07 3.82 10.65
3/12/2021 9:15:00 PM 12.06 53.708 0.595 8.06 4.58 10.5
3/12/2021 9:30:00 PM 11.99 53.582 0.596 8.04 3.77 10.4
3/12/2021 9:45:00 PM 11.91 53.438 0.596 8.03 4.53 10.28
3/12/2021 10:00:00 PM 11.83 53.294 0.597 8.01 4.52 10.18
3/12/2021 10:15:00 PM 11.75 53.15 0.597 8 5.52 10.07
3/12/2021 10:30:00 PM 11.7 53.06 0.598 7.98 4.77 9.99
3/12/2021 10:45:00 PM 11.64 52.952 0.598 7.97 4.43 9.9
3/12/2021 11:00:00 PM 11.57 52.826 0.598 7.96 4.21 9.82
3/12/2021 11:15:00 PM 11.51 52.718 0.598 7.95 4.71 9.74
3/12/2021 11:30:00 PM 11.45 52.61 0.598 7.94 4.39 9.68
3/12/2021 11:45:00 PM 11.42 52.556 0.597 7.93 4.6 9.6
3/13/2021 12:00:00 AM 11.4 52.52 0.597 7.92 4.61 9.5
3/13/2021 12:15:00 AM 11.36 52.448 0.597 7.91 3.91 9.42
3/13/2021 12:30:00 AM 11.31 52.358 0.596 7.9 4.75 9.37
3/13/2021 12:45:00 AM 11.25 52.25 0.595 7.89 4.85 9.33
3/13/2021 1:00:00 AM 11.19 52.142 0.595 7.89 4.52 9.3
3/13/2021 1:15:00 AM 11.12 52.016 0.595 7.88 5.24 9.28
3/13/2021 1:30:00 AM 11.06 51.908 0.595 7.88 4.64 9.26
3/13/2021 1:45:00 AM 10.96 51.728 0.596 7.87 4.91 9.31
3/13/2021 2:00:00 AM 10.88 51.584 0.596 7.87 146.9 9.35
3/13/2021 2:15:00 AM 10.81 51.458 0.597 7.87 5.48 9.36
3/13/2021 2:30:00 AM 10.73 51.314 0.597 7.86 4.61 9.35
3/13/2021 2:45:00 AM 10.64 51.152 0.598 7.86 5.27 9.38
3/13/2021 3:00:00 AM 10.55 50.99 0.598 7.86 5.66 9.39
3/13/2021 3:15:00 AM 10.47 50.846 0.598 7.85 4.46 9.38
3/13/2021 3:30:00 AM 10.37 50.666 0.599 7.85 4.4 9.39
3/13/2021 3:45:00 AM 10.28 50.504 0.599 7.85 5.08 9.41
3/13/2021 4:00:00 AM 10.21 50.378 0.599 7.85 5.39 9.43
3/13/2021 4:15:00 AM 10.13 50.234 0.598 7.85 47.59 9.46
3/13/2021 4:30:00 AM 10.07 50.126 0.599 7.85 6.32 9.46
3/13/2021 4:45:00 AM 10 50 0.599 7.85 5.03 9.48
3/13/2021 5:00:00 AM 9.93 49.874 0.6 7.85 4.29 9.49
3/13/2021 5:15:00 AM 9.86 49.748 0.6 7.85 4.84 9.51
3/13/2021 5:30:00 AM 9.79 49.622 0.6 7.85 13.79 9.52
3/13/2021 5:45:00 AM 9.71 49.478 0.601 7.85 4.96 9.55
3/13/2021 6:00:00 AM 9.64 49.352 0.601 7.85 4.02 9.6
3/13/2021 6:15:00 AM 9.56 49.208 0.599 7.85 4.17 9.62
3/13/2021 6:30:00 AM 9.5 49.1 0.601 7.85 4.14 9.66
3/13/2021 6:45:00 AM 9.44 48.992 0.602 7.85 5.19 9.69
3/13/2021 7:00:00 AM 9.38 48.884 0.603 7.85 4 9.77
3/13/2021 7:15:00 AM 9.32 48.776 0.604 7.86 3.27 9.87
3/13/2021 7:30:00 AM 9.27 48.686 0.605 7.86 2.96 10
3/13/2021 7:45:00 AM 9.21 48.578 0.605 7.87 2.93 10.19
3/13/2021 8:00:00 AM 9.15 48.47 0.605 7.88 3.11 10.42
3/13/2021 8:15:00 AM 9.11 48.398 0.605 7.9 3.27 10.75
3/13/2021 8:30:00 AM 9.1 48.38 0.605 7.92 2.66 11.08
3/13/2021 8:45:00 AM 9.1 48.38 0.605 7.94 2.39 11.43
3/13/2021 9:00:00 AM 9.13 48.434 0.604 7.96 2.26 11.8
3/13/2021 9:15:00 AM 9.18 48.524 0.604 7.98 2.25 12.17
3/13/2021 9:30:00 AM 9.24 48.632 0.604 8.01 2.17 12.52
3/13/2021 9:45:00 AM 9.29 48.722 0.603 8.03 2.98 12.85
3/13/2021 10:00:00 AM 9.36 48.848 0.603 8.05 28.49 13.18
3/13/2021 10:15:00 AM 9.45 49.01 0.602 8.07 2.39 13.52
3/13/2021 10:30:00 AM 9.53 49.154 0.602 8.09 2.53 13.81
3/13/2021 10:45:00 AM 9.64 49.352 0.601 8.11 2.1 14.11
3/13/2021 11:00:00 AM 9.73 49.514 0.601 8.14 2.26 14.39
3/13/2021 11:15:00 AM 9.84 49.712 0.601 8.16 3.02 14.69
3/13/2021 11:30:00 AM 9.94 49.892 0.6 8.17 2.09 14.92
3/13/2021 11:45:00 AM 10.04 50.072 0.6 8.19 3.4 15.18
3/13/2021 12:00:00 PM 10.15 50.27 0.599 8.21 1.96 15.41
3/13/2021 12:15:00 PM 10.25 50.45 0.599 8.23 2.59 15.64
3/13/2021 12:30:00 PM 10.36 50.648 0.598 8.25 2.28 15.85
3/13/2021 12:45:00 PM 10.45 50.81 0.597 8.27 2.21 16.07
3/13/2021 1:00:00 PM 10.57 51.026 0.596 8.29 1.93 16.25
3/13/2021 1:15:00 PM 10.66 51.188 0.595 8.31 1.79 16.44
3/13/2021 1:30:00 PM 10.73 51.314 0.595 8.33 1.9 16.56
3/13/2021 1:45:00 PM 10.8 51.44 0.594 8.34 1.94 16.71
3/13/2021 2:00:00 PM 10.86 51.548 0.594 8.36 3.74 16.81
3/13/2021 2:15:00 PM 10.92 51.656 0.594 8.37 1.93 16.85
3/13/2021 2:30:00 PM 10.95 51.71 0.593 8.38 1.95 16.9
3/13/2021 2:45:00 PM 10.98 51.764 0.593 8.4 1.97 16.98
3/13/2021 3:00:00 PM 11 51.8 0.592 8.41 2.09 16.95
3/13/2021 3:15:00 PM 11.02 51.836 0.592 8.41 2.24 16.92
3/13/2021 3:30:00 PM 11.02 51.836 0.592 8.42 1.92 16.86
3/13/2021 3:45:00 PM 11.01 51.818 0.592 8.42 1.93 16.78
3/13/2021 4:00:00 PM 10.99 51.782 0.592 8.42 2.01 16.66
3/13/2021 4:15:00 PM 10.96 51.728 0.592 8.42 2.12 16.44
3/13/2021 4:30:00 PM 10.92 51.656 0.592 8.42 570.7 16.2
3/13/2021 4:45:00 PM 10.87 51.566 0.592 8.4 2.05 15.86
3/13/2021 5:00:00 PM 10.82 51.476 0.593 8.39 2.51 15.55
3/13/2021 5:15:00 PM 10.78 51.404 0.593 8.38 2.76 15.2
3/13/2021 5:30:00 PM 10.73 51.314 0.594 8.36 2.4 14.83
3/13/2021 5:45:00 PM 10.7 51.26 0.595 8.34 2.67 14.44
3/13/2021 6:00:00 PM 10.66 51.188 0.596 8.32 2.67 14.11
3/13/2021 6:15:00 PM 10.62 51.116 0.596 8.3 82.44 13.78
3/13/2021 6:30:00 PM 10.58 51.044 0.596 8.28 2.84 13.48
3/13/2021 6:45:00 PM 10.54 50.972 0.597 8.26 2.52 13.2
3/13/2021 7:00:00 PM 10.49 50.882 0.597 8.25 2.24 12.94
3/13/2021 7:15:00 PM 10.44 50.792 0.598 8.23 3.75 12.7
3/13/2021 7:30:00 PM 10.39 50.702 0.598 8.21 3.36 12.46
3/13/2021 7:45:00 PM 10.35 50.63 0.599 8.19 2.91 12.25
3/13/2021 8:00:00 PM 10.3 50.54 0.6 8.18 3.43 12.05
3/13/2021 8:15:00 PM 10.25 50.45 0.601 8.16 3.16 11.88
3/13/2021 8:30:00 PM 10.21 50.378 0.602 8.14 2.84 11.72
3/13/2021 8:45:00 PM 10.16 50.288 0.602 8.12 3.47 11.57
3/13/2021 9:00:00 PM 10.12 50.216 0.603 8.11 3.97 11.44
3/13/2021 9:15:00 PM 10.08 50.144 0.604 8.09 3.25 11.3
3/13/2021 9:30:00 PM 10.04 50.072 0.604 8.07 389.9 11.15
3/13/2021 9:45:00 PM 10 50 0.605 8.06 4 11.02
3/13/2021 10:00:00 PM 9.97 49.946 0.605 8.04 3.58 10.91
3/13/2021 10:15:00 PM 9.94 49.892 0.605 8.03 3.78 10.81
3/13/2021 10:30:00 PM 9.92 49.856 0.606 8.01 181 10.69
3/13/2021 10:45:00 PM 9.9 49.82 0.606 8 3.32 10.58
3/13/2021 11:00:00 PM 9.87 49.766 0.607 7.99 3.4 10.46
3/13/2021 11:15:00 PM 9.84 49.712 0.607 7.98 4.41 10.38
3/13/2021 11:30:00 PM 9.81 49.658 0.608 7.96 4.18 10.32
3/13/2021 11:45:00 PM 9.78 49.604 0.608 7.96 4.05 10.24
3/14/2021 12:00:00 AM 9.73 49.514 0.609 7.95 5 10.17
3/14/2021 12:15:00 AM 9.7 49.46 0.609 7.94 3.81 10.14
3/14/2021 12:30:00 AM 9.66 49.388 0.609 7.93 12.15 10.09
3/14/2021 12:45:00 AM 9.62 49.316 0.609 7.92 137.6 10.03
3/14/2021 1:00:00 AM 9.58 49.244 0.609 7.91 3.85 10
3/14/2021 1:15:00 AM 9.55 49.19 0.609 7.91 3.58 9.97
3/14/2021 1:30:00 AM 9.52 49.136 0.609 7.9 3.08 9.93
3/14/2021 1:45:00 AM 9.48 49.064 0.609 7.9 3.46 9.9
3/14/2021 3:00:00 AM 9.3 48.74 0.609 7.87 4.1 9.81
3/14/2021 3:15:00 AM 9.27 48.686 0.61 7.87 3.81 9.8
3/14/2021 3:30:00 AM 9.23 48.614 0.61 7.87 3.95 9.79
3/14/2021 3:45:00 AM 9.19 48.542 0.61 7.86 3.96 9.77
3/14/2021 4:00:00 AM 9.15 48.47 0.61 7.86 4.05 9.78
3/14/2021 4:15:00 AM 9.11 48.398 0.611 7.86 4.37 9.76
3/14/2021 4:30:00 AM 9.08 48.344 0.611 7.85 3.82 9.77
3/14/2021 4:45:00 AM 9.04 48.272 0.611 7.85 4.6 9.77
3/14/2021 5:00:00 AM 9 48.2 0.611 7.85 6.08 9.76
3/14/2021 5:15:00 AM 8.96 48.128 0.611 7.85 8.11 9.78
3/14/2021 5:30:00 AM 8.92 48.056 0.61 7.85 11.72 9.78
3/14/2021 5:45:00 AM 8.89 48.002 0.61 7.85 14.73 9.79
3/14/2021 6:00:00 AM 8.85 47.93 0.609 7.85 16.66 9.8
3/14/2021 6:15:00 AM 8.82 47.876 0.609 7.85 9.88 9.82
3/14/2021 6:30:00 AM 8.8 47.84 0.609 7.85 9 9.84
3/14/2021 6:45:00 AM 8.78 47.804 0.609 7.85 10.81 9.89
3/14/2021 7:00:00 AM 8.76 47.768 0.609 7.86 19.92 9.97
3/14/2021 7:15:00 AM 8.74 47.732 0.609 7.87 31.46 10.06
3/14/2021 7:30:00 AM 8.72 47.696 0.609 7.87 27.44 10.21
3/14/2021 7:45:00 AM 8.71 47.678 0.609 7.88 22.01 10.42
3/14/2021 8:00:00 AM 8.73 47.714 0.609 7.9 22.45 10.67
3/14/2021 8:15:00 AM 8.75 47.75 0.608 7.91 40.55 10.99
3/14/2021 8:30:00 AM 8.8 47.84 0.608 7.93 53.57 11.35
3/14/2021 8:45:00 AM 8.85 47.93 0.608 7.96 10.92 11.7
3/14/2021 9:00:00 AM 8.91 48.038 0.608 7.98 17.12 12.1
3/14/2021 9:15:00 AM 8.99 48.182 0.608 8 24.65 12.46
3/14/2021 9:30:00 AM 9.09 48.362 0.608 8.02 15.98 12.8
3/14/2021 9:45:00 AM 9.21 48.578 0.607 8.05 11.93 13.18
3/14/2021 10:00:00 AM 9.34 48.812 0.606 8.07 16.58 13.58
3/14/2021 10:15:00 AM 9.47 49.046 0.605 8.1 11.98 13.94
3/14/2021 10:30:00 AM 9.58 49.244 0.604 8.12 17.59 14.26
3/14/2021 10:45:00 AM 9.7 49.46 0.603 8.14 12.47 14.51
3/14/2021 11:00:00 AM 9.82 49.676 0.602 8.16 14.29 14.77
3/14/2021 11:15:00 AM 9.94 49.892 0.601 8.18 10.95 15.02
3/14/2021 11:30:00 AM 10.04 50.072 0.601 8.2 12.59 15.25
3/14/2021 11:45:00 AM 10.15 50.27 0.6 8.22 11.89 15.45
3/14/2021 12:00:00 PM 10.26 50.468 0.599 8.24 10.37 15.7
3/14/2021 12:15:00 PM 10.36 50.648 0.599 8.27 13.12 15.88
3/14/2021 12:30:00 PM 10.48 50.864 0.603 8.29 12.24 16.04
3/14/2021 12:45:00 PM 10.6 51.08 0.605 8.31 11.78 16.17
3/14/2021 1:00:00 PM 10.69 51.242 0.605 8.33 13.23 16.34
3/14/2021 1:15:00 PM 10.79 51.422 0.605 8.35 13.12 16.48
3/14/2021 1:30:00 PM 10.87 51.566 0.604 8.35 2.55 16.57
3/14/2021 1:45:00 PM 10.93 51.674 0.604 8.36 4.46 16.65
3/14/2021 2:00:00 PM 10.99 51.782 0.604 8.37 4.81 16.7
3/14/2021 2:15:00 PM 11.03 51.854 0.603 8.38 3.4 16.72
3/14/2021 2:30:00 PM 11.03 51.854 0.603 8.39 4.89 16.72
3/14/2021 2:45:00 PM 11.06 51.908 0.603 8.4 3.81 16.76
3/14/2021 3:00:00 PM 11.1 51.98 0.602 8.41 4.28 16.75
3/14/2021 3:15:00 PM 11.1 51.98 0.602 8.42 4.24 16.75
3/14/2021 3:30:00 PM 11.13 52.034 0.601 8.43 21.13 16.7
3/14/2021 3:45:00 PM 11.13 52.034 0.601 8.43 17.92 16.62
3/14/2021 4:00:00 PM 11.11 51.998 0.601 8.44 12.79 16.51
3/14/2021 4:15:00 PM 11.08 51.944 0.6 8.43 3.61 16.37
3/14/2021 4:30:00 PM 11.04 51.872 0.599 8.43 12.33 16.16
3/14/2021 4:45:00 PM 10.98 51.764 0.598 8.42 8.8 15.93
3/14/2021 5:00:00 PM 10.92 51.656 0.597 8.41 7.16 15.65
3/14/2021 5:15:00 PM 10.86 51.548 0.595 8.4 32.02 15.36
3/14/2021 5:30:00 PM 10.79 51.422 0.595 8.38 10.02 14.97
3/14/2021 5:45:00 PM 10.74 51.332 0.595 8.37 5.95 14.61
3/14/2021 6:00:00 PM 10.69 51.242 0.596 8.35 5.05 14.25
3/14/2021 6:15:00 PM 10.63 51.134 0.596 8.33 2.48 13.9
3/14/2021 6:30:00 PM 10.58 51.044 0.597 8.31 2.72 13.57
3/14/2021 6:45:00 PM 10.52 50.936 0.597 8.29 2.94 13.26
3/14/2021 7:00:00 PM 10.47 50.846 0.598 8.27 2.33 12.96
3/14/2021 7:15:00 PM 10.41 50.738 0.599 8.25 2.17 12.72
3/14/2021 7:30:00 PM 10.36 50.648 0.599 8.24 2.67 12.5
3/14/2021 7:45:00 PM 10.32 50.576 0.6 8.22 5.65 12.28
3/14/2021 8:00:00 PM 10.26 50.468 0.601 8.2 2.53 12.07
3/14/2021 8:15:00 PM 10.2 50.36 0.601 8.18 2.77 11.9
3/14/2021 8:30:00 PM 10.15 50.27 0.602 8.17 3.02 11.7
3/14/2021 8:45:00 PM 10.08 50.144 0.603 8.15 4.38 11.57
3/14/2021 9:00:00 PM 10.03 50.054 0.603 8.13 3.22 11.41
3/14/2021 9:15:00 PM 9.96 49.928 0.604 8.12 3.09 11.27
3/14/2021 9:30:00 PM 9.89 49.802 0.604 8.1 3.55 11.15
3/14/2021 9:45:00 PM 9.81 49.658 0.605 8.09 11.56 11.03
3/14/2021 10:00:00 PM 9.73 49.514 0.605 8.08 4.95 10.91
3/14/2021 10:15:00 PM 9.65 49.37 0.606 8.06 2.9 10.81
3/14/2021 10:30:00 PM 9.58 49.244 0.607 8.05 3.81 10.72
3/14/2021 10:45:00 PM 9.52 49.136 0.607 8.03 4.01 10.6
3/14/2021 11:00:00 PM 9.48 49.064 0.608 8.02 4.41 10.51
3/14/2021 11:15:00 PM 9.41 48.938 0.608 8 4.03 10.45
3/14/2021 11:30:00 PM 9.35 48.83 0.609 7.99 3.48 10.34
3/14/2021 11:45:00 PM 9.28 48.704 0.609 7.98 2.82 10.28
3/15/2021 12:00:00 AM 9.21 48.578 0.61 7.97 6.65 10.21
3/15/2021 12:15:00 AM 9.13 48.434 0.61 7.96 2.86 10.1
3/15/2021 12:30:00 AM 9.06 48.308 0.61 7.95 3.46 10.06
3/15/2021 12:45:00 AM 8.99 48.182 0.61 7.94 3.67 9.99
3/15/2021 1:00:00 AM 8.93 48.074 0.61 7.93 4.88 9.96
3/15/2021 1:15:00 AM 8.88 47.984 0.61 7.92 3.2 9.94
3/15/2021 1:30:00 AM 8.83 47.894 0.61 7.92 3.79 9.91
3/15/2021 1:45:00 AM 8.78 47.804 0.61 7.91 3.13 9.9
3/15/2021 2:00:00 AM 8.71 47.678 0.61 7.91 4.39 9.96
3/15/2021 2:15:00 AM 8.65 47.57 0.611 7.9 3.31 9.99
3/15/2021 2:30:00 AM 8.59 47.462 0.611 7.9 3.45 10.01
3/15/2021 2:45:00 AM 8.52 47.336 0.612 7.9 4.24 10
3/15/2021 3:00:00 AM 8.46 47.228 0.612 7.89 4.54 10
3/15/2021 3:15:00 AM 8.39 47.102 0.611 7.89 3.19 10.02
3/15/2021 3:30:00 AM 8.34 47.012 0.612 7.89 5.03 10
3/15/2021 3:45:00 AM 8.29 46.922 0.612 7.88 5.15 10.02
3/15/2021 4:00:00 AM 8.24 46.832 0.612 7.88 5.74 10.03
3/15/2021 4:15:00 AM 8.19 46.742 0.612 7.88 2.99 10.03
3/15/2021 4:30:00 AM 8.13 46.634 0.612 7.88 3.08 10.06
3/15/2021 4:45:00 AM 8.08 46.544 0.612 7.88 3.28 10.07
3/15/2021 5:00:00 AM 8.03 46.454 0.612 7.88 3.11 10.08
3/15/2021 5:15:00 AM 7.96 46.328 0.613 7.87 3.87 10.1
3/15/2021 5:30:00 AM 7.9 46.22 0.613 7.87 3.1 10.1
3/15/2021 5:45:00 AM 7.83 46.094 0.613 7.87 3.77 10.12
3/15/2021 6:00:00 AM 7.77 45.986 0.613 7.87 5.73 10.14
3/15/2021 6:15:00 AM 7.72 45.896 0.614 7.87 4.01 10.16
3/15/2021 6:30:00 AM 7.66 45.788 0.614 7.87 3.48 10.2
3/15/2021 6:45:00 AM 7.59 45.662 0.614 7.87 2.54 10.27
3/15/2021 7:00:00 AM 7.54 45.572 0.614 7.87 3.26 10.35
3/15/2021 7:15:00 AM 7.49 45.482 0.613 7.88 3.56 10.46
3/15/2021 7:30:00 AM 7.45 45.41 0.613 7.89 4.66 10.63
3/15/2021 7:45:00 AM 7.41 45.338 0.613 7.9 3.21 10.85
3/15/2021 8:00:00 AM 7.39 45.302 0.613 7.91 2.92 11.16
3/15/2021 8:15:00 AM 7.39 45.302 0.612 7.93 3.08 11.51
3/15/2021 8:30:00 AM 7.4 45.32 0.612 7.95 2.72 11.89
3/15/2021 8:45:00 AM 7.43 45.374 0.611 7.97 2.84 12.29
3/15/2021 9:00:00 AM 7.49 45.482 0.611 7.99 2.27 12.65
3/15/2021 9:15:00 AM 7.54 45.572 0.61 8.02 2.51 13.05
3/15/2021 9:30:00 AM 7.62 45.716 0.609 8.03 2.54 13.35
3/15/2021 9:45:00 AM 7.7 45.86 0.608 8.05 3.1 13.73
3/15/2021 11:00:00 AM 7.77 45.986 0.608 8.08 4.85 14.04
3/15/2021 11:15:00 AM 7.87 46.166 0.607 8.09 2.45 14.41
3/15/2021 11:30:00 AM 7.96 46.328 0.606 8.12 1.86 14.71
3/15/2021 11:45:00 AM 8.09 46.562 0.605 8.14 1.98 15.03
3/15/2021 12:00:00 PM 8.2 46.76 0.605 8.16 2 15.31
3/15/2021 12:15:00 PM 8.31 46.958 0.604 8.19 2 15.57
3/15/2021 12:30:00 PM 8.43 47.174 0.603 8.2 2.08 15.84
3/15/2021 12:45:00 PM 8.55 47.39 0.603 8.22 2.21 16.1
3/15/2021 1:00:00 PM 8.66 47.588 0.601 8.24 2.33 16.36
3/15/2021 1:15:00 PM 8.76 47.768 0.601 8.26 1.95 16.57
3/15/2021 1:30:00 PM 8.87 47.966 0.6 8.28 4.53 16.78
3/15/2021 1:45:00 PM 8.97 48.146 0.599 8.29 2.03 16.99
3/15/2021 2:00:00 PM 9.08 48.344 0.598 8.31 1.62 17.21
3/15/2021 2:15:00 PM 9.15 48.47 0.598 8.33 2.06 17.37
3/15/2021 2:30:00 PM 9.23 48.614 0.597 8.35 2.2 17.5
3/15/2021 2:45:00 PM 9.29 48.722 0.596 8.36 2.22 17.64
3/15/2021 3:00:00 PM 9.34 48.812 0.595 8.38 2.21 17.73
3/15/2021 3:15:00 PM 9.37 48.866 0.594 8.39 2.94 17.81
3/15/2021 3:30:00 PM 9.39 48.902 0.594 8.41 1.74 17.83
3/15/2021 3:45:00 PM 9.42 48.956 0.593 8.42 1.71 17.87
3/15/2021 4:00:00 PM 9.45 49.01 0.593 8.43 2.01 17.86
3/15/2021 4:15:00 PM 9.5 49.1 0.592 8.44 2.21 17.85
3/15/2021 4:30:00 PM 9.54 49.172 0.592 8.44 1.9 17.71
3/15/2021 4:45:00 PM 9.53 49.154 0.592 8.45 2.47 17.63
3/15/2021 5:00:00 PM 9.51 49.118 0.592 8.44 2.11 17.46
3/15/2021 5:15:00 PM 9.47 49.046 0.592 8.44 1.89 17.27
3/15/2021 5:30:00 PM 9.44 48.992 0.593 8.44 2.05 17.06
3/15/2021 5:45:00 PM 9.41 48.938 0.593 8.43 2.12 16.78
3/15/2021 6:00:00 PM 9.37 48.866 0.594 8.43 2.32 16.49
3/15/2021 6:15:00 PM 9.34 48.812 0.595 8.42 1.97 16.18
3/15/2021 6:30:00 PM 9.31 48.758 0.595 8.41 2.46 15.84
3/15/2021 6:45:00 PM 9.28 48.704 0.596 8.39 2.02 15.47
3/15/2021 7:00:00 PM 9.26 48.668 0.597 8.37 2.24 15.08
3/15/2021 7:15:00 PM 9.25 48.65 0.597 8.35 2.09 14.68
3/15/2021 7:30:00 PM 9.22 48.596 0.597 8.32 2.19 14.34
3/15/2021 7:45:00 PM 9.19 48.542 0.598 8.31 2.02 14.01
3/15/2021 8:00:00 PM 9.15 48.47 0.598 8.29 2 13.72
3/15/2021 8:15:00 PM 9.12 48.416 0.599 8.27 2.85 13.46
3/15/2021 8:30:00 PM 9.08 48.344 0.599 8.25 2.44 13.2
3/15/2021 8:45:00 PM 9.05 48.29 0.6 8.24 2.5 12.98
3/15/2021 9:00:00 PM 9.02 48.236 0.6 8.22 2.25 12.77
3/15/2021 9:15:00 PM 8.99 48.182 0.601 8.2 2.68 12.6
3/15/2021 9:30:00 PM 8.97 48.146 0.601 8.19 3.43 12.4
3/15/2021 9:45:00 PM 8.95 48.11 0.602 8.17 2.7 12.23
3/15/2021 10:00:00 PM 8.93 48.074 0.602 8.15 2.58 12.07
3/15/2021 10:15:00 PM 8.92 48.056 0.603 8.14 3.9 11.9
3/15/2021 10:30:00 PM 8.91 48.038 0.604 8.12 2.42 11.75
3/15/2021 10:45:00 PM 8.9 48.02 0.605 8.11 3 11.61
3/15/2021 11:00:00 PM 8.88 47.984 0.605 8.09 2.78 11.46
3/15/2021 11:15:00 PM 8.87 47.966 0.605 8.07 3.46 11.36
3/15/2021 11:30:00 PM 8.86 47.948 0.606 8.06 2.87 11.24
3/15/2021 11:45:00 PM 8.84 47.912 0.606 8.05 3.91 11.13
3/16/2021 12:00:00 AM 8.83 47.894 0.606 8.03 2.99 10.99
3/16/2021 12:15:00 AM 8.82 47.876 0.607 8.02 2.89 10.88
3/16/2021 12:30:00 AM 8.8 47.84 0.607 8 3.77 10.77
3/16/2021 12:45:00 AM 8.79 47.822 0.607 7.99 3.15 10.71
3/16/2021 1:00:00 AM 8.78 47.804 0.607 7.98 3.3 10.62
3/16/2021 1:15:00 AM 8.77 47.786 0.608 7.97 3.24 10.55
3/16/2021 1:30:00 AM 8.75 47.75 0.608 7.96 3.27 10.49
3/16/2021 1:45:00 AM 8.74 47.732 0.608 7.95 3.91 10.4
3/16/2021 2:00:00 AM 8.73 47.714 0.608 7.95 3.3 10.36
3/16/2021 2:15:00 AM 8.72 47.696 0.607 7.93 3.46 10.31
3/16/2021 2:30:00 AM 8.7 47.66 0.608 7.93 4.47 10.25
3/16/2021 2:45:00 AM 8.67 47.606 0.608 7.92 3.45 10.22
3/16/2021 3:00:00 AM 8.65 47.57 0.608 7.91 2.82 10.18
3/16/2021 3:15:00 AM 8.63 47.534 0.608 7.91 3.05 10.14
3/16/2021 3:30:00 AM 8.62 47.516 0.608 7.9 3.2 10.1
3/16/2021 3:45:00 AM 8.61 47.498 0.608 7.9 3.29 10.09
3/16/2021 4:00:00 AM 8.6 47.48 0.608 7.89 4.29 10.05
3/16/2021 4:15:00 AM 8.58 47.444 0.608 7.89 3.33 10.05
3/16/2021 4:30:00 AM 8.56 47.408 0.608 7.89 3.66 10.03
3/16/2021 4:45:00 AM 8.54 47.372 0.608 7.88 3.4 10.01
3/16/2021 5:00:00 AM 8.52 47.336 0.608 7.88 3.81 10
3/16/2021 5:15:00 AM 8.5 47.3 0.608 7.88 5.11 9.99
3/16/2021 5:30:00 AM 8.48 47.264 0.608 7.87 3.45 9.98
3/16/2021 5:45:00 AM 8.47 47.246 0.608 7.87 3.51 9.98
3/16/2021 6:00:00 AM 8.46 47.228 0.608 7.87 4.31 9.96
3/16/2021 6:15:00 AM 8.44 47.192 0.608 7.87 3.94 9.96
3/16/2021 6:30:00 AM 8.43 47.174 0.608 7.87 2.95 9.96
3/16/2021 6:45:00 AM 8.41 47.138 0.608 7.87 3.17 9.98
3/16/2021 7:00:00 AM 8.39 47.102 0.608 7.87 4.08 9.97
3/16/2021 7:15:00 AM 8.37 47.066 0.608 7.87 3.22 9.97
3/16/2021 7:30:00 AM 8.35 47.03 0.609 7.87 2.76 9.95
3/16/2021 7:45:00 AM 8.34 47.012 0.609 7.87 3.03 9.96
3/16/2021 8:00:00 AM 8.31 46.958 0.609 7.87 3.44 9.98
3/16/2021 8:15:00 AM 8.3 46.94 0.609 7.87 3.69 10
3/16/2021 8:30:00 AM 8.28 46.904 0.609 7.87 2.69 10.08
3/16/2021 8:45:00 AM 8.26 46.868 0.609 7.88 3.39 10.15
3/16/2021 9:00:00 AM 8.25 46.85 0.609 7.88 3.7 10.22
3/16/2021 9:15:00 AM 8.23 46.814 0.61 7.88 2.82 10.33
3/16/2021 9:30:00 AM 8.22 46.796 0.61 7.89 2.05 10.46
3/16/2021 9:45:00 AM 8.22 46.796 0.61 7.9 1.87 10.69
3/16/2021 10:00:00 AM 8.22 46.796 0.61 7.92 2.38 11.03
3/16/2021 10:15:00 AM 8.24 46.832 0.609 7.94 1.95 11.41
3/16/2021 10:30:00 AM 8.26 46.868 0.609 7.96 2.91 11.78
3/16/2021 10:45:00 AM 8.27 46.886 0.609 7.98 2.24 12.11
3/16/2021 11:00:00 AM 8.29 46.922 0.608 8.01 1.79 12.44
3/16/2021 11:15:00 AM 8.3 46.94 0.608 8.03 1.93 12.72
3/16/2021 11:30:00 AM 8.32 46.976 0.608 8.05 1.8 13.06
3/16/2021 11:45:00 AM 8.35 47.03 0.608 8.08 2.26 13.36
3/16/2021 12:00:00 PM 8.37 47.066 0.607 8.1 1.75 13.62
3/16/2021 12:15:00 PM 8.4 47.12 0.607 8.12 1.99 13.88
3/16/2021 12:30:00 PM 8.41 47.138 0.607 8.14 2.44 14.1
3/16/2021 12:45:00 PM 8.44 47.192 0.606 8.15 1.74 14.31
3/16/2021 1:00:00 PM 8.44 47.192 0.606 8.17 2.18 14.53
3/16/2021 1:15:00 PM 8.44 47.192 0.606 8.18 1.98 14.59
3/16/2021 1:30:00 PM 8.45 47.21 0.606 8.2 2.03 14.74
3/16/2021 1:45:00 PM 8.45 47.21 0.605 8.21 2.01 14.84
3/16/2021 2:00:00 PM 8.44 47.192 0.605 8.22 2.32 14.84
3/16/2021 2:15:00 PM 8.44 47.192 0.605 8.23 4.2 14.88
3/16/2021 2:30:00 PM 8.43 47.174 0.605 8.24 2.46 14.88
3/16/2021 2:45:00 PM 8.43 47.174 0.605 8.24 1.91 14.96
3/16/2021 3:00:00 PM 8.46 47.228 0.605 8.26 1.83 15.22
3/16/2021 3:15:00 PM 8.53 47.354 0.604 8.29 1.73 15.58
3/16/2021 3:30:00 PM 8.59 47.462 0.603 8.31 2.13 15.91
3/16/2021 3:45:00 PM 8.62 47.516 0.603 8.33 1.63 16.18
3/16/2021 4:00:00 PM 8.66 47.588 0.603 8.35 1.93 16.3
3/16/2021 4:15:00 PM 8.67 47.606 0.602 8.36 1.94 16.39
3/16/2021 4:30:00 PM 8.69 47.642 0.601 8.37 1.84 16.41
3/16/2021 4:45:00 PM 8.7 47.66 0.601 8.38 1.97 16.32
3/16/2021 5:00:00 PM 8.69 47.642 0.601 8.38 1.93 16.22
3/16/2021 5:15:00 PM 8.68 47.624 0.602 8.37 1.85 15.98
3/16/2021 5:30:00 PM 8.67 47.606 0.602 8.36 2.05 15.68
3/16/2021 5:45:00 PM 8.66 47.588 0.602 8.35 1.82 15.48
3/16/2021 6:00:00 PM 8.65 47.57 0.603 8.34 1.61 15.25
3/16/2021 6:15:00 PM 8.64 47.552 0.603 8.33 1.67 14.99
3/16/2021 6:30:00 PM 8.63 47.534 0.603 8.32 1.86 14.73
3/16/2021 6:45:00 PM 8.62 47.516 0.603 8.3 1.47 14.43
3/16/2021 7:00:00 PM 8.6 47.48 0.604 8.28 1.55 14.14
3/16/2021 7:15:00 PM 8.58 47.444 0.604 8.26 1.74 13.82
3/16/2021 7:30:00 PM 8.57 47.426 0.605 8.24 1.91 13.51
3/16/2021 7:45:00 PM 8.56 47.408 0.605 8.22 2.01 13.23
3/16/2021 8:00:00 PM 8.55 47.39 0.606 8.2 1.53 12.97
3/16/2021 8:15:00 PM 8.55 47.39 0.606 8.18 1.88 12.76
3/16/2021 8:30:00 PM 8.55 47.39 0.606 8.16 1.87 12.62
3/16/2021 8:45:00 PM 8.55 47.39 0.606 8.15 1.79 12.46
3/16/2021 9:00:00 PM 8.55 47.39 0.606 8.14 3.07 12.31
3/16/2021 9:15:00 PM 8.56 47.408 0.607 8.12 2.18 12.18
3/16/2021 9:30:00 PM 8.56 47.408 0.607 8.11 2.26 12.02
3/16/2021 9:45:00 PM 8.56 47.408 0.607 8.1 2.52 11.9
3/16/2021 10:00:00 PM 8.56 47.408 0.606 8.09 2.48 11.76
3/16/2021 10:15:00 PM 8.56 47.408 0.606 8.08 2.75 11.62
3/16/2021 10:30:00 PM 8.56 47.408 0.607 8.06 2.2 11.5
3/16/2021 10:45:00 PM 8.56 47.408 0.606 8.06 3.7 11.39
3/16/2021 11:00:00 PM 8.56 47.408 0.607 8.04 2.63 11.28
3/16/2021 11:15:00 PM 8.56 47.408 0.607 8.03 3.02 11.18
3/16/2021 11:30:00 PM 8.56 47.408 0.607 8.02 2.1 11.07
3/16/2021 11:45:00 PM 8.56 47.408 0.607 8.01 2.37 10.99
3/17/2021 12:00:00 AM 8.56 47.408 0.607 8 2.23 10.91
3/17/2021 12:15:00 AM 8.57 47.426 0.608 7.99 2.84 10.81
3/17/2021 12:30:00 AM 8.56 47.408 0.608 7.98 2.5 10.74
3/17/2021 12:45:00 AM 8.56 47.408 0.608 7.97 3.64 10.68
3/17/2021 1:00:00 AM 8.55 47.39 0.608 7.96 2.86 10.62
3/17/2021 1:15:00 AM 8.55 47.39 0.608 7.95 2.31 10.55
3/17/2021 1:30:00 AM 8.54 47.372 0.608 7.95 2.57 10.5
3/17/2021 1:45:00 AM 8.54 47.372 0.608 7.94 2.39 10.47
3/17/2021 2:00:00 AM 8.53 47.354 0.608 7.94 3.02 10.41
3/17/2021 2:15:00 AM 8.53 47.354 0.608 7.93 2.77 10.37
3/17/2021 2:30:00 AM 8.53 47.354 0.607 7.93 2.94 10.33
3/17/2021 2:45:00 AM 8.52 47.336 0.607 7.92 3.81 10.3
3/17/2021 3:00:00 AM 8.52 47.336 0.607 7.91 111 10.28
3/17/2021 3:15:00 AM 8.52 47.336 0.607 7.91 44.63 10.25
3/17/2021 3:30:00 AM 8.53 47.354 0.607 7.91 125.5 10.21
3/17/2021 3:45:00 AM 8.53 47.354 0.608 7.9 30.39 10.17
3/17/2021 4:00:00 AM 8.53 47.354 0.608 7.9 10.39 10.16
3/17/2021 4:15:00 AM 8.52 47.336 0.608 7.9 119.1 10.16
3/17/2021 4:30:00 AM 8.52 47.336 0.608 7.89 10.15 10.16
3/17/2021 4:45:00 AM 8.52 47.336 0.608 7.89 62.67 10.15
3/17/2021 5:00:00 AM 8.51 47.318 0.608 7.89 74.33 10.13
3/17/2021 5:15:00 AM 8.51 47.318 0.608 7.89 159.8 10.12
3/17/2021 5:30:00 AM 8.5 47.3 0.608 7.89 2.5 10.11
3/17/2021 5:45:00 AM 8.5 47.3 0.608 7.89 3.35 10.1
3/17/2021 6:00:00 AM 8.49 47.282 0.608 7.89 3.39 10.09
3/17/2021 6:15:00 AM 8.49 47.282 0.608 7.88 7.17 10.09
3/17/2021 6:30:00 AM 8.48 47.264 0.608 7.88 54.06 10.09
3/17/2021 6:45:00 AM 8.48 47.264 0.608 7.88 71.26 10.07
3/17/2021 7:00:00 AM 8.48 47.264 0.608 7.88 3.66 10.08
3/17/2021 7:15:00 AM 8.48 47.264 0.608 7.88 19.35 10.08
3/17/2021 7:30:00 AM 8.47 47.246 0.608 7.88 3.07 10.08
3/17/2021 7:45:00 AM 8.47 47.246 0.607 7.88 3.53 10.09
3/17/2021 8:00:00 AM 8.47 47.246 0.608 7.88 2.86 10.14
3/17/2021 8:15:00 AM 8.48 47.264 0.608 7.89 2.5 10.22
3/17/2021 8:30:00 AM 8.48 47.264 0.608 7.89 13.48 10.35
3/17/2021 8:45:00 AM 8.49 47.282 0.608 7.9 17.18 10.52
3/17/2021 9:00:00 AM 8.5 47.3 0.608 7.91 2 10.69
3/17/2021 9:15:00 AM 8.51 47.318 0.608 7.92 9.47 10.87
3/17/2021 9:30:00 AM 8.52 47.336 0.607 7.93 62.3 11.11
3/17/2021 9:45:00 AM 8.54 47.372 0.607 7.95 50.85 11.33
3/17/2021 10:00:00 AM 8.56 47.408 0.607 7.96 53.49 11.58
3/17/2021 10:15:00 AM 8.59 47.462 0.606 7.98 54.46 11.85
3/17/2021 10:30:00 AM 8.62 47.516 0.606 8 74.24 12.14
3/17/2021 10:45:00 AM 8.66 47.588 0.605 8.02 3.97 12.46
3/17/2021 11:00:00 AM 8.7 47.66 0.605 8.04 2.06 12.78
3/17/2021 11:15:00 AM 8.74 47.732 0.605 8.06 143.9 13.11
3/17/2021 11:30:00 AM 8.77 47.786 0.605 8.08 39.42 13.41
3/17/2021 11:45:00 AM 8.81 47.858 0.604 8.11 129.9 13.69
3/17/2021 12:00:00 PM 8.85 47.93 0.603 8.13 58.33 13.98
3/17/2021 12:15:00 PM 8.89 48.002 0.603 8.15 41.83 14.28
3/17/2021 12:30:00 PM 8.94 48.092 0.602 8.18 113.7 14.53
3/17/2021 12:45:00 PM 9 48.2 0.602 8.2 139.1 14.79
3/17/2021 1:00:00 PM 9.05 48.29 0.601 8.22 95.9 14.99
3/17/2021 1:15:00 PM 9.1 48.38 0.601 8.24 115.1 15.17
3/17/2021 1:30:00 PM 9.14 48.452 0.601 8.26 37.34 15.33
3/17/2021 1:45:00 PM 9.18 48.524 0.6 8.28 118.2 15.6
3/17/2021 2:00:00 PM 9.21 48.578 0.599 8.29 17.91 15.85
3/17/2021 2:15:00 PM 9.26 48.668 0.599 8.32 2.58 16.07
3/17/2021 2:30:00 PM 9.29 48.722 0.598 8.34 16.34 16.25
3/17/2021 2:45:00 PM 9.33 48.794 0.597 8.36 81.77 16.35
3/17/2021 3:00:00 PM 9.34 48.812 0.599 8.36 3.55 16.33
3/17/2021 3:15:00 PM 9.34 48.812 0.597 8.37 4.98 16.28
3/17/2021 3:30:00 PM 9.34 48.812 0.597 8.37 2.55 16.15
3/17/2021 3:45:00 PM 9.34 48.812 0.594 8.38 4.07 16.08
3/17/2021 4:00:00 PM 9.35 48.83 0.594 8.38 2.75 16.04
3/17/2021 4:15:00 PM 9.38 48.884 0.595 8.38 3.5 15.97
3/17/2021 4:30:00 PM 9.4 48.92 0.595 8.39 4.39 15.92
3/17/2021 4:45:00 PM 9.42 48.956 0.595 8.39 5.35 15.83
3/17/2021 5:00:00 PM 9.44 48.992 0.596 8.39 3.78 15.69
3/17/2021 5:15:00 PM 9.45 49.01 0.597 8.38 4.39 15.47
3/17/2021 5:30:00 PM 9.46 49.028 0.597 8.37 5.25 15.3
3/17/2021 5:45:00 PM 9.47 49.046 0.598 8.36 8.22 15.15
3/17/2021 6:00:00 PM 9.48 49.064 0.598 8.36 3.42 14.95
3/17/2021 6:15:00 PM 9.49 49.082 0.599 8.34 2.88 14.72
3/17/2021 6:30:00 PM 9.49 49.082 0.6 8.32 3.65 14.42
3/17/2021 6:45:00 PM 9.5 49.1 0.601 8.31 2.73 14.08
3/17/2021 7:00:00 PM 9.5 49.1 0.602 8.28 4.47 13.77
3/17/2021 7:15:00 PM 9.51 49.118 0.602 8.27 2.96 13.48
3/17/2021 7:30:00 PM 9.51 49.118 0.602 8.25 2.49 13.23
3/17/2021 7:45:00 PM 9.51 49.118 0.603 8.23 3.14 12.96
3/17/2021 8:00:00 PM 9.52 49.136 0.604 8.21 3.07 12.74
3/17/2021 8:15:00 PM 9.52 49.136 0.604 8.19 5.45 12.52
3/17/2021 8:30:00 PM 9.52 49.136 0.604 8.17 5.2 12.3
3/17/2021 8:45:00 PM 9.53 49.154 0.604 8.16 5.76 12.13
3/17/2021 9:00:00 PM 9.53 49.154 0.604 8.14 3.86 11.96
3/17/2021 9:15:00 PM 9.54 49.172 0.604 8.13 4.2 11.78
3/17/2021 9:30:00 PM 9.54 49.172 0.605 8.11 7.38 11.63
3/17/2021 9:45:00 PM 9.55 49.19 0.605 8.1 3.86 11.51
3/17/2021 10:00:00 PM 9.55 49.19 0.606 8.08 6.77 11.37
3/17/2021 10:15:00 PM 9.56 49.208 0.605 8.07 6.31 11.25
3/17/2021 10:30:00 PM 9.57 49.226 0.605 8.06 5.77 11.14
3/17/2021 10:45:00 PM 9.57 49.226 0.607 8.04 8.97 11.03
3/17/2021 11:00:00 PM 9.58 49.244 0.607 8.03 5.87 10.91
3/17/2021 11:15:00 PM 9.59 49.262 0.607 8.02 5.89 10.83
3/17/2021 11:30:00 PM 9.59 49.262 0.607 8.01 5.7 10.73
3/17/2021 11:45:00 PM 9.6 49.28 0.607 8 3.57 10.64
3/18/2021 12:00:00 AM 9.6 49.28 0.607 7.99 7.98 10.55
3/18/2021 12:15:00 AM 9.6 49.28 0.608 7.98 18.67 10.5
3/18/2021 12:30:00 AM 9.61 49.298 0.607 7.97 7.86 10.39
3/18/2021 12:45:00 AM 9.61 49.298 0.607 7.96 9.71 10.34
3/18/2021 1:00:00 AM 9.61 49.298 0.608 7.96 9.7 10.27
3/18/2021 1:15:00 AM 9.61 49.298 0.607 7.95 10.43 10.22
3/18/2021 1:30:00 AM 9.61 49.298 0.607 7.94 7.16 10.16
3/18/2021 1:45:00 AM 9.61 49.298 0.607 7.93 5.46 10.13
3/18/2021 2:00:00 AM 9.62 49.316 0.607 7.93 5.55 10.08
3/18/2021 2:15:00 AM 9.62 49.316 0.606 7.93 7.57 10.05
3/18/2021 2:30:00 AM 9.63 49.334 0.607 7.92 9.04 10.02
3/18/2021 2:45:00 AM 9.63 49.334 0.607 7.92 9.6 9.96
3/18/2021 3:00:00 AM 9.64 49.352 0.607 7.91 5.22 9.94
3/18/2021 3:15:00 AM 9.64 49.352 0.607 7.91 7.64 9.91
3/18/2021 3:30:00 AM 9.65 49.37 0.607 7.9 8.72 9.88
3/18/2021 3:45:00 AM 9.66 49.388 0.607 7.9 16.51 9.87
3/18/2021 4:00:00 AM 9.66 49.388 0.607 7.9 7.81 9.85
3/18/2021 4:15:00 AM 9.66 49.388 0.607 7.89 10.02 9.81
3/18/2021 4:30:00 AM 9.66 49.388 0.606 7.89 9.02 9.81
3/18/2021 4:45:00 AM 9.66 49.388 0.606 7.89 7.91 9.8
3/18/2021 5:00:00 AM 9.66 49.388 0.606 7.89 9.49 9.78
3/18/2021 5:15:00 AM 9.67 49.406 0.606 7.89 20.79 9.76
3/18/2021 5:30:00 AM 9.67 49.406 0.606 7.88 11.45 9.76
3/18/2021 5:45:00 AM 9.67 49.406 0.605 7.88 6.44 9.75
3/18/2021 6:00:00 AM 9.67 49.406 0.606 7.88 11.83 9.74
3/18/2021 6:15:00 AM 9.67 49.406 0.606 7.88 14.91 9.73
3/18/2021 6:30:00 AM 9.67 49.406 0.605 7.88 13.31 9.74
3/18/2021 6:45:00 AM 9.67 49.406 0.605 7.88 11.2 9.72
3/18/2021 7:00:00 AM 9.66 49.388 0.605 7.88 6.35 9.72
3/18/2021 7:15:00 AM 9.66 49.388 0.605 7.88 3.78 9.73
3/18/2021 7:30:00 AM 9.66 49.388 0.605 7.88 4.06 9.7
3/18/2021 7:45:00 AM 9.66 49.388 0.604 7.87 8.07 9.69
3/18/2021 8:00:00 AM 9.66 49.388 0.605 7.88 6.89 9.74
3/18/2021 8:15:00 AM 9.66 49.388 0.603 7.88 4.91 9.79
3/18/2021 8:30:00 AM 9.66 49.388 0.603 7.88 7.69 9.85
3/18/2021 8:45:00 AM 9.65 49.37 0.603 7.89 3.09 9.9
3/18/2021 9:00:00 AM 9.65 49.37 0.603 7.89 2.64 9.98
3/18/2021 9:15:00 AM 9.65 49.37 0.601 7.9 2.88 10.06
3/18/2021 9:30:00 AM 9.65 49.37 0.6 7.9 2.66 10.13
3/18/2021 9:45:00 AM 9.65 49.37 0.599 7.91 2.71 10.22
3/18/2021 10:00:00 AM 9.66 49.388 0.598 7.91 3.29 10.38
3/18/2021 10:15:00 AM 9.66 49.388 0.598 7.92 2.88 10.45
3/18/2021 10:30:00 AM 9.66 49.388 0.596 7.93 2.78 10.61
3/18/2021 10:45:00 AM 9.66 49.388 0.594 7.94 2.93 10.68
3/18/2021 11:00:00 AM 9.67 49.406 0.594 7.94 2.83 10.72
3/18/2021 11:15:00 AM 9.67 49.406 0.593 7.94 3.17 10.8
3/18/2021 11:30:00 AM 9.68 49.424 0.593 7.94 3.04 10.85
3/18/2021 11:45:00 AM 9.69 49.442 0.593 7.95 3.04 10.95
3/18/2021 12:00:00 PM 9.7 49.46 0.592 7.95 3.29 11.02
3/18/2021 12:15:00 PM 9.72 49.496 0.591 7.96 3.14 11.19
3/18/2021 12:30:00 PM 9.73 49.514 0.59 7.97 5.68 11.34
3/18/2021 12:45:00 PM 9.75 49.55 0.589 7.97 4.68 11.42
3/18/2021 1:00:00 PM 9.76 49.568 0.589 7.97 4.33 11.46
3/18/2021 1:15:00 PM 9.77 49.586 0.588 7.98 3.24 11.48
3/18/2021 1:30:00 PM 9.77 49.586 0.588 7.98 4.86 11.5
3/18/2021 1:45:00 PM 9.78 49.604 0.587 7.98 10.82 11.5
3/18/2021 2:00:00 PM 9.78 49.604 0.586 7.98 6.36 11.46
3/18/2021 2:15:00 PM 9.78 49.604 0.584 7.98 4.45 11.45
3/18/2021 2:30:00 PM 9.78 49.604 0.581 7.97 4.75 11.43
3/18/2021 2:45:00 PM 9.77 49.586 0.578 7.97 5.55 11.37
3/18/2021 3:00:00 PM 9.76 49.568 0.575 7.97 4.92 11.36
3/18/2021 3:15:00 PM 9.76 49.568 0.573 7.96 5.8 11.34
3/18/2021 3:30:00 PM 9.78 49.604 0.573 7.97 5.95 11.34
3/18/2021 3:45:00 PM 9.79 49.622 0.573 7.96 6.17 11.33
3/18/2021 4:00:00 PM 9.8 49.64 0.573 7.97 8.28 11.38
3/18/2021 4:15:00 PM 9.8 49.64 0.573 7.97 7.99 11.43
3/18/2021 4:30:00 PM 9.81 49.658 0.573 7.98 7.83 11.47
3/18/2021 4:45:00 PM 9.81 49.658 0.574 7.98 6.62 11.46
3/18/2021 5:00:00 PM 9.81 49.658 0.574 7.98 7.3 11.4
3/18/2021 5:15:00 PM 9.81 49.658 0.573 7.98 11.63 11.28
3/18/2021 5:30:00 PM 9.8 49.64 0.57 7.97 7 11.18
3/18/2021 5:45:00 PM 9.79 49.622 0.569 7.97 8.26 11.12
3/18/2021 6:00:00 PM 9.78 49.604 0.568 7.96 10.25 11.02
3/18/2021 6:15:00 PM 9.78 49.604 0.568 7.95 9.34 10.98
3/18/2021 6:30:00 PM 9.78 49.604 0.569 7.95 9.94 10.85
3/18/2021 6:45:00 PM 9.78 49.604 0.569 7.94 10.44 10.73
3/18/2021 7:00:00 PM 9.77 49.586 0.565 7.92 11.03 10.58
3/18/2021 7:15:00 PM 9.76 49.568 0.558 7.9 9.34 10.44
3/18/2021 7:30:00 PM 9.73 49.514 0.547 7.88 10.32 10.27
3/18/2021 7:45:00 PM 9.7 49.46 0.534 7.86 21.94 10.15
3/18/2021 8:00:00 PM 9.66 49.388 0.52 7.84 27.26 10.04
3/18/2021 8:15:00 PM 9.62 49.316 0.509 7.83 24.01 9.98
3/18/2021 8:30:00 PM 9.59 49.262 0.5 7.81 20.3 9.94
3/18/2021 8:45:00 PM 9.56 49.208 0.492 7.8 15.99 9.89
3/18/2021 9:00:00 PM 9.54 49.172 0.485 7.79 16.47 9.86
3/18/2021 9:15:00 PM 9.52 49.136 0.48 7.78 35.68 9.84
3/18/2021 9:30:00 PM 9.49 49.082 0.475 7.78 32.63 9.84
3/18/2021 9:45:00 PM 9.47 49.046 0.472 7.78 50.07 9.83
3/18/2021 10:00:00 PM 9.45 49.01 0.469 7.77 59.1 9.82
3/18/2021 10:15:00 PM 9.44 48.992 0.468 7.77 26.61 9.83
3/18/2021 10:30:00 PM 9.42 48.956 0.468 7.76 21.89 9.8
3/18/2021 10:45:00 PM 9.41 48.938 0.469 7.76 22.5 9.78
3/18/2021 11:00:00 PM 9.39 48.902 0.471 7.76 24.91 9.75
3/18/2021 11:15:00 PM 9.37 48.866 0.473 7.75 24.64 9.7
3/18/2021 11:30:00 PM 9.36 48.848 0.475 7.75 24.12 9.66
3/18/2021 11:45:00 PM 9.34 48.812 0.475 7.74 26.54 9.64
3/19/2021 12:00:00 AM 9.32 48.776 0.475 7.74 26.24 9.61
3/19/2021 12:15:00 AM 9.3 48.74 0.474 7.74 23.21 9.61
3/19/2021 12:30:00 AM 9.27 48.686 0.471 7.74 26.44 9.62
3/19/2021 12:45:00 AM 9.25 48.65 0.469 7.74 25.7 9.6
3/19/2021 1:00:00 AM 9.22 48.596 0.467 7.73 28.05 9.62
3/19/2021 1:15:00 AM 9.2 48.56 0.466 7.73 28.93 9.62
3/19/2021 1:30:00 AM 9.17 48.506 0.466 7.73 26.95 9.64
3/19/2021 1:45:00 AM 9.14 48.452 0.466 7.73 26.07 9.64
3/19/2021 2:00:00 AM 9.11 48.398 0.467 7.73 23.83 9.64
3/19/2021 2:15:00 AM 9.09 48.362 0.468 7.73 25.53 9.65
3/19/2021 2:30:00 AM 9.06 48.308 0.468 7.73 22.94 9.67
3/19/2021 2:45:00 AM 9.02 48.236 0.468 7.73 22.92 9.68
3/19/2021 3:00:00 AM 8.99 48.182 0.467 7.73 22.65 9.69
3/19/2021 3:15:00 AM 8.95 48.11 0.466 7.73 137.8 9.69
3/19/2021 3:30:00 AM 8.91 48.038 0.466 7.73 37.63 9.69
3/19/2021 3:45:00 AM 8.87 47.966 0.466 7.72 26.28 9.72
3/19/2021 4:00:00 AM 8.83 47.894 0.468 7.73 31.61 9.72
3/19/2021 4:15:00 AM 8.81 47.858 0.47 7.73 27.44 9.74
3/19/2021 4:30:00 AM 8.78 47.804 0.473 7.72 22.69 9.75
3/19/2021 4:45:00 AM 8.75 47.75 0.477 7.73 17.58 9.74
3/19/2021 5:00:00 AM 8.71 47.678 0.482 7.73 22.26 9.76
3/19/2021 5:15:00 AM 8.68 47.624 0.486 7.73 21.51 9.77
3/19/2021 5:30:00 AM 8.64 47.552 0.49 7.74 16.68 9.79
3/19/2021 5:45:00 AM 8.6 47.48 0.494 7.74 16.45 9.79
3/19/2021 6:00:00 AM 8.55 47.39 0.497 7.74 15.57 9.8
3/19/2021 6:15:00 AM 8.52 47.336 0.502 7.74 13.9 9.83
3/19/2021 6:30:00 AM 8.47 47.246 0.506 7.74 15.07 9.84
3/19/2021 6:45:00 AM 8.43 47.174 0.51 7.75 15.62 9.86
3/19/2021 7:00:00 AM 8.39 47.102 0.514 7.75 16.26 9.88
3/19/2021 7:15:00 AM 8.35 47.03 0.518 7.75 108.1 9.9
3/19/2021 7:30:00 AM 8.31 46.958 0.522 7.75 12.54 9.92
3/19/2021 7:45:00 AM 8.29 46.922 0.526 7.76 11.4 9.98
3/19/2021 8:00:00 AM 8.28 46.904 0.529 7.76 14.84 10.04
3/19/2021 8:15:00 AM 8.26 46.868 0.532 7.77 10.32 10.15
3/19/2021 8:30:00 AM 8.24 46.832 0.534 7.78 11.37 10.25
3/19/2021 8:45:00 AM 8.23 46.814 0.537 7.79 9.79 10.43
3/19/2021 9:00:00 AM 8.23 46.814 0.539 7.8 10.06 10.61
3/19/2021 9:15:00 AM 8.22 46.796 0.54 7.81 9.51 10.81
3/19/2021 9:30:00 AM 8.22 46.796 0.542 7.82 10.75 10.97
3/19/2021 9:45:00 AM 8.26 46.868 0.543 7.84 7.01 11.24
3/19/2021 10:00:00 AM 8.3 46.94 0.544 7.86 6.37 11.5
3/19/2021 10:15:00 AM 8.37 47.066 0.546 7.88 7.42 11.81
3/19/2021 10:30:00 AM 8.46 47.228 0.546 7.9 6.46 12.1
3/19/2021 10:45:00 AM 8.5 47.3 0.547 7.92 5.56 12.35
3/19/2021 11:00:00 AM 8.62 47.516 0.548 7.94 5.26 12.65
3/19/2021 11:15:00 AM 8.68 47.624 0.549 7.97 6.72 12.9
3/19/2021 11:30:00 AM 8.74 47.732 0.549 7.99 5.56 13.16
3/19/2021 11:45:00 AM 8.74 47.732 0.55 8 5.62 13.34
3/19/2021 12:00:00 PM 8.82 47.876 0.551 8.02 4.32 13.53
3/19/2021 12:15:00 PM 8.94 48.092 0.551 8.04 4.42 13.76
3/19/2021 12:30:00 PM 9.07 48.326 0.551 8.06 4.99 13.99
3/19/2021 12:45:00 PM 9.21 48.578 0.552 8.08 3.81 14.24
3/19/2021 1:00:00 PM 9.35 48.83 0.552 8.11 4.24 14.45
3/19/2021 1:15:00 PM 9.47 49.046 0.552 8.13 14.08 14.65
3/19/2021 1:30:00 PM 9.59 49.262 0.553 8.15 5.54 14.85
3/19/2021 1:45:00 PM 9.71 49.478 0.553 8.17 4.58 15
3/19/2021 2:00:00 PM 9.81 49.658 0.553 8.19 3.65 15.16
3/19/2021 2:15:00 PM 9.89 49.802 0.553 8.2 4.37 15.26
3/19/2021 2:30:00 PM 9.97 49.946 0.554 8.22 3.84 15.34
3/19/2021 2:45:00 PM 10.05 50.09 0.554 8.23 3.73 15.48
3/19/2021 3:00:00 PM 10.13 50.234 0.554 8.24 5.05 15.57
3/19/2021 3:15:00 PM 10.19 50.342 0.555 8.26 3.86 15.64
3/19/2021 3:30:00 PM 10.25 50.45 0.556 8.27 3.44 15.67
3/19/2021 3:45:00 PM 10.29 50.522 0.556 8.28 4.84 15.68
3/19/2021 4:00:00 PM 10.33 50.594 0.556 8.29 5.87 15.67
3/19/2021 4:15:00 PM 10.36 50.648 0.557 8.29 5.05 15.65
3/19/2021 4:30:00 PM 10.37 50.666 0.558 8.3 4.2 15.55
3/19/2021 4:45:00 PM 10.36 50.648 0.559 8.3 3.63 15.5
3/19/2021 5:00:00 PM 10.35 50.63 0.56 8.29 4.08 15.36
3/19/2021 5:15:00 PM 10.33 50.594 0.56 8.29 4.38 15.26
3/19/2021 5:30:00 PM 10.29 50.522 0.561 8.28 4.61 15.07
3/19/2021 5:45:00 PM 10.25 50.45 0.562 8.28 4.49 14.85
3/19/2021 6:00:00 PM 10.21 50.378 0.563 8.26 3.98 14.58
3/19/2021 6:15:00 PM 10.16 50.288 0.564 8.25 4.34 14.31
3/19/2021 6:30:00 PM 10.11 50.198 0.565 8.23 4.62 14.03
3/19/2021 6:45:00 PM 10.06 50.108 0.566 8.22 5.56 13.72
3/19/2021 7:00:00 PM 10.01 50.018 0.567 8.2 3.53 13.44
3/19/2021 7:15:00 PM 9.97 49.946 0.568 8.18 163 13.15
3/19/2021 7:30:00 PM 9.93 49.874 0.569 8.16 206.7 12.9
3/19/2021 7:45:00 PM 9.89 49.802 0.57 8.14 4.39 12.64
3/19/2021 8:00:00 PM 9.86 49.748 0.571 8.12 5.14 12.43
3/19/2021 8:15:00 PM 9.83 49.694 0.572 8.1 9.39 12.26
3/19/2021 8:30:00 PM 9.8 49.64 0.572 8.09 70.47 12.08
3/19/2021 8:45:00 PM 9.76 49.568 0.573 8.07 27.19 11.9
3/19/2021 9:00:00 PM 9.72 49.496 0.574 8.06 5.76 11.77
3/19/2021 9:15:00 PM 9.68 49.424 0.574 8.04 6.13 11.63
3/19/2021 9:30:00 PM 9.64 49.352 0.575 8.03 4.9 11.52
3/19/2021 9:45:00 PM 9.6 49.28 0.576 8.02 5.89 11.4
3/19/2021 10:00:00 PM 9.57 49.226 0.576 8.01 4.59 11.29
3/19/2021 10:15:00 PM 9.52 49.136 0.577 8 25.28 11.18
3/19/2021 10:30:00 PM 9.49 49.082 0.577 7.99 4.62 11.09
3/19/2021 10:45:00 PM 9.45 49.01 0.578 7.98 7.66 11
3/19/2021 11:00:00 PM 9.4 48.92 0.578 7.97 6.66 10.91
3/19/2021 11:15:00 PM 9.36 48.848 0.579 7.96 5.02 10.82
3/19/2021 11:30:00 PM 9.32 48.776 0.58 7.96 5.43 10.75
3/19/2021 11:45:00 PM 9.28 48.704 0.58 7.95 7.08 10.67
3/20/2021 12:00:00 AM 9.24 48.632 0.58 7.94 4.86 10.61
3/20/2021 12:15:00 AM 9.2 48.56 0.58 7.93 4.4 10.54
3/20/2021 12:30:00 AM 9.15 48.47 0.581 7.92 5.22 10.5
3/20/2021 12:45:00 AM 9.11 48.398 0.581 7.92 4.9 10.47
3/20/2021 1:00:00 AM 9.07 48.326 0.581 7.91 5.26 10.4
3/20/2021 1:15:00 AM 9.03 48.254 0.581 7.91 6.49 10.38
3/20/2021 1:30:00 AM 8.98 48.164 0.582 7.9 6.35 10.34
3/20/2021 1:45:00 AM 8.94 48.092 0.582 7.9 8.41 10.32
3/20/2021 2:00:00 AM 8.9 48.02 0.583 7.89 61.65 10.29
3/20/2021 2:15:00 AM 8.86 47.948 0.583 7.89 4.71 10.27
3/20/2021 2:30:00 AM 8.82 47.876 0.583 7.88 4.83 10.25
3/20/2021 2:45:00 AM 8.78 47.804 0.584 7.88 6.45 10.24
3/20/2021 3:00:00 AM 8.74 47.732 0.584 7.88 5.77 10.23
3/20/2021 3:15:00 AM 8.69 47.642 0.584 7.87 6.4 10.22
3/20/2021 3:30:00 AM 8.65 47.57 0.585 7.87 11.09 10.23
3/20/2021 3:45:00 AM 8.61 47.498 0.585 7.87 5.51 10.21
3/20/2021 4:00:00 AM 8.57 47.426 0.586 7.86 5.3 10.22
3/20/2021 4:15:00 AM 8.53 47.354 0.586 7.86 4.78 10.21
3/20/2021 4:30:00 AM 8.49 47.282 0.587 7.86 6.25 10.2
3/20/2021 4:45:00 AM 8.45 47.21 0.588 7.86 6.95 10.22
3/20/2021 5:00:00 AM 8.4 47.12 0.588 7.86 6.22 10.22
3/20/2021 5:15:00 AM 8.36 47.048 0.589 7.86 5.43 10.24
3/20/2021 5:30:00 AM 8.31 46.958 0.589 7.86 4.47 10.24
3/20/2021 5:45:00 AM 8.27 46.886 0.59 7.86 5.83 10.24
3/20/2021 6:00:00 AM 8.22 46.796 0.591 7.86 6.02 10.27
3/20/2021 6:15:00 AM 8.17 46.706 0.591 7.86 4.47 10.28
3/20/2021 6:30:00 AM 8.13 46.634 0.592 7.86 5 10.29
3/20/2021 6:45:00 AM 8.08 46.544 0.592 7.86 4.46 10.31
3/20/2021 7:00:00 AM 8.03 46.454 0.592 7.86 4.3 10.33
3/20/2021 7:15:00 AM 7.99 46.382 0.593 7.86 4.3 10.34
3/20/2021 7:30:00 AM 7.94 46.292 0.593 7.86 4.4 10.38
3/20/2021 7:45:00 AM 7.9 46.22 0.594 7.86 5.51 10.45
3/20/2021 8:00:00 AM 7.87 46.166 0.595 7.87 4.99 10.54
3/20/2021 8:15:00 AM 7.85 46.13 0.595 7.88 4.82 10.66
3/20/2021 8:30:00 AM 7.84 46.112 0.595 7.88 3.85 10.83
3/20/2021 8:45:00 AM 7.85 46.13 0.596 7.89 3.17 11.04
3/20/2021 9:00:00 AM 7.87 46.166 0.596 7.9 50.56 11.31
3/20/2021 9:15:00 AM 7.91 46.238 0.596 7.92 3.96 11.62
3/20/2021 9:30:00 AM 7.96 46.328 0.596 7.94 3.28 11.94
3/20/2021 9:45:00 AM 8.03 46.454 0.596 7.96 3.02 12.25
3/20/2021 10:00:00 AM 8.11 46.598 0.596 7.98 2.61 12.56
3/20/2021 10:15:00 AM 8.21 46.778 0.596 8 3.08 12.88
3/20/2021 10:30:00 AM 8.32 46.976 0.595 8.01 2.65 13.15
3/20/2021 10:45:00 AM 8.43 47.174 0.595 8.03 2.54 13.46
3/20/2021 11:00:00 AM 8.55 47.39 0.594 8.05 3.37 13.74
3/20/2021 11:15:00 AM 8.68 47.624 0.593 8.07 2.27 14.02
3/20/2021 11:30:00 AM 8.82 47.876 0.593 8.09 2.29 14.27
3/20/2021 11:45:00 AM 8.96 48.128 0.593 8.11 4.2 14.51
3/20/2021 12:00:00 PM 9.12 48.416 0.592 8.13 2.1 14.77
3/20/2021 12:15:00 PM 9.27 48.686 0.592 8.15 2.71 15
3/20/2021 12:30:00 PM 9.4 48.92 0.592 8.17 2.62 15.19
3/20/2021 12:45:00 PM 9.56 49.208 0.592 8.18 2.26 15.39
3/20/2021 1:00:00 PM 9.7 49.46 0.591 8.2 3.13 15.59
3/20/2021 1:15:00 PM 9.85 49.73 0.591 8.22 2.34 15.81
3/20/2021 1:30:00 PM 9.99 49.982 0.59 8.23 2.24 15.94
3/20/2021 1:45:00 PM 10.13 50.234 0.59 8.24 3.47 16.08
3/20/2021 2:00:00 PM 10.25 50.45 0.59 8.26 2.16 16.23
3/20/2021 2:15:00 PM 10.38 50.684 0.589 8.27 2.58 16.35
3/20/2021 2:30:00 PM 10.51 50.918 0.589 8.29 2.06 16.43
3/20/2021 2:45:00 PM 10.6 51.08 0.589 8.3 2.09 16.5
3/20/2021 3:00:00 PM 10.7 51.26 0.589 8.31 4.73 16.57
3/20/2021 3:15:00 PM 10.78 51.404 0.589 8.32 2.4 16.59
3/20/2021 3:30:00 PM 10.87 51.566 0.589 8.33 3.44 16.6
3/20/2021 3:45:00 PM 10.93 51.674 0.588 8.34 3.37 16.61
3/20/2021 4:00:00 PM 10.99 51.782 0.588 8.34 2.12 16.57
3/20/2021 4:15:00 PM 11.04 51.872 0.588 8.35 2.06 16.49
3/20/2021 4:30:00 PM 11.07 51.926 0.588 8.35 2.47 16.41
3/20/2021 4:45:00 PM 11.09 51.962 0.587 8.35 2.15 16.3
3/20/2021 5:00:00 PM 11.11 51.998 0.588 8.35 2.26 16.16
3/20/2021 5:15:00 PM 11.11 51.998 0.587 8.35 3.05 15.96
3/20/2021 5:30:00 PM 11.1 51.98 0.588 8.35 3.36 15.78
3/20/2021 5:45:00 PM 11.09 51.962 0.588 8.34 2.43 15.52
3/20/2021 6:00:00 PM 11.07 51.926 0.588 8.33 2.76 15.21
3/20/2021 6:15:00 PM 11.05 51.89 0.589 8.32 2.64 14.88
3/20/2021 6:30:00 PM 11.03 51.854 0.589 8.3 7.86 14.52
3/20/2021 6:45:00 PM 10.99 51.782 0.59 8.29 2.29 14.2
3/20/2021 7:00:00 PM 10.96 51.728 0.591 8.27 2.58 13.85
3/20/2021 7:15:00 PM 10.93 51.674 0.592 8.25 2.8 13.48
3/20/2021 7:30:00 PM 10.89 51.602 0.592 8.23 2.03 13.18
3/20/2021 7:45:00 PM 10.85 51.53 0.592 8.21 2.77 12.89
3/20/2021 8:00:00 PM 10.81 51.458 0.592 8.19 3.75 12.61
3/20/2021 8:15:00 PM 10.77 51.386 0.593 8.17 3.46 12.35
3/20/2021 8:30:00 PM 10.74 51.332 0.593 8.15 3.54 12.15
3/20/2021 8:45:00 PM 10.69 51.242 0.594 8.13 3.17 11.93
3/20/2021 9:00:00 PM 10.66 51.188 0.594 8.11 3.12 11.74
3/20/2021 9:15:00 PM 10.62 51.116 0.594 8.1 2.87 11.55
3/20/2021 9:30:00 PM 10.58 51.044 0.595 8.08 3.12 11.39
3/20/2021 9:45:00 PM 10.53 50.954 0.595 8.07 2.69 11.24
3/20/2021 10:00:00 PM 10.48 50.864 0.595 8.05 3.66 11.11
3/20/2021 10:15:00 PM 10.45 50.81 0.595 8.04 3.09 10.95
3/20/2021 10:30:00 PM 10.42 50.756 0.595 8.02 3.44 10.81
3/20/2021 10:45:00 PM 10.39 50.702 0.595 8.02 3.84 10.67
3/20/2021 11:00:00 PM 10.35 50.63 0.595 8.01 3.02 10.56
3/20/2021 11:15:00 PM 10.31 50.558 0.596 7.99 2.97 10.45
3/20/2021 11:30:00 PM 10.27 50.486 0.596 7.98 3.19 10.35
3/20/2021 11:45:00 PM 10.23 50.414 0.596 7.97 6.94 10.25
3/21/2021 12:00:00 AM 10.18 50.324 0.596 7.96 3.41 10.18
3/21/2021 12:15:00 AM 10.11 50.198 0.596 7.95 4.26 10.14
3/21/2021 12:30:00 AM 10.05 50.09 0.595 7.94 3.91 10.11
3/21/2021 12:45:00 AM 10 50 0.595 7.94 3.36 10.07
3/21/2021 1:00:00 AM 9.95 49.91 0.595 7.93 4.53 10.03
3/21/2021 1:15:00 AM 9.91 49.838 0.595 7.92 3.6 9.98
3/21/2021 1:30:00 AM 9.86 49.748 0.595 7.91 3.52 9.95
3/21/2021 1:45:00 AM 9.81 49.658 0.595 7.91 8.4 9.91
3/21/2021 2:00:00 AM 9.76 49.568 0.595 7.9 3.25 9.87
3/21/2021 2:15:00 AM 9.71 49.478 0.595 7.89 4.22 9.85
3/21/2021 2:30:00 AM 9.66 49.388 0.596 7.89 4.33 9.83
3/21/2021 2:45:00 AM 9.61 49.298 0.596 7.88 4.04 9.83
3/21/2021 3:00:00 AM 9.57 49.226 0.596 7.88 3.55 9.82
3/21/2021 3:15:00 AM 9.52 49.136 0.596 7.88 5.99 9.8
3/21/2021 3:30:00 AM 9.47 49.046 0.597 7.87 3.64 9.8
3/21/2021 4:00:00 AM 9.37 48.866 0.597 7.87 3.89 9.79
3/21/2021 4:15:00 AM 9.33 48.794 0.597 7.86 3.74 9.78
3/21/2021 4:30:00 AM 9.28 48.704 0.597 7.86 4.67 9.78
3/21/2021 4:45:00 AM 9.23 48.614 0.597 7.86 3.99 9.8
3/21/2021 5:00:00 AM 9.18 48.524 0.597 7.86 4.91 9.8
3/21/2021 5:15:00 AM 9.13 48.434 0.597 7.86 4.4 9.79
3/21/2021 5:30:00 AM 9.08 48.344 0.597 7.86 3.31 9.82
3/21/2021 5:45:00 AM 9.03 48.254 0.597 7.86 4.61 9.82
3/21/2021 6:00:00 AM 8.98 48.164 0.598 7.86 4.53 9.85
3/21/2021 6:15:00 AM 8.92 48.056 0.598 7.86 4.28 9.86
3/21/2021 6:30:00 AM 8.87 47.966 0.598 7.86 7.57 9.88
3/21/2021 6:45:00 AM 8.82 47.876 0.599 7.86 7.14 9.91
3/21/2021 7:00:00 AM 8.77 47.786 0.599 7.87 3.25 9.91
3/21/2021 7:15:00 AM 8.72 47.696 0.599 7.87 3.87 9.95
3/21/2021 7:30:00 AM 8.67 47.606 0.599 7.87 4.27 9.99
3/21/2021 7:45:00 AM 8.62 47.516 0.6 7.87 3.92 10.08
3/21/2021 8:00:00 AM 8.58 47.444 0.6 7.87 3.66 10.16
3/21/2021 8:15:00 AM 8.55 47.39 0.6 7.88 5.85 10.3
3/21/2021 8:30:00 AM 8.53 47.354 0.6 7.88 3.32 10.46
3/21/2021 8:45:00 AM 8.53 47.354 0.6 7.89 2.99 10.71
3/21/2021 9:00:00 AM 8.55 47.39 0.6 7.9 3.07 11.01
3/21/2021 9:15:00 AM 8.58 47.444 0.6 7.92 2.36 11.36
3/21/2021 9:30:00 AM 8.64 47.552 0.599 7.94 2.32 11.7
3/21/2021 9:45:00 AM 8.72 47.696 0.599 7.96 7.1 12.07
3/21/2021 10:00:00 AM 8.82 47.876 0.599 7.98 2.25 12.42
3/21/2021 10:15:00 AM 8.93 48.074 0.598 8 1.9 12.75
3/21/2021 10:30:00 AM 9.05 48.29 0.598 8.02 2.03 13.07
3/21/2021 10:45:00 AM 9.18 48.524 0.597 8.04 1.98 13.39
3/21/2021 11:00:00 AM 9.32 48.776 0.597 8.06 2.11 13.67
3/21/2021 11:15:00 AM 9.46 49.028 0.596 8.08 2.82 13.94
3/21/2021 11:30:00 AM 9.62 49.316 0.596 8.1 2.59 14.23
3/21/2021 11:45:00 AM 9.78 49.604 0.595 8.12 2.6 14.5
3/21/2021 12:00:00 PM 9.94 49.892 0.595 8.14 2.02 14.73
3/21/2021 12:15:00 PM 10.09 50.162 0.594 8.15 2.35 14.97
3/21/2021 12:30:00 PM 10.24 50.432 0.594 8.17 1.76 15.18
3/21/2021 12:45:00 PM 10.38 50.684 0.593 8.19 1.96 15.39
3/21/2021 1:00:00 PM 10.53 50.954 0.593 8.2 1.94 15.58
3/21/2021 1:15:00 PM 10.68 51.224 0.592 8.22 1.87 15.76
3/21/2021 1:30:00 PM 10.82 51.476 0.592 8.24 2 15.97
3/21/2021 1:45:00 PM 10.96 51.728 0.592 8.25 1.95 16.13
3/21/2021 2:00:00 PM 11.1 51.98 0.591 8.27 1.73 16.28
3/21/2021 2:15:00 PM 11.21 52.178 0.591 8.28 1.95 16.38
3/21/2021 2:30:00 PM 11.33 52.394 0.59 8.29 2.66 16.49
3/21/2021 2:45:00 PM 11.44 52.592 0.59 8.3 2.14 16.59
3/21/2021 3:00:00 PM 11.54 52.772 0.59 8.31 1.81 16.63
3/21/2021 3:15:00 PM 11.62 52.916 0.589 8.32 1.92 16.69
3/21/2021 3:30:00 PM 11.69 53.042 0.589 8.33 13.77 16.65
3/21/2021 3:45:00 PM 11.75 53.15 0.589 8.34 2.48 16.67
3/21/2021 4:00:00 PM 11.79 53.222 0.589 8.34 1.91 16.62
3/21/2021 4:15:00 PM 11.83 53.294 0.589 8.35 2.09 16.56
3/21/2021 4:30:00 PM 11.86 53.348 0.589 8.35 1.7 16.49
3/21/2021 4:45:00 PM 11.88 53.384 0.588 8.35 1.69 16.32
3/21/2021 5:00:00 PM 11.89 53.402 0.589 8.35 1.99 16.16
3/21/2021 5:15:00 PM 11.89 53.402 0.589 8.35 1.85 15.98
3/21/2021 5:30:00 PM 11.88 53.384 0.589 8.34 1.89 15.74
3/21/2021 5:45:00 PM 11.87 53.366 0.59 8.33 5.07 15.48
3/21/2021 6:00:00 PM 11.85 53.33 0.59 8.32 38.41 15.15
3/21/2021 6:15:00 PM 11.82 53.276 0.591 8.31 28.63 14.82
3/21/2021 6:30:00 PM 11.79 53.222 0.592 8.29 55.93 14.45
3/21/2021 6:45:00 PM 11.77 53.186 0.593 8.28 42.8 14.1
3/21/2021 7:00:00 PM 11.73 53.114 0.593 8.26 60.02 13.7
3/21/2021 7:15:00 PM 11.7 53.06 0.594 8.24 18.63 13.35
3/21/2021 7:30:00 PM 11.64 52.952 0.595 8.22 21 13
3/21/2021 7:45:00 PM 11.61 52.898 0.597 8.2 20.94 12.67
3/21/2021 8:00:00 PM 11.54 52.772 0.602 8.18 41.64 12.36
3/21/2021 8:15:00 PM 11.48 52.664 0.605 8.16 48.36 12.12
3/21/2021 8:30:00 PM 11.43 52.574 0.606 8.15 45.86 11.88
3/21/2021 8:45:00 PM 11.38 52.484 0.606 8.13 70.57 11.68
3/21/2021 9:00:00 PM 11.32 52.376 0.607 8.11 56.2 11.49
3/21/2021 9:15:00 PM 11.27 52.286 0.607 8.1 59.06 11.32
3/21/2021 9:30:00 PM 11.23 52.214 0.607 8.08 85.27 11.18
3/21/2021 9:45:00 PM 11.18 52.124 0.607 8.07 4.97 11.05
3/21/2021 10:00:00 PM 11.13 52.034 0.608 8.06 4.6 10.92
3/21/2021 10:15:00 PM 11.08 51.944 0.608 8.04 4.58 10.81
3/21/2021 10:30:00 PM 11.03 51.854 0.608 8.03 3.4 10.68
3/21/2021 10:45:00 PM 10.99 51.782 0.609 8.02 2.65 10.59
3/21/2021 11:00:00 PM 10.94 51.692 0.609 8.01 4.42 10.5
3/21/2021 11:15:00 PM 10.89 51.602 0.609 8 4.06 10.39
3/21/2021 11:30:00 PM 10.85 51.53 0.609 7.99 2.53 10.3
3/21/2021 11:45:00 PM 10.82 51.476 0.608 7.98 6.81 10.17
3/22/2021 12:00:00 AM 10.78 51.404 0.607 7.97 2.45 10.09
3/22/2021 12:15:00 AM 10.74 51.332 0.604 7.96 2.81 9.99
3/22/2021 12:30:00 AM 10.7 51.26 0.602 7.95 3.01 9.93
3/22/2021 12:45:00 AM 10.66 51.188 0.601 7.94 3.35 9.85
3/22/2021 1:00:00 AM 10.59 51.062 0.6 7.92 4.12 9.81
3/22/2021 1:15:00 AM 10.53 50.954 0.6 7.92 2.37 9.77
3/22/2021 1:30:00 AM 10.49 50.882 0.602 7.91 3.72 9.66
3/22/2021 1:45:00 AM 10.45 50.81 0.603 7.9 3.5 9.66
3/22/2021 2:00:00 AM 10.4 50.72 0.602 7.9 4.01 9.64
3/22/2021 2:15:00 AM 10.35 50.63 0.601 7.89 2.96 9.61
3/22/2021 2:30:00 AM 10.29 50.522 0.599 7.89 3.47 9.58
3/22/2021 2:45:00 AM 10.24 50.432 0.599 7.88 4.78 9.55
3/22/2021 3:00:00 AM 10.19 50.342 0.599 7.88 4.53 9.55
3/22/2021 3:15:00 AM 10.14 50.252 0.599 7.87 3.74 9.54
3/22/2021 3:30:00 AM 10.08 50.144 0.599 7.87 3.78 9.52
3/22/2021 3:45:00 AM 10.03 50.054 0.599 7.87 3.44 9.51
3/22/2021 4:00:00 AM 9.99 49.982 0.599 7.86 47.21 9.52
3/22/2021 4:15:00 AM 9.94 49.892 0.598 7.86 62.63 9.49
3/22/2021 4:30:00 AM 9.89 49.802 0.599 7.86 4.58 9.51
3/22/2021 4:45:00 AM 9.84 49.712 0.599 7.86 115.3 9.52
3/22/2021 5:00:00 AM 9.79 49.622 0.599 7.85 5.68 9.52
3/22/2021 5:15:00 AM 9.73 49.514 0.598 7.85 4.51 9.53
3/22/2021 5:30:00 AM 9.68 49.424 0.599 7.85 2.92 9.52
3/22/2021 5:45:00 AM 9.63 49.334 0.599 7.85 22.46 9.54
3/22/2021 6:00:00 AM 9.58 49.244 0.599 7.85 10.56 9.56
3/22/2021 6:15:00 AM 9.52 49.136 0.6 7.85 4.02 9.59
3/22/2021 6:30:00 AM 9.45 49.01 0.6 7.85 14.37 9.65
3/22/2021 6:45:00 AM 9.39 48.902 0.603 7.85 4.08 9.61
3/22/2021 7:00:00 AM 9.35 48.83 0.605 7.85 3.7 9.61
3/22/2021 7:15:00 AM 9.31 48.758 0.605 7.85 13.14 9.65
3/22/2021 7:30:00 AM 9.27 48.686 0.603 7.85 4.14 9.7
3/22/2021 7:45:00 AM 9.22 48.596 0.602 7.85 3.61 9.77
3/22/2021 8:00:00 AM 9.18 48.524 0.602 7.86 3.63 9.88
3/22/2021 8:15:00 AM 9.14 48.452 0.601 7.86 3.2 10.03
3/22/2021 8:30:00 AM 9.12 48.416 0.601 7.87 2.72 10.21
3/22/2021 8:45:00 AM 9.11 48.398 0.601 7.89 2.54 10.46
3/22/2021 9:00:00 AM 9.14 48.452 0.601 7.9 4.46 10.77
3/22/2021 9:15:00 AM 9.18 48.524 0.601 7.92 3.21 11.12
3/22/2021 9:30:00 AM 9.24 48.632 0.6 7.94 2.02 11.48
3/22/2021 9:45:00 AM 9.33 48.794 0.6 7.96 8.81 11.85
3/22/2021 10:00:00 AM 9.42 48.956 0.599 7.98 17.5 12.21
3/22/2021 10:15:00 AM 9.54 49.172 0.599 8 2.4 12.57
3/22/2021 10:30:00 AM 9.65 49.37 0.599 8.02 1.89 12.91
3/22/2021 10:45:00 AM 9.78 49.604 0.598 8.04 1.87 13.23
3/22/2021 11:00:00 AM 9.91 49.838 0.596 8.06 123.9 13.55
3/22/2021 11:15:00 AM 10.05 50.09 0.596 8.08 23.6 13.81
3/22/2021 11:30:00 AM 10.2 50.36 0.595 8.09 50.95 14.11
3/22/2021 11:45:00 AM 10.36 50.648 0.595 8.11 2.1 14.38
3/22/2021 12:00:00 PM 10.52 50.936 0.594 8.13 1.73 14.64
3/22/2021 12:15:00 PM 10.69 51.242 0.594 8.15 74.03 14.91
3/22/2021 12:30:00 PM 10.85 51.53 0.593 8.17 141.8 15.18
3/22/2021 12:45:00 PM 11 51.8 0.593 8.18 68.06 15.35
3/22/2021 1:00:00 PM 11.14 52.052 0.592 8.2 32.33 15.61
3/22/2021 1:15:00 PM 11.29 52.322 0.591 8.21 3.27 15.8
3/22/2021 1:30:00 PM 11.43 52.574 0.589 8.24 2.03 16
3/22/2021 1:45:00 PM 11.55 52.79 0.589 8.25 1.61 16.18
3/22/2021 2:00:00 PM 11.68 53.024 0.59 8.27 1.52 16.33
3/22/2021 2:15:00 PM 11.8 53.24 0.59 8.28 1.76 16.46
3/22/2021 2:30:00 PM 11.92 53.456 0.589 8.29 1.9 16.57
3/22/2021 2:45:00 PM 12.01 53.618 0.589 8.3 1.79 16.64
3/22/2021 3:00:00 PM 12.09 53.762 0.588 8.31 1.87 16.69
3/22/2021 3:15:00 PM 12.17 53.906 0.588 8.32 1.9 16.72
3/22/2021 3:30:00 PM 12.23 54.014 0.588 8.33 1.57 16.73
3/22/2021 3:45:00 PM 12.27 54.086 0.586 8.34 2.17 16.65
3/22/2021 4:00:00 PM 12.3 54.14 0.587 8.34 7.51 16.6
3/22/2021 4:15:00 PM 12.31 54.158 0.589 8.34 23.45 16.52
3/22/2021 4:30:00 PM 12.33 54.194 0.588 8.35 48.91 16.43
3/22/2021 4:45:00 PM 12.33 54.194 0.589 8.35 54.2 16.26
3/22/2021 5:00:00 PM 12.32 54.176 0.589 8.35 30.53 16.1
3/22/2021 5:15:00 PM 12.3 54.14 0.589 8.35 2.84 15.88
3/22/2021 5:30:00 PM 12.28 54.104 0.589 8.34 3.75 15.6
3/22/2021 5:45:00 PM 12.24 54.032 0.589 8.34 2.75 15.33
3/22/2021 6:00:00 PM 12.21 53.978 0.59 8.32 6 14.99
3/22/2021 6:15:00 PM 12.18 53.924 0.59 8.31 15.89 14.66
3/22/2021 6:30:00 PM 12.14 53.852 0.591 8.3 2.19 14.27
3/22/2021 6:45:00 PM 12.11 53.798 0.591 8.28 4.68 13.93
3/22/2021 7:00:00 PM 12.08 53.744 0.592 8.27 4.34 13.57
3/22/2021 7:15:00 PM 12.04 53.672 0.592 8.24 32.93 13.17
3/22/2021 7:30:00 PM 12 53.6 0.593 8.22 6.75 12.8
3/22/2021 7:45:00 PM 11.96 53.528 0.594 8.19 2.89 12.46
3/22/2021 8:00:00 PM 11.92 53.456 0.594 8.17 8.72 12.17
3/22/2021 8:15:00 PM 11.87 53.366 0.595 8.15 5.21 11.91
3/22/2021 8:30:00 PM 11.82 53.276 0.595 8.13 6.45 11.7
3/22/2021 8:45:00 PM 11.77 53.186 0.595 8.12 4.52 11.48
3/22/2021 9:00:00 PM 11.71 53.078 0.595 8.1 7.24 11.33
3/22/2021 9:15:00 PM 11.66 52.988 0.596 8.09 6.53 11.14
3/22/2021 9:30:00 PM 11.61 52.898 0.596 8.07 4.18 10.97
3/22/2021 9:45:00 PM 11.56 52.808 0.596 8.06 3.35 10.84
3/22/2021 10:00:00 PM 11.52 52.736 0.596 8.04 3.82 10.68
3/22/2021 10:15:00 PM 11.46 52.628 0.596 8.03 5.09 10.57
3/22/2021 10:30:00 PM 11.41 52.538 0.596 8.02 14.08 10.44
3/22/2021 10:45:00 PM 11.35 52.43 0.596 8.01 20.33 10.34
3/22/2021 11:00:00 PM 11.3 52.34 0.596 8 46.23 10.23
3/22/2021 11:15:00 PM 11.24 52.232 0.595 7.99 3.22 10.13
3/22/2021 11:30:00 PM 11.18 52.124 0.595 7.98 3.85 10.03
3/22/2021 11:45:00 PM 11.12 52.016 0.595 7.97 14.73 9.95
3/23/2021 12:00:00 AM 11.07 51.926 0.595 7.96 4.7 9.86
3/23/2021 12:15:00 AM 11.01 51.818 0.596 7.95 18.59 9.77
3/23/2021 12:30:00 AM 10.95 51.71 0.596 7.94 24.69 9.69
3/23/2021 12:45:00 AM 10.9 51.62 0.596 7.93 9.69 9.63
3/23/2021 1:00:00 AM 10.85 51.53 0.596 7.92 5.14 9.57
3/23/2021 1:15:00 AM 10.8 51.44 0.596 7.92 5.97 9.52
3/23/2021 1:30:00 AM 10.75 51.35 0.596 7.91 4.57 9.48
3/23/2021 1:45:00 AM 10.7 51.26 0.596 7.9 5.73 9.44
3/23/2021 2:00:00 AM 10.64 51.152 0.596 7.9 5.48 9.41
3/23/2021 2:15:00 AM 10.59 51.062 0.596 7.89 6.31 9.37
3/23/2021 2:30:00 AM 10.54 50.972 0.596 7.89 24.66 9.34
3/23/2021 2:45:00 AM 10.49 50.882 0.596 7.88 13.28 9.3
3/23/2021 3:00:00 AM 10.44 50.792 0.596 7.88 4 9.29
3/23/2021 3:15:00 AM 10.39 50.702 0.596 7.87 3.77 9.3
3/23/2021 3:30:00 AM 10.33 50.594 0.596 7.87 4.45 9.27
3/23/2021 3:45:00 AM 10.28 50.504 0.596 7.87 31.79 9.28
3/23/2021 4:00:00 AM 10.23 50.414 0.596 7.86 4.45 9.26
3/23/2021 4:15:00 AM 10.18 50.324 0.597 7.86 7.53 9.26
3/23/2021 4:30:00 AM 10.14 50.252 0.596 7.86 10.59 9.27
3/23/2021 4:45:00 AM 10.09 50.162 0.597 7.86 19.32 9.27
3/23/2021 5:00:00 AM 10.04 50.072 0.597 7.85 4.62 9.28
3/23/2021 5:15:00 AM 9.98 49.964 0.597 7.85 4.63 9.26
3/23/2021 5:30:00 AM 9.93 49.874 0.598 7.85 35.02 9.29
3/23/2021 5:45:00 AM 9.88 49.784 0.598 7.85 7.9 9.27
3/23/2021 6:00:00 AM 9.84 49.712 0.598 7.85 4.26 9.3
3/23/2021 6:15:00 AM 9.78 49.604 0.598 7.85 9.9 9.31
3/23/2021 6:30:00 AM 9.74 49.532 0.598 7.85 4.12 9.31
3/23/2021 6:45:00 AM 9.69 49.442 0.598 7.85 3.86 9.31
3/23/2021 7:00:00 AM 9.64 49.352 0.599 7.85 4.52 9.34
3/23/2021 7:15:00 AM 9.59 49.262 0.599 7.85 3.92 9.37
3/23/2021 7:30:00 AM 9.55 49.19 0.6 7.85 4.31 9.44
3/23/2021 7:45:00 AM 9.51 49.118 0.601 7.85 3.75 9.52
3/23/2021 8:00:00 AM 9.48 49.064 0.602 7.86 4.25 9.65
3/23/2021 8:15:00 AM 9.46 49.028 0.602 7.86 2.89 9.82
3/23/2021 8:30:00 AM 9.45 49.01 0.602 7.87 4.47 10.02
3/23/2021 8:45:00 AM 9.45 49.01 0.602 7.89 9.45 10.31
3/23/2021 9:00:00 AM 9.48 49.064 0.603 7.9 4.68 10.64
3/23/2021 9:15:00 AM 9.52 49.136 0.603 7.92 2.57 10.97
3/23/2021 9:30:00 AM 9.57 49.226 0.603 7.94 22.99 11.3
3/23/2021 9:45:00 AM 9.64 49.352 0.603 7.96 3.84 11.69
3/23/2021 10:00:00 AM 9.74 49.532 0.602 7.98 2.5 12.06
3/23/2021 10:15:00 AM 9.86 49.748 0.602 8 3.89 12.43
3/23/2021 10:30:00 AM 9.98 49.964 0.601 8.02 2.86 12.77
3/23/2021 10:45:00 AM 10.11 50.198 0.601 8.04 4.44 13.12
3/23/2021 11:00:00 AM 10.23 50.414 0.6 8.06 2.89 13.42
3/23/2021 11:15:00 AM 10.35 50.63 0.6 8.08 3.47 13.74
3/23/2021 11:30:00 AM 10.47 50.846 0.6 8.09 3.79 14
3/23/2021 11:45:00 AM 10.61 51.098 0.6 8.11 2.58 14.25
3/23/2021 12:00:00 PM 10.77 51.386 0.599 8.13 5.5 14.52
3/23/2021 12:15:00 PM 10.92 51.656 0.599 8.15 65.52 14.79
3/23/2021 12:30:00 PM 11.09 51.962 0.599 8.17 2.43 15.08
3/23/2021 12:45:00 PM 11.24 52.232 0.598 8.19 4.23 15.31
3/23/2021 1:00:00 PM 11.39 52.502 0.598 8.2 2.51 15.48
3/23/2021 1:15:00 PM 11.51 52.718 0.597 8.21 3.15 15.72
3/23/2021 1:30:00 PM 11.63 52.934 0.596 8.23 2.48 15.88
3/23/2021 1:45:00 PM 11.75 53.15 0.594 8.25 2.22 16.12
3/23/2021 2:00:00 PM 11.86 53.348 0.594 8.27 4.04 16.28
3/23/2021 2:15:00 PM 11.98 53.564 0.593 8.28 32.15 16.41
3/23/2021 2:30:00 PM 12.1 53.78 0.592 8.29 2.87 16.51
3/23/2021 2:45:00 PM 12.15 53.87 0.591 8.3 2.02 16.55
3/23/2021 3:00:00 PM 12.19 53.942 0.591 8.32 5.38 16.58
3/23/2021 3:15:00 PM 12.22 53.996 0.59 8.33 2.38 16.56
3/23/2021 3:30:00 PM 12.33 54.194 0.59 8.34 2.65 16.69
3/23/2021 3:45:00 PM 12.41 54.338 0.589 8.35 2.37 16.73
3/23/2021 4:00:00 PM 12.46 54.428 0.588 8.35 2.52 16.7
3/23/2021 4:15:00 PM 12.51 54.518 0.587 8.36 7.15 16.58
3/23/2021 4:30:00 PM 12.51 54.518 0.59 8.36 2.94 16.38
3/23/2021 4:45:00 PM 12.49 54.482 0.59 8.36 2.09 16.09
3/23/2021 5:00:00 PM 12.49 54.482 0.589 8.35 4.36 15.92
3/23/2021 5:15:00 PM 12.5 54.5 0.589 8.36 3.86 15.75
3/23/2021 5:30:00 PM 12.46 54.428 0.589 8.36 3.54 15.52
3/23/2021 5:45:00 PM 12.45 54.41 0.59 8.34 4.87 15.25
3/23/2021 6:00:00 PM 12.43 54.374 0.59 8.33 3.79 14.92
3/23/2021 6:15:00 PM 12.41 54.338 0.591 8.32 3.14 14.62
3/23/2021 6:30:00 PM 12.4 54.32 0.591 8.31 2.29 14.3
3/23/2021 6:45:00 PM 12.38 54.284 0.592 8.3 5.36 13.97
3/23/2021 7:00:00 PM 12.37 54.266 0.592 8.28 2.13 13.63
3/23/2021 7:15:00 PM 12.34 54.212 0.592 8.26 2.4 13.27
3/23/2021 7:30:00 PM 12.31 54.158 0.593 8.24 2.53 12.91
3/23/2021 7:45:00 PM 12.29 54.122 0.594 8.23 3.56 12.55
3/23/2021 8:00:00 PM 12.26 54.068 0.594 8.2 2.8 12.26
3/23/2021 8:15:00 PM 12.24 54.032 0.595 8.18 3.51 11.99
3/23/2021 8:30:00 PM 12.21 53.978 0.596 8.17 6.49 11.76
3/23/2021 8:45:00 PM 12.18 53.924 0.596 8.15 4.02 11.56
3/23/2021 9:00:00 PM 12.16 53.888 0.596 8.13 3 11.34
3/23/2021 9:15:00 PM 12.14 53.852 0.597 8.12 3.82 11.17
3/23/2021 9:30:00 PM 12.12 53.816 0.597 8.1 99.53 10.99
3/23/2021 9:45:00 PM 12.1 53.78 0.597 8.09 3.97 10.84
3/23/2021 10:00:00 PM 12.07 53.726 0.598 8.08 3969 10.68
3/23/2021 10:15:00 PM 12.04 53.672 0.598 8.06 13.27 10.54
3/23/2021 10:30:00 PM 12.01 53.618 0.599 8.05 5.05 10.42
3/23/2021 10:45:00 PM 11.98 53.564 0.599 8.04 4.46 10.27
3/23/2021 11:00:00 PM 11.95 53.51 0.598 8.03 15.54 10.13
3/23/2021 11:15:00 PM 11.92 53.456 0.598 8.01 3.93 10.02
3/23/2021 11:30:00 PM 11.88 53.384 0.598 8 8.7 9.93
3/23/2021 11:45:00 PM 11.84 53.312 0.598 7.99 6.98 9.82
3/24/2021 12:00:00 AM 11.8 53.24 0.598 7.98 4.82 9.74
3/24/2021 12:15:00 AM 11.77 53.186 0.598 7.97 4.1 9.65
3/24/2021 12:30:00 AM 11.73 53.114 0.598 7.96 3.69 9.55
3/24/2021 12:45:00 AM 11.7 53.06 0.598 7.95 3.99 9.48
3/24/2021 1:00:00 AM 11.67 53.006 0.598 7.94 4.19 9.4
3/24/2021 1:15:00 AM 11.65 52.97 0.598 7.92 3.88 9.33
3/24/2021 1:30:00 AM 11.64 52.952 0.598 7.92 3.5 9.27
3/24/2021 1:45:00 AM 11.63 52.934 0.598 7.91 4.7 9.23
3/24/2021 2:00:00 AM 11.63 52.934 0.598 7.9 4.91 9.15
3/24/2021 2:15:00 AM 11.62 52.916 0.597 7.89 4.72 9.13
3/24/2021 2:30:00 AM 11.61 52.898 0.597 7.89 753.1 9.1
3/24/2021 2:45:00 AM 11.6 52.88 0.597 7.88 3.59 9.06
3/24/2021 3:00:00 AM 11.6 52.88 0.596 7.87 3.18 9.01
3/24/2021 3:15:00 AM 11.61 52.898 0.596 7.87 3.36 8.94
3/24/2021 3:30:00 AM 11.64 52.952 0.596 7.86 4.29 8.85
3/24/2021 3:45:00 AM 11.65 52.97 0.596 7.85 3.42 8.78
3/24/2021 4:00:00 AM 11.66 52.988 0.595 7.85 4.25 8.72
3/24/2021 4:15:00 AM 11.66 52.988 0.595 7.84 6.34 8.71
3/24/2021 4:30:00 AM 11.66 52.988 0.595 7.84 3.99 8.69
3/24/2021 4:45:00 AM 11.66 52.988 0.595 7.84 4.17 8.67
3/24/2021 5:00:00 AM 11.63 52.934 0.595 7.83 7.02 8.71
3/24/2021 5:15:00 AM 11.6 52.88 0.595 7.84 4.33 8.76
3/24/2021 5:30:00 AM 11.57 52.826 0.595 7.84 4.35 8.81
3/24/2021 5:45:00 AM 11.55 52.79 0.595 7.83 3.98 8.83
3/24/2021 6:00:00 AM 11.53 52.754 0.595 7.83 5.55 8.83
3/24/2021 6:15:00 AM 11.51 52.718 0.595 7.83 3.54 8.82
3/24/2021 6:30:00 AM 11.5 52.7 0.595 7.83 5.49 8.83
3/24/2021 6:45:00 AM 11.48 52.664 0.595 7.83 5.37 8.84
3/24/2021 7:00:00 AM 11.46 52.628 0.596 7.83 4.93 8.84
3/24/2021 7:15:00 AM 11.44 52.592 0.595 7.83 4.25 8.85
3/24/2021 7:30:00 AM 11.43 52.574 0.595 7.82 3.68 8.86
3/24/2021 7:45:00 AM 11.41 52.538 0.596 7.82 3.59 8.87
3/24/2021 8:00:00 AM 11.4 52.52 0.596 7.83 2.92 8.88
3/24/2021 8:15:00 AM 11.39 52.502 0.596 7.83 4.85 8.91
3/24/2021 8:30:00 AM 11.37 52.466 0.596 7.8 7.75 8.96
3/24/2021 8:45:00 AM 11.36 52.448 0.596 7.83 10.72 9.02
3/24/2021 9:00:00 AM 11.35 52.43 0.595 7.83 6.44 9.1
3/24/2021 9:15:00 AM 11.34 52.412 0.595 7.84 3.79 9.16
3/24/2021 9:30:00 AM 11.33 52.394 0.595 7.85 2.9 9.23
3/24/2021 9:45:00 AM 11.32 52.376 0.595 7.85 3.84 9.29
3/24/2021 10:00:00 AM 11.3 52.34 0.593 7.86 9.17 9.4
3/24/2021 10:15:00 AM 11.29 52.322 0.591 7.87 3.67 9.48
3/24/2021 10:30:00 AM 11.29 52.322 0.591 7.88 2.56 9.57
3/24/2021 10:45:00 AM 11.29 52.322 0.59 7.88 3.6 9.72
3/24/2021 11:00:00 AM 11.29 52.322 0.591 7.89 4.25 9.8
3/24/2021 11:15:00 AM 11.3 52.34 0.59 7.89 6.53 9.92
3/24/2021 11:30:00 AM 11.3 52.34 0.59 7.9 3.17 9.96
3/24/2021 11:45:00 AM 11.3 52.34 0.588 7.9 3.63 10
3/24/2021 12:00:00 PM 11.3 52.34 0.587 7.91 4.01 10.08
3/24/2021 12:15:00 PM 11.3 52.34 0.586 7.91 4.23 10.18
3/24/2021 12:30:00 PM 11.31 52.358 0.585 7.92 3.78 10.35
3/24/2021 12:45:00 PM 11.32 52.376 0.585 7.93 7.98 10.41
3/24/2021 1:00:00 PM 11.32 52.376 0.584 7.94 5.28 10.46
3/24/2021 1:15:00 PM 11.34 52.412 0.583 7.94 4.68 10.56
3/24/2021 1:30:00 PM 11.35 52.43 0.582 7.95 5.02 10.66
3/24/2021 1:45:00 PM 11.35 52.43 0.582 7.95 4.88 10.72
3/24/2021 2:00:00 PM 11.35 52.43 0.582 7.95 6.83 10.73
3/24/2021 2:15:00 PM 11.35 52.43 0.581 7.96 4.54 10.7
3/24/2021 2:30:00 PM 11.35 52.43 0.581 7.95 6.58 10.67
3/24/2021 2:45:00 PM 11.35 52.43 0.58 7.95 4.54 10.69
3/24/2021 3:00:00 PM 11.35 52.43 0.577 7.95 4.59 10.67
3/24/2021 3:15:00 PM 11.36 52.448 0.574 7.95 6.8 10.67
3/24/2021 3:30:00 PM 11.38 52.484 0.57 7.95 7.84 10.7
3/24/2021 3:45:00 PM 11.4 52.52 0.569 7.95 6.09 10.74
3/24/2021 4:00:00 PM 11.43 52.574 0.57 7.95 7.6 10.79
3/24/2021 4:15:00 PM 11.44 52.592 0.573 7.95 1213 10.81
3/24/2021 4:30:00 PM 11.46 52.628 0.576 7.96 6.61 10.82
3/24/2021 4:45:00 PM 11.47 52.646 0.578 7.96 9.44 10.79
3/24/2021 5:00:00 PM 11.49 52.682 0.577 7.96 6.67 10.74
3/24/2021 5:15:00 PM 11.49 52.682 0.577 7.96 8.28 10.7
3/24/2021 5:30:00 PM 11.5 52.7 0.578 7.95 8.23 10.58
3/24/2021 5:45:00 PM 11.5 52.7 0.579 7.95 5.84 10.46
3/24/2021 6:00:00 PM 11.5 52.7 0.578 7.94 8.6 10.38
3/24/2021 6:15:00 PM 11.51 52.718 0.577 7.93 10.17 10.29
3/24/2021 6:30:00 PM 11.51 52.718 0.574 7.93 8.76 10.18
3/24/2021 6:45:00 PM 11.51 52.718 0.574 7.91 11.39 10.11
3/24/2021 7:00:00 PM 11.52 52.736 0.576 7.91 12.24 10.02
3/24/2021 7:15:00 PM 11.53 52.754 0.578 7.9 11.87 9.97
3/24/2021 7:30:00 PM 11.54 52.772 0.579 7.89 14.96 9.89
3/24/2021 7:45:00 PM 11.54 52.772 0.578 7.88 14.21 9.79
3/24/2021 8:00:00 PM 11.54 52.772 0.569 7.87 17.26 9.69
3/24/2021 8:15:00 PM 11.55 52.79 0.555 7.85 16.77 9.56
3/24/2021 8:30:00 PM 11.55 52.79 0.538 7.83 23.43 9.45
3/24/2021 8:45:00 PM 11.54 52.772 0.521 7.82 19.06 9.36
3/24/2021 9:00:00 PM 11.53 52.754 0.506 7.8 16.98 9.31
3/24/2021 9:15:00 PM 11.52 52.736 0.495 7.79 18.19 9.27
3/24/2021 9:30:00 PM 11.52 52.736 0.488 7.79 19.67 9.25
3/24/2021 9:45:00 PM 11.51 52.718 0.485 7.78 17.87 9.22
3/24/2021 10:00:00 PM 11.5 52.7 0.484 7.77 17.69 9.18
3/24/2021 10:15:00 PM 11.49 52.682 0.484 7.77 19.94 9.12
3/24/2021 10:30:00 PM 11.49 52.682 0.484 7.76 17.63 9.1
3/24/2021 10:45:00 PM 11.49 52.682 0.482 7.75 19.26 9.06
3/24/2021 11:00:00 PM 11.49 52.682 0.48 7.75 19.28 9.02
3/24/2021 11:15:00 PM 11.5 52.7 0.477 7.74 18.59 9.01
3/24/2021 11:30:00 PM 11.5 52.7 0.474 7.74 20.84 8.99
3/24/2021 11:45:00 PM 11.51 52.718 0.471 7.73 21.38 8.95
3/25/2021 12:00:00 AM 11.51 52.718 0.468 7.73 18.25 8.93
3/25/2021 12:15:00 AM 11.52 52.736 0.466 7.72 19.07 8.92
3/25/2021 12:30:00 AM 11.53 52.754 0.464 7.72 17.97 8.89
3/25/2021 12:45:00 AM 11.54 52.772 0.463 7.71 17.46 8.88
3/25/2021 1:00:00 AM 11.54 52.772 0.463 7.71 24.21 8.87
3/25/2021 1:15:00 AM 11.54 52.772 0.464 7.71 18.01 8.87
3/25/2021 1:30:00 AM 11.54 52.772 0.466 7.7 19.28 8.87
3/25/2021 1:45:00 AM 11.54 52.772 0.47 7.7 20.18 8.87
3/25/2021 2:00:00 AM 11.53 52.754 0.474 7.7 16.33 8.87
3/25/2021 2:15:00 AM 11.53 52.754 0.477 7.71 16.52 8.88
3/25/2021 2:30:00 AM 11.52 52.736 0.481 7.71 18.09 8.87
3/25/2021 2:45:00 AM 11.51 52.718 0.484 7.71 17.43 8.87
3/25/2021 3:00:00 AM 11.51 52.718 0.487 7.7 18.11 8.87
3/25/2021 3:15:00 AM 11.5 52.7 0.49 7.7 18.09 8.88
3/25/2021 3:30:00 AM 11.49 52.682 0.494 7.71 16.19 8.87
3/25/2021 3:45:00 AM 11.48 52.664 0.499 7.71 15.08 8.87
3/25/2021 4:00:00 AM 11.47 52.646 0.502 7.71 14.38 8.87
3/25/2021 4:15:00 AM 11.46 52.628 0.506 7.71 13.7 8.88
3/25/2021 4:30:00 AM 11.45 52.61 0.509 7.72 14.65 8.89
3/25/2021 4:45:00 AM 11.44 52.592 0.511 7.72 12.47 8.88
3/25/2021 5:00:00 AM 11.43 52.574 0.513 7.72 12.58 8.91
3/25/2021 5:15:00 AM 11.42 52.556 0.514 7.72 14.59 8.91
3/25/2021 5:30:00 AM 11.41 52.538 0.515 7.72 14.41 8.91
3/25/2021 5:45:00 AM 11.4 52.52 0.516 7.72 12.32 8.93
3/25/2021 6:00:00 AM 11.39 52.502 0.517 7.73 13.37 8.94
3/25/2021 6:15:00 AM 11.38 52.484 0.518 7.72 15.13 8.95
3/25/2021 6:30:00 AM 11.37 52.466 0.518 7.73 17.42 8.96
3/25/2021 6:45:00 AM 11.36 52.448 0.519 7.73 13.06 8.96
3/25/2021 7:00:00 AM 11.35 52.43 0.521 7.73 21.9 8.99
3/25/2021 7:15:00 AM 11.34 52.412 0.522 7.74 17.32 9
3/25/2021 7:30:00 AM 11.34 52.412 0.523 7.74 12.67 9.01
3/25/2021 7:45:00 AM 11.34 52.412 0.524 7.74 24.03 9.05
3/25/2021 8:00:00 AM 11.34 52.412 0.526 7.75 10.87 9.08
3/25/2021 8:15:00 AM 11.35 52.43 0.527 7.75 13.14 9.15
3/25/2021 8:30:00 AM 11.36 52.448 0.527 7.76 11.6 9.23
3/25/2021 8:45:00 AM 11.37 52.466 0.529 7.76 12.3 9.3
3/25/2021 9:00:00 AM 11.39 52.502 0.53 7.77 10.56 9.38
3/25/2021 9:15:00 AM 11.41 52.538 0.531 7.78 16.77 9.5
3/25/2021 9:30:00 AM 11.44 52.592 0.532 7.79 8.48 9.62
3/25/2021 9:45:00 AM 11.47 52.646 0.533 7.8 9.7 9.8
3/25/2021 10:00:00 AM 11.5 52.7 0.535 7.81 8.71 9.91
3/25/2021 10:15:00 AM 11.53 52.754 0.536 7.81 9.17 10.06
3/25/2021 10:30:00 AM 11.57 52.826 0.537 7.83 7.41 10.17
3/25/2021 10:45:00 AM 11.59 52.862 0.538 7.84 8.36 10.29
3/25/2021 11:00:00 AM 11.62 52.916 0.539 7.84 7.78 10.39
3/25/2021 11:15:00 AM 11.64 52.952 0.54 7.86 7.49 10.47
3/25/2021 11:30:00 AM 11.67 53.006 0.541 7.86 7.87 10.61
3/25/2021 11:45:00 AM 11.71 53.078 0.542 7.87 10.37 10.71
3/25/2021 12:00:00 PM 11.75 53.15 0.543 7.89 7.43 10.87
3/25/2021 12:15:00 PM 11.79 53.222 0.544 7.9 13.56 11.04
3/25/2021 12:30:00 PM 11.83 53.294 0.545 7.91 8.06 11.14
3/25/2021 12:45:00 PM 11.86 53.348 0.545 7.92 6.8 11.27
3/25/2021 1:00:00 PM 11.91 53.438 0.546 7.94 6.64 11.4
3/25/2021 1:15:00 PM 11.95 53.51 0.547 7.95 5.55 11.53
3/25/2021 1:30:00 PM 11.98 53.564 0.548 7.96 7.03 11.59
3/25/2021 1:45:00 PM 12.02 53.636 0.549 7.97 8.17 11.7
3/25/2021 2:00:00 PM 12.06 53.708 0.549 7.98 8.74 11.79
3/25/2021 2:15:00 PM 12.11 53.798 0.55 7.99 7.25 11.9
3/25/2021 2:30:00 PM 12.15 53.87 0.55 8 5.89 12
3/25/2021 2:45:00 PM 12.22 53.996 0.55 8.01 6.02 12.19
3/25/2021 3:00:00 PM 12.28 54.104 0.551 8.03 6.67 12.37
3/25/2021 3:15:00 PM 12.34 54.212 0.552 8.04 6.88 12.53
3/25/2021 3:30:00 PM 12.43 54.374 0.552 8.05 7.42 12.7
3/25/2021 3:45:00 PM 12.49 54.482 0.552 8.06 6.01 12.8
3/25/2021 4:00:00 PM 12.54 54.572 0.551 8.07 6.37 12.76
3/25/2021 4:15:00 PM 12.58 54.644 0.552 8.08 5.07 12.74
3/25/2021 4:30:00 PM 12.65 54.77 0.552 8.08 6.12 12.82
3/25/2021 4:45:00 PM 12.71 54.878 0.551 8.09 5.95 12.82
3/25/2021 5:00:00 PM 12.76 54.968 0.551 8.1 6.34 12.69
3/25/2021 5:15:00 PM 12.79 55.022 0.551 8.1 5.96 12.59
3/25/2021 5:30:00 PM 12.81 55.058 0.552 8.1 6.95 12.51
3/25/2021 5:45:00 PM 12.82 55.076 0.552 8.1 8.28 12.37
3/25/2021 6:00:00 PM 12.83 55.094 0.553 8.09 12.66 12.23
3/25/2021 6:15:00 PM 12.84 55.112 0.554 8.09 5.89 12.06
3/25/2021 6:30:00 PM 12.85 55.13 0.555 8.08 6.41 11.92
3/25/2021 6:45:00 PM 12.85 55.13 0.556 8.07 6.52 11.68
3/25/2021 7:00:00 PM 12.85 55.13 0.557 8.06 6.98 11.46
3/25/2021 7:15:00 PM 12.86 55.148 0.558 8.04 6.65 11.23
3/25/2021 7:30:00 PM 12.85 55.13 0.558 8.03 7.29 11.03
3/25/2021 7:45:00 PM 12.84 55.112 0.558 8.02 6.88 10.86
3/25/2021 8:00:00 PM 12.83 55.094 0.559 8.01 6.78 10.7
3/25/2021 8:15:00 PM 12.83 55.094 0.559 8 6.48 10.56
3/25/2021 8:30:00 PM 12.82 55.076 0.56 7.99 6.91 10.42
3/25/2021 8:45:00 PM 12.82 55.076 0.56 7.98 7.26 10.31
3/25/2021 9:00:00 PM 12.82 55.076 0.559 7.98 7.27 10.21
3/25/2021 9:15:00 PM 12.82 55.076 0.56 7.97 9.52 10.1
3/25/2021 9:30:00 PM 12.81 55.058 0.56 7.96 7.67 10
3/25/2021 9:45:00 PM 12.81 55.058 0.56 7.95 9.84 9.91
3/25/2021 10:00:00 PM 12.81 55.058 0.561 7.95 8.87 9.79
3/25/2021 10:15:00 PM 12.8 55.04 0.561 7.94 8.19 9.7
3/25/2021 10:30:00 PM 12.8 55.04 0.561 7.93 8.03 9.61
3/25/2021 10:45:00 PM 12.8 55.04 0.562 7.92 6.61 9.51
3/25/2021 11:00:00 PM 12.8 55.04 0.562 7.92 8.21 9.44
3/25/2021 11:15:00 PM 12.8 55.04 0.563 7.91 6.81 9.36
3/25/2021 11:30:00 PM 12.8 55.04 0.563 7.9 8.82 9.27
3/25/2021 11:45:00 PM 12.8 55.04 0.563 7.89 10.54 9.2
3/26/2021 12:00:00 AM 12.8 55.04 0.563 7.89 10.13 9.13
3/26/2021 12:15:00 AM 12.8 55.04 0.563 7.88 12.22 9.06
3/26/2021 12:30:00 AM 12.79 55.022 0.563 7.87 9.23 9
3/26/2021 12:45:00 AM 12.79 55.022 0.565 7.87 9.02 8.94
3/26/2021 1:00:00 AM 12.78 55.004 0.565 7.86 7.55 8.88
3/26/2021 1:15:00 AM 12.78 55.004 0.565 7.86 6.1 8.84
3/26/2021 1:30:00 AM 12.77 54.986 0.565 7.85 5.66 8.79
3/26/2021 1:45:00 AM 12.76 54.968 0.566 7.85 4.8 8.76
3/26/2021 2:00:00 AM 12.76 54.968 0.567 7.84 4.43 8.73
3/26/2021 2:15:00 AM 12.75 54.95 0.567 7.84 5.91 8.68
3/26/2021 2:30:00 AM 12.75 54.95 0.567 7.83 4.94 8.65
3/26/2021 2:45:00 AM 12.75 54.95 0.567 7.83 5.32 8.61
3/26/2021 3:00:00 AM 12.75 54.95 0.568 7.83 5.59 8.58
3/26/2021 3:15:00 AM 12.74 54.932 0.568 7.82 6.25 8.55
3/26/2021 3:30:00 AM 12.74 54.932 0.568 7.82 10.26 8.54
3/26/2021 3:45:00 AM 12.74 54.932 0.568 7.82 7.4 8.5
3/26/2021 4:00:00 AM 12.73 54.914 0.569 7.82 4.9 8.48
3/26/2021 4:15:00 AM 12.72 54.896 0.569 7.81 6.03 8.45
3/26/2021 4:30:00 AM 12.71 54.878 0.57 7.81 5.39 8.43
3/26/2021 4:45:00 AM 12.7 54.86 0.57 7.8 5.69 8.41
3/26/2021 5:00:00 AM 12.69 54.842 0.57 7.8 5.41 8.41
3/26/2021 5:15:00 AM 12.67 54.806 0.57 7.8 5.85 8.4
3/26/2021 5:30:00 AM 12.65 54.77 0.571 7.8 7.37 8.39
3/26/2021 5:45:00 AM 12.64 54.752 0.571 7.8 5.28 8.38
3/26/2021 6:00:00 AM 12.62 54.716 0.57 7.8 5.64 8.37
3/26/2021 6:15:00 AM 12.6 54.68 0.571 7.8 5.19 8.38
3/26/2021 6:30:00 AM 12.57 54.626 0.571 7.79 4.88 8.36
3/26/2021 6:45:00 AM 12.55 54.59 0.571 7.79 5.79 8.36
3/26/2021 7:00:00 AM 12.52 54.536 0.571 7.79 5.55 8.35
3/26/2021 7:15:00 AM 12.5 54.5 0.57 7.79 5.87 8.36
3/26/2021 7:30:00 AM 12.5 54.5 0.571 7.79 4.93 8.37
3/26/2021 7:45:00 AM 12.5 54.5 0.571 7.79 4.57 8.4
3/26/2021 8:00:00 AM 12.51 54.518 0.571 7.79 5.33 8.48
3/26/2021 8:15:00 AM 12.52 54.536 0.571 7.79 5.51 8.55
3/26/2021 8:30:00 AM 12.48 54.464 0.571 7.8 4.32 8.68
3/26/2021 8:45:00 AM 12.46 54.428 0.571 7.82 1078 8.94
3/26/2021 9:00:00 AM 12.47 54.446 0.585 7.83 11.24 9.29
3/26/2021 9:15:00 AM 12.52 54.536 0.587 7.84 2100 9.61
3/26/2021 9:30:00 AM 12.57 54.626 0.587 7.85 3.68 9.85
3/26/2021 9:45:00 AM 12.66 54.788 0.587 7.87 8.52 10.1
3/26/2021 10:00:00 AM 12.75 54.95 0.587 7.88 10.7 10.31
3/26/2021 10:15:00 AM 12.88 55.184 0.588 7.9 3.23 10.58
3/26/2021 10:30:00 AM 13.01 55.418 0.588 7.91 2.64 10.79
3/26/2021 10:45:00 AM 13.19 55.742 0.588 7.93 3.43 11.09
3/26/2021 11:00:00 AM 13.32 55.976 0.587 7.95 4.81 11.3
3/26/2021 11:15:00 AM 13.45 56.21 0.587 7.96 3.39 11.52
3/26/2021 11:30:00 AM 13.59 56.462 0.587 7.98 4.79 11.74
3/26/2021 11:45:00 AM 13.7 56.66 0.587 8 2.84 11.91
3/26/2021 12:00:00 PM 13.86 56.948 0.588 8.01 3.07 12.18
3/26/2021 12:15:00 PM 14.04 57.272 0.587 8.03 4.06 12.44
3/26/2021 12:30:00 PM 14.21 57.578 0.587 8.04 7.94 12.67
3/26/2021 12:45:00 PM 14.38 57.884 0.586 8.06 2.49 12.89
3/26/2021 1:00:00 PM 14.51 58.118 0.586 8.08 2.56 13.09
3/26/2021 1:15:00 PM 14.64 58.352 0.585 8.1 4.48 13.24
3/26/2021 1:30:00 PM 14.77 58.586 0.585 8.11 5.3 13.42
3/26/2021 1:45:00 PM 14.9 58.82 0.584 8.13 3.42 13.61
3/26/2021 2:00:00 PM 15.02 59.036 0.584 8.15 2.92 13.76
3/26/2021 2:15:00 PM 15.12 59.216 0.584 8.16 3.37 13.87
3/26/2021 2:30:00 PM 15.21 59.378 0.584 8.18 3.48 13.95
3/26/2021 2:45:00 PM 15.27 59.486 0.584 8.19 13.92 14
3/26/2021 3:00:00 PM 15.23 59.414 0.584 8.19 3.31 13.91
3/26/2021 3:15:00 PM 15.16 59.288 0.584 8.19 4.93 13.74
3/26/2021 3:30:00 PM 15.07 59.126 0.585 8.19 3.39 13.48
3/26/2021 3:45:00 PM 15.12 59.216 0.585 8.19 4.23 13.44
3/26/2021 4:00:00 PM 15.2 59.36 0.584 8.2 17.85 13.5
3/26/2021 4:15:00 PM 15.31 59.558 0.584 8.21 7.36 13.6
3/26/2021 4:30:00 PM 15.39 59.702 0.584 8.22 5.67 13.59
3/26/2021 4:45:00 PM 15.45 59.81 0.583 8.23 3.73 13.58
3/26/2021 5:00:00 PM 15.45 59.81 0.583 8.23 3.68 13.5
3/26/2021 5:15:00 PM 15.39 59.702 0.583 8.24 4.35 13.39
3/26/2021 5:30:00 PM 15.31 59.558 0.584 8.24 3.46 13.26
3/26/2021 5:45:00 PM 15.23 59.414 0.584 8.24 4.61 13.09
3/26/2021 6:00:00 PM 15.15 59.27 0.584 8.23 4.87 12.89
3/26/2021 6:15:00 PM 15.08 59.144 0.585 8.22 6.85 12.63
3/26/2021 6:30:00 PM 15.01 59.018 0.585 8.21 5.85 12.32
3/26/2021 6:45:00 PM 14.96 58.928 0.585 8.2 14.51 12.08
3/26/2021 7:00:00 PM 14.9 58.82 0.586 8.18 4.22 11.81
3/26/2021 7:15:00 PM 14.84 58.712 0.586 8.17 3.29 11.57
3/26/2021 7:30:00 PM 14.78 58.604 0.587 8.15 4.99 11.33
3/26/2021 7:45:00 PM 14.73 58.514 0.588 8.14 4 11.1
3/26/2021 8:00:00 PM 14.67 58.406 0.588 8.12 4.9 10.89
3/26/2021 8:15:00 PM 14.62 58.316 0.588 8.12 4.97 10.71
3/26/2021 8:30:00 PM 14.57 58.226 0.588 8.1 5.8 10.54
3/26/2021 8:45:00 PM 14.5 58.1 0.588 8.09 5.1 10.39
3/26/2021 9:00:00 PM 14.44 57.992 0.589 8.08 9.96 10.23
3/26/2021 9:15:00 PM 14.37 57.866 0.588 8.06 7.15 10.08
3/26/2021 9:30:00 PM 14.3 57.74 0.588 8.05 4.47 9.95
3/26/2021 9:45:00 PM 14.24 57.632 0.588 8.04 5.31 9.82
3/26/2021 10:00:00 PM 14.18 57.524 0.588 8.03 12.34 9.71
3/26/2021 10:15:00 PM 14.12 57.416 0.588 8.02 13.77 9.6
3/26/2021 10:30:00 PM 14.06 57.308 0.588 8.01 68.54 9.5
3/26/2021 10:45:00 PM 13.99 57.182 0.588 8 7.25 9.42
3/26/2021 11:00:00 PM 13.93 57.074 0.588 7.99 4.06 9.33
3/26/2021 11:15:00 PM 13.87 56.966 0.588 7.98 16.23 9.24
3/26/2021 11:30:00 PM 13.8 56.84 0.588 7.97 37.36 9.17
3/26/2021 11:45:00 PM 13.73 56.714 0.588 7.96 40.46 9.1
3/27/2021 12:00:00 AM 13.66 56.588 0.588 7.95 24.3 9.02
3/27/2021 12:15:00 AM 13.6 56.48 0.589 7.94 20.29 8.97
3/27/2021 12:30:00 AM 13.54 56.372 0.589 7.92 25.11 8.92
3/27/2021 12:45:00 AM 13.48 56.264 0.588 7.91 5.89 8.87
3/27/2021 1:00:00 AM 13.42 56.156 0.588 7.91 20.54 8.81
3/27/2021 1:15:00 AM 13.35 56.03 0.588 7.9 6.22 8.79
3/27/2021 1:30:00 AM 13.29 55.922 0.587 7.89 43.07 8.75
3/27/2021 1:45:00 AM 13.23 55.814 0.587 7.88 17.02 8.72
3/27/2021 2:00:00 AM 13.16 55.688 0.587 7.88 23.75 8.71
3/27/2021 2:15:00 AM 13.1 55.58 0.587 7.88 26.09 8.67
3/27/2021 2:30:00 AM 13.03 55.454 0.587 7.87 6.47 8.68
3/27/2021 2:45:00 AM 12.96 55.328 0.587 7.87 16.29 8.66
3/27/2021 3:00:00 AM 12.88 55.184 0.587 7.86 10.19 8.66
3/27/2021 3:15:00 AM 12.81 55.058 0.587 7.86 5.21 8.66
3/27/2021 3:30:00 AM 12.74 54.932 0.587 7.85 47.16 8.66
3/27/2021 3:45:00 AM 12.66 54.788 0.587 7.85 22.81 8.65
3/27/2021 4:00:00 AM 12.59 54.662 0.587 7.84 69.28 8.66
3/27/2021 4:15:00 AM 12.51 54.518 0.587 7.84 45.25 8.67
3/27/2021 4:30:00 AM 12.45 54.41 0.587 7.84 10.06 8.68
3/27/2021 4:45:00 AM 12.37 54.266 0.587 7.84 10.65 8.68
3/27/2021 5:00:00 AM 12.3 54.14 0.587 7.83 27.43 8.69
3/27/2021 5:15:00 AM 12.23 54.014 0.588 7.83 34.62 8.71
3/27/2021 5:30:00 AM 12.16 53.888 0.587 7.83 16.78 8.71
3/27/2021 5:45:00 AM 12.09 53.762 0.588 7.83 74.76 8.74
3/27/2021 6:00:00 AM 12.02 53.636 0.588 7.83 5.26 8.76
3/27/2021 6:15:00 AM 11.95 53.51 0.589 7.83 39.71 8.76
3/27/2021 6:30:00 AM 11.88 53.384 0.589 7.83 15.86 8.8
3/27/2021 6:45:00 AM 11.81 53.258 0.589 7.83 6.82 8.83
3/27/2021 7:00:00 AM 11.74 53.132 0.589 7.83 5.13 8.84
3/27/2021 7:15:00 AM 11.67 53.006 0.59 7.83 14.98 8.88
3/27/2021 7:30:00 AM 11.61 52.898 0.59 7.83 11.24 8.93
3/27/2021 7:45:00 AM 11.55 52.79 0.591 7.84 106.4 9.03
3/27/2021 8:00:00 AM 11.5 52.7 0.591 7.84 94.11 9.12
3/27/2021 8:15:00 AM 11.46 52.628 0.591 7.84 32.17 9.25
3/27/2021 8:30:00 AM 11.45 52.61 0.591 7.85 5.57 9.43
3/27/2021 8:45:00 AM 11.46 52.628 0.592 7.86 3.16 9.65
3/27/2021 9:00:00 AM 11.49 52.682 0.592 7.88 8.34 9.92
3/27/2021 9:15:00 AM 11.52 52.736 0.592 7.89 9.83 10.19
3/27/2021 9:30:00 AM 11.57 52.826 0.592 7.91 2.21 10.49
3/27/2021 9:45:00 AM 11.64 52.952 0.592 7.93 2.47 10.78
3/27/2021 10:00:00 AM 11.71 53.078 0.592 7.94 3.93 11.05
3/27/2021 10:15:00 AM 11.76 53.168 0.591 7.96 2.23 11.32
3/27/2021 10:30:00 AM 11.84 53.312 0.592 7.97 2.37 11.56
3/27/2021 10:45:00 AM 11.94 53.492 0.592 7.99 8.61 11.8
3/27/2021 11:00:00 AM 12.06 53.708 0.591 8 1.39 12.1
3/27/2021 11:15:00 AM 12.19 53.942 0.591 8.01 2.44 12.35
3/27/2021 11:30:00 AM 12.34 54.212 0.591 8.02 2.45 12.61
3/27/2021 11:45:00 AM 12.49 54.482 0.59 8.04 7.94 12.89
3/27/2021 12:00:00 PM 12.63 54.734 0.59 8.05 2.31 13.08
3/27/2021 12:15:00 PM 12.76 54.968 0.59 8.08 65.52 13.33
3/27/2021 12:30:00 PM 12.92 55.256 0.59 8.1 118.9 13.6
3/27/2021 12:45:00 PM 13.08 55.544 0.59 8.12 2.66 13.83
3/27/2021 1:00:00 PM 13.21 55.778 0.59 8.13 10.74 14.01
3/27/2021 1:15:00 PM 13.34 56.012 0.59 8.15 1.78 14.2
3/27/2021 1:30:00 PM 13.49 56.282 0.589 8.17 1.99 14.41
3/27/2021 1:45:00 PM 13.61 56.498 0.589 8.19 2.05 14.56
3/27/2021 2:00:00 PM 13.72 56.696 0.589 8.2 3.45 14.67
3/27/2021 2:15:00 PM 13.78 56.804 0.589 8.21 1.68 14.77
3/27/2021 2:30:00 PM 13.83 56.894 0.589 8.23 3.04 14.84
3/27/2021 2:45:00 PM 13.84 56.912 0.589 8.23 13.47 14.94
3/27/2021 3:00:00 PM 13.86 56.948 0.59 8.25 4.87 14.94
3/27/2021 3:15:00 PM 13.91 57.038 0.59 8.26 6.07 14.98
3/27/2021 3:30:00 PM 13.93 57.074 0.591 8.27 8.28 15.03
3/27/2021 3:45:00 PM 13.95 57.11 0.591 8.27 3.34 15.02
3/27/2021 4:00:00 PM 13.94 57.092 0.591 8.28 4.26 14.92
3/27/2021 4:15:00 PM 13.93 57.074 0.591 8.29 2.34 14.79
3/27/2021 4:30:00 PM 13.93 57.074 0.591 8.29 1.94 14.64
3/27/2021 4:45:00 PM 13.93 57.074 0.59 8.28 19.55 14.52
3/27/2021 5:00:00 PM 13.94 57.092 0.591 8.28 11.95 14.37
3/27/2021 5:15:00 PM 13.98 57.164 0.591 8.29 2.88 14.18
3/27/2021 5:30:00 PM 14.03 57.254 0.591 8.29 3.27 13.97
3/27/2021 5:45:00 PM 14.08 57.344 0.591 8.29 2.88 13.73
3/27/2021 6:00:00 PM 14.11 57.398 0.591 8.29 2.48 13.49
3/27/2021 6:15:00 PM 14.12 57.416 0.591 8.28 3.13 13.22
3/27/2021 6:30:00 PM 14.12 57.416 0.591 8.28 3.53 12.88
3/27/2021 6:45:00 PM 14.11 57.398 0.591 8.27 3.93 12.62
3/27/2021 7:00:00 PM 14.08 57.344 0.592 8.26 2.2 12.33
3/27/2021 7:15:00 PM 14.05 57.29 0.592 8.24 4.76 12.05
3/27/2021 7:30:00 PM 14.02 57.236 0.592 8.23 4.51 11.71
3/27/2021 7:45:00 PM 13.99 57.182 0.592 8.21 2.61 11.48
3/27/2021 8:00:00 PM 13.96 57.128 0.592 8.2 4.85 11.23
3/27/2021 8:15:00 PM 13.93 57.074 0.592 8.18 3.87 11.02
3/27/2021 8:30:00 PM 13.9 57.02 0.592 8.17 3.84 10.81
3/27/2021 8:45:00 PM 13.87 56.966 0.593 8.16 2.68 10.64
3/27/2021 9:00:00 PM 13.84 56.912 0.593 8.15 4.23 10.45
3/27/2021 9:15:00 PM 13.82 56.876 0.593 8.14 5.97 10.28
3/27/2021 9:30:00 PM 13.79 56.822 0.593 8.12 5.76 10.13
3/27/2021 9:45:00 PM 13.76 56.768 0.593 8.11 17.45 9.99
3/27/2021 10:00:00 PM 13.73 56.714 0.594 8.09 14.04 9.84
3/27/2021 10:15:00 PM 13.7 56.66 0.593 8.08 50.15 9.71
3/27/2021 10:30:00 PM 13.67 56.606 0.594 8.06 16.76 9.58
3/27/2021 10:45:00 PM 13.63 56.534 0.594 8.04 35.98 9.44
3/27/2021 11:00:00 PM 13.59 56.462 0.594 8.03 16.89 9.34
3/27/2021 11:15:00 PM 13.55 56.39 0.594 8.02 26.75 9.23
3/27/2021 11:30:00 PM 13.51 56.318 0.595 8 17.38 9.13
3/27/2021 11:45:00 PM 13.47 56.246 0.593 7.99 46.53 9.03
3/28/2021 12:00:00 AM 13.43 56.174 0.592 7.98 5.72 8.95
3/28/2021 12:15:00 AM 13.38 56.084 0.592 7.96 11.84 8.86
3/28/2021 12:30:00 AM 13.35 56.03 0.591 7.95 25.56 8.79
3/28/2021 12:45:00 AM 13.31 55.958 0.591 7.94 4.12 8.72
3/28/2021 1:00:00 AM 13.27 55.886 0.591 7.92 19.38 8.64
3/28/2021 1:15:00 AM 13.23 55.814 0.59 7.91 3.89 8.59
3/28/2021 1:30:00 AM 13.18 55.724 0.589 7.9 39.17 8.53
3/28/2021 1:45:00 AM 13.14 55.652 0.59 7.89 4.59 8.49
3/28/2021 2:00:00 AM 13.11 55.598 0.589 7.88 10.93 8.45
3/28/2021 2:15:00 AM 13.07 55.526 0.59 7.88 3.38 8.4
3/28/2021 2:30:00 AM 13.04 55.472 0.589 7.87 10.67 8.36
3/28/2021 2:45:00 AM 13.02 55.436 0.59 7.86 12.18 8.33
3/28/2021 3:00:00 AM 13.01 55.418 0.589 7.85 4.14 8.28
3/28/2021 3:15:00 AM 12.99 55.382 0.59 7.85 32.45 8.26
3/28/2021 3:30:00 AM 12.99 55.382 0.589 7.84 34.93 8.22
3/28/2021 3:45:00 AM 12.97 55.346 0.592 7.83 4.54 8.21
3/28/2021 4:00:00 AM 12.97 55.346 0.592 7.83 17.44 8.2
3/28/2021 4:15:00 AM 12.96 55.328 0.591 7.83 126.2 8.17
3/28/2021 4:30:00 AM 12.95 55.31 0.591 7.82 12.36 8.16
3/28/2021 4:45:00 AM 12.93 55.274 0.591 7.82 5.16 8.14
3/28/2021 5:00:00 AM 12.91 55.238 0.591 7.82 11.48 8.15
3/28/2021 5:15:00 AM 12.89 55.202 0.591 7.82 49.17 8.15
3/28/2021 5:30:00 AM 12.86 55.148 0.591 7.82 6.6 8.14
3/28/2021 5:45:00 AM 12.84 55.112 0.591 7.81 4.08 8.13
3/28/2021 6:00:00 AM 12.81 55.058 0.591 7.81 4.26 8.14
3/28/2021 6:15:00 AM 12.78 55.004 0.591 7.81 29.05 8.14
3/28/2021 6:30:00 AM 12.76 54.968 0.592 7.81 95.45 8.14
3/28/2021 6:45:00 AM 12.72 54.896 0.592 7.81 65.67 8.13
3/28/2021 7:00:00 AM 12.69 54.842 0.592 7.81 3.42 8.13
3/28/2021 7:15:00 AM 12.66 54.788 0.59 7.81 19.37 8.17
3/28/2021 7:30:00 AM 12.64 54.752 0.589 7.81 56.6 8.18
3/28/2021 7:45:00 AM 12.61 54.698 0.589 7.81 176.7 8.22
3/28/2021 8:00:00 AM 12.58 54.644 0.588 7.81 25.8 8.25
3/28/2021 8:15:00 AM 12.55 54.59 0.586 7.82 86.62 8.33
3/28/2021 8:30:00 AM 12.52 54.536 0.584 7.82 3.58 8.37
3/28/2021 8:45:00 AM 12.5 54.5 0.583 7.82 5.53 8.42
3/28/2021 9:00:00 AM 12.48 54.464 0.582 7.82 16.72 8.49
3/28/2021 9:15:00 AM 12.46 54.428 0.582 7.83 3.82 8.53
3/28/2021 9:30:00 AM 12.44 54.392 0.582 7.83 5.65 8.58
3/28/2021 9:45:00 AM 12.42 54.356 0.581 7.83 4.16 8.63
3/28/2021 10:00:00 AM 12.4 54.32 0.58 7.84 3.42 8.68
3/28/2021 10:15:00 AM 12.37 54.266 0.579 7.84 31.79 8.77
3/28/2021 10:30:00 AM 12.36 54.248 0.577 7.85 5.85 8.86
3/28/2021 10:45:00 AM 12.33 54.194 0.575 7.85 5 8.93
3/28/2021 11:00:00 AM 12.31 54.158 0.574 7.86 4.2 8.99
3/28/2021 11:15:00 AM 12.3 54.14 0.573 7.86 11.91 9.07
3/28/2021 11:30:00 AM 12.29 54.122 0.571 7.86 7.47 9.15
3/28/2021 11:45:00 AM 12.28 54.104 0.57 7.86 7.66 9.21
3/28/2021 12:00:00 PM 12.27 54.086 0.57 7.87 10.34 9.29
3/28/2021 12:15:00 PM 12.25 54.05 0.569 7.87 12.94 9.24
3/28/2021 12:30:00 PM 12.24 54.032 0.568 7.87 8.62 9.3
3/28/2021 12:45:00 PM 12.24 54.032 0.567 7.87 63.5 9.29
3/28/2021 1:00:00 PM 12.24 54.032 0.566 7.87 121.5 9.36
3/28/2021 1:15:00 PM 12.24 54.032 0.561 7.87 22.96 9.36
3/28/2021 1:30:00 PM 12.25 54.05 0.556 7.87 111.8 9.37
3/28/2021 1:45:00 PM 12.27 54.086 0.552 7.87 8.98 9.41
3/28/2021 2:00:00 PM 12.29 54.122 0.552 7.87 9.12 9.47
3/28/2021 2:15:00 PM 12.32 54.176 0.553 7.87 89.9 9.55
3/28/2021 2:30:00 PM 12.34 54.212 0.556 7.87 31.7 9.6
3/28/2021 2:45:00 PM 12.35 54.23 0.557 7.88 9.96 9.64
3/28/2021 3:00:00 PM 12.36 54.248 0.553 7.88 11.41 9.63
3/28/2021 3:15:00 PM 12.37 54.266 0.547 7.88 16.45 9.61
3/28/2021 3:30:00 PM 12.39 54.302 0.543 7.87 13.53 9.57
3/28/2021 3:45:00 PM 12.4 54.32 0.544 7.87 18.65 9.54
3/28/2021 4:00:00 PM 12.41 54.338 0.547 7.87 18.63 9.5
3/28/2021 4:15:00 PM 12.43 54.374 0.549 7.87 18.31 9.51
3/28/2021 4:30:00 PM 12.46 54.428 0.551 7.87 16.08 9.57
3/28/2021 4:45:00 PM 12.48 54.464 0.553 7.88 20.81 9.58
3/28/2021 5:00:00 PM 12.48 54.464 0.554 7.88 18.32 9.53
3/28/2021 5:15:00 PM 12.48 54.464 0.551 7.87 18.02 9.5
3/28/2021 5:30:00 PM 12.49 54.482 0.541 7.87 14.71 9.45
3/28/2021 5:45:00 PM 12.51 54.518 0.525 7.86 20.03 9.38
3/28/2021 6:00:00 PM 12.52 54.536 0.504 7.84 130 9.3
3/28/2021 6:15:00 PM 12.53 54.554 0.483 7.83 243.9 9.17
3/28/2021 6:30:00 PM 12.52 54.536 0.469 7.81 31.46 9.11
3/28/2021 6:45:00 PM 12.51 54.518 0.461 7.8 38.88 9.11
3/28/2021 7:00:00 PM 12.5 54.5 0.454 7.79 251.1 9.17
3/28/2021 7:15:00 PM 12.48 54.464 0.447 7.78 24.27 9.17
3/28/2021 7:30:00 PM 12.45 54.41 0.441 7.77 19.48 9.12
3/28/2021 7:45:00 PM 12.42 54.356 0.432 7.75 26.75 9.06
3/28/2021 8:00:00 PM 12.4 54.32 0.425 7.74 37.16 9
3/28/2021 8:15:00 PM 12.38 54.284 0.42 7.73 31.09 8.97
3/28/2021 8:30:00 PM 12.36 54.248 0.417 7.73 27.7 8.95
3/28/2021 8:45:00 PM 12.34 54.212 0.416 7.72 27.27 8.93
3/28/2021 9:00:00 PM 12.3 54.14 0.417 7.72 34.91 8.9
3/28/2021 9:15:00 PM 12.26 54.068 0.418 7.71 29.23 8.9
3/28/2021 9:30:00 PM 12.23 54.014 0.418 7.71 34.66 8.89
3/28/2021 9:45:00 PM 12.19 53.942 0.421 7.71 32.9 8.86
3/28/2021 10:00:00 PM 12.16 53.888 0.427 7.71 32.15 8.86
3/28/2021 10:15:00 PM 12.14 53.852 0.434 7.71 43.9 8.85
3/28/2021 10:30:00 PM 12.11 53.798 0.442 7.71 29.8 8.82
3/28/2021 10:45:00 PM 12.08 53.744 0.447 7.71 49.43 8.82
3/28/2021 11:00:00 PM 12.05 53.69 0.452 7.7 727.9 8.82
3/28/2021 11:15:00 PM 12.02 53.636 0.458 7.7 60.78 8.8
3/28/2021 11:30:00 PM 12 53.6 0.462 7.7 128.8 8.79
3/28/2021 11:45:00 PM 11.98 53.564 0.467 7.7 43.65 8.77
3/29/2021 12:00:00 AM 11.96 53.528 0.472 7.7 43.78 8.78
3/29/2021 12:15:00 AM 11.92 53.456 0.479 7.71 40.11 8.78
3/29/2021 12:30:00 AM 11.86 53.348 0.485 7.72 38.26 8.81
3/29/2021 12:45:00 AM 11.82 53.276 0.489 7.72 43.08 8.82
3/29/2021 1:00:00 AM 11.76 53.168 0.489 7.72 39.11 8.82
3/29/2021 1:15:00 AM 11.72 53.096 0.481 7.71 39.98 8.79
3/29/2021 1:30:00 AM 11.69 53.042 0.468 7.71 41.15 8.78
3/29/2021 1:45:00 AM 11.65 52.97 0.453 7.71 39.27 8.74
3/29/2021 2:00:00 AM 11.6 52.88 0.439 7.7 46.06 8.74
3/29/2021 2:15:00 AM 11.55 52.79 0.428 7.69 53.61 8.73
3/29/2021 2:30:00 AM 11.51 52.718 0.421 7.69 38.06 8.74
3/29/2021 2:45:00 AM 11.45 52.61 0.418 7.68 45.92 8.76
3/29/2021 3:00:00 AM 11.37 52.466 0.417 7.67 36.78 8.76
3/29/2021 3:15:00 AM 11.31 52.358 0.419 7.67 29.35 8.81
3/29/2021 3:30:00 AM 11.25 52.25 0.422 7.67 33.63 8.83
3/29/2021 3:45:00 AM 11.2 52.16 0.425 7.66 34.25 8.87
3/29/2021 4:00:00 AM 11.15 52.07 0.428 7.66 33.49 8.9
3/29/2021 4:15:00 AM 11.1 51.98 0.431 7.66 29.87 8.91
3/29/2021 4:30:00 AM 11.03 51.854 0.435 7.66 26.83 8.94
3/29/2021 4:45:00 AM 10.97 51.746 0.438 7.66 26.64 8.94
3/29/2021 5:00:00 AM 10.9 51.62 0.441 7.66 27.67 8.98
3/29/2021 5:15:00 AM 10.84 51.512 0.445 7.66 29.1 8.99
3/29/2021 5:30:00 AM 10.79 51.422 0.449 7.66 30.18 9.01
3/29/2021 5:45:00 AM 10.73 51.314 0.454 7.67 91.02 9.02
3/29/2021 6:00:00 AM 10.67 51.206 0.459 7.67 73.53 9.04
3/29/2021 6:15:00 AM 10.6 51.08 0.463 7.67 53.04 9.07
3/29/2021 6:30:00 AM 10.53 50.954 0.468 7.67 31.06 9.09
3/29/2021 6:45:00 AM 10.46 50.828 0.473 7.67 73.43 9.1
3/29/2021 7:00:00 AM 10.41 50.738 0.478 7.67 34.3 9.14
3/29/2021 7:15:00 AM 10.36 50.648 0.482 7.67 99.06 9.17
3/29/2021 7:30:00 AM 10.31 50.558 0.486 7.68 29.56 9.21
3/29/2021 7:45:00 AM 10.24 50.432 0.491 7.68 158.6 9.25
3/29/2021 8:00:00 AM 10.19 50.342 0.496 7.68 23.31 9.31
3/29/2021 8:15:00 AM 10.13 50.234 0.5 7.69 35.79 9.37
3/29/2021 8:30:00 AM 10.1 50.18 0.504 7.7 64.94 9.45
3/29/2021 8:45:00 AM 10.08 50.144 0.507 7.7 18.54 9.52
3/29/2021 9:00:00 AM 10.07 50.126 0.51 7.7 17.15 9.6
3/29/2021 9:15:00 AM 10.05 50.09 0.512 7.71 25.81 9.69
3/29/2021 9:30:00 AM 10.03 50.054 0.514 7.71 32.07 9.78
3/29/2021 9:45:00 AM 10.02 50.036 0.516 7.71 33.11 9.9
3/29/2021 10:00:00 AM 10.05 50.09 0.517 7.72 37.67 10.11
3/29/2021 10:15:00 AM 10.12 50.216 0.518 7.74 48.83 10.31
3/29/2021 10:30:00 AM 10.21 50.378 0.519 7.75 100.2 10.55
3/29/2021 10:45:00 AM 10.28 50.504 0.52 7.77 322.9 10.72
3/29/2021 11:00:00 AM 10.32 50.576 0.521 7.78 117.8 10.9
3/29/2021 11:15:00 AM 10.4 50.72 0.522 7.8 46.43 11.07
3/29/2021 11:30:00 AM 10.5 50.9 0.523 7.81 779 11.3
3/29/2021 11:45:00 AM 10.63 51.134 0.524 7.83 688.3 11.51
3/29/2021 12:00:00 PM 10.72 51.296 0.525 7.84 85.07 11.68
3/29/2021 12:15:00 PM 10.85 51.53 0.526 7.85 176.8 11.88
3/29/2021 12:30:00 PM 10.97 51.746 0.527 7.87 62.03 12.09
3/29/2021 12:45:00 PM 11.09 51.962 0.528 7.88 130.5 12.23
3/29/2021 1:00:00 PM 11.23 52.214 0.529 7.9 99.19 12.39
3/29/2021 1:15:00 PM 11.34 52.412 0.53 7.92 62.73 12.6
3/29/2021 1:30:00 PM 11.47 52.646 0.531 7.93 326.7 12.75
3/29/2021 1:45:00 PM 11.57 52.826 0.531 7.94 302.6 12.9
3/29/2021 2:00:00 PM 11.66 52.988 0.532 7.96 271.1 13.01
3/29/2021 2:15:00 PM 11.77 53.186 0.532 7.97 204.5 13.14
3/29/2021 2:30:00 PM 11.86 53.348 0.533 7.99 72.15 13.24
3/29/2021 2:45:00 PM 11.94 53.492 0.533 8 28.25 13.35
3/29/2021 3:00:00 PM 12.01 53.618 0.534 8.01 154.4 13.43
3/29/2021 3:15:00 PM 12.08 53.744 0.534 8.03 115.2 13.47
3/29/2021 3:30:00 PM 12.13 53.834 0.535 8.04 173 13.49
3/29/2021 3:45:00 PM 12.18 53.924 0.534 8.05 63.44 13.5
3/29/2021 4:00:00 PM 12.24 54.032 0.536 8.06 93.77 13.48
3/29/2021 4:15:00 PM 12.25 54.05 0.537 8.06 62.09 13.52
3/29/2021 4:30:00 PM 12.26 54.068 0.538 8.07 68.39 13.51
3/29/2021 4:45:00 PM 12.27 54.086 0.538 8.08 341.3 13.44
3/29/2021 5:00:00 PM 12.27 54.086 0.539 8.08 169.2 13.37
3/29/2021 5:15:00 PM 12.26 54.068 0.54 8.09 353 13.29
3/29/2021 5:30:00 PM 12.26 54.068 0.541 8.09 604.4 13.18
3/29/2021 5:45:00 PM 12.24 54.032 0.546 8.09 137.1 13
3/29/2021 6:00:00 PM 12.2 53.96 0.549 8.09 237.7 12.83
3/29/2021 6:15:00 PM 12.17 53.906 0.551 8.08 598.6 12.64
3/29/2021 6:30:00 PM 12.12 53.816 0.551 8.08 428.3 12.43
3/29/2021 6:45:00 PM 12.07 53.726 0.55 8.07 1097 12.29
3/29/2021 7:00:00 PM 12.03 53.654 0.549 8.06 431.8 12.12
3/29/2021 7:15:00 PM 12 53.6 0.548 8.05 1314 11.94
3/29/2021 7:30:00 PM 11.96 53.528 0.548 8.04 1071 11.75
3/29/2021 7:45:00 PM 11.93 53.474 0.549 8.03 900.9 11.59
3/29/2021 8:00:00 PM 11.89 53.402 0.549 8.02 1777 11.42
3/29/2021 8:15:00 PM 11.85 53.33 0.55 8.01 1463 11.28
3/29/2021 8:30:00 PM 11.81 53.258 0.549 8 821.7 11.16
3/29/2021 8:45:00 PM 11.76 53.168 0.55 7.99 212 11.03
3/29/2021 9:00:00 PM 11.72 53.096 0.55 7.98 997.2 10.9
3/29/2021 9:15:00 PM 11.67 53.006 0.551 7.97 362 10.8
3/29/2021 9:30:00 PM 11.63 52.934 0.551 7.96 600.1 10.69
3/29/2021 9:45:00 PM 11.58 52.844 0.552 7.95 745 10.59
3/29/2021 10:00:00 PM 11.54 52.772 0.551 7.94 1125 10.49
3/29/2021 10:15:00 PM 11.49 52.682 0.552 7.94 100.6 10.41
3/29/2021 10:30:00 PM 11.45 52.61 0.553 7.93 371.8 10.32
3/29/2021 10:45:00 PM 11.41 52.538 0.553 7.92 243.7 10.22
3/29/2021 11:00:00 PM 11.36 52.448 0.553 7.92 315.5 10.15
3/29/2021 11:15:00 PM 11.32 52.376 0.554 7.91 238.7 10.08
3/29/2021 11:30:00 PM 11.27 52.286 0.554 7.9 122.4 10
3/29/2021 11:45:00 PM 11.22 52.196 0.554 7.89 23.97 9.96
3/30/2021 12:00:00 AM 11.17 52.106 0.554 7.88 4.7 9.89
3/30/2021 12:15:00 AM 11.13 52.034 0.555 7.87 5.52 9.83
3/30/2021 12:30:00 AM 11.08 51.944 0.555 7.87 5.02 9.76
3/30/2021 12:45:00 AM 11.03 51.854 0.555 7.86 6.28 9.75
3/30/2021 1:00:00 AM 10.98 51.764 0.556 7.86 5.65 9.69
3/30/2021 1:15:00 AM 10.93 51.674 0.556 7.85 7.72 9.66
3/30/2021 1:30:00 AM 10.88 51.584 0.556 7.85 6.48 9.63
3/30/2021 1:45:00 AM 10.84 51.512 0.556 7.84 6.84 9.62
3/30/2021 2:00:00 AM 10.79 51.422 0.556 7.84 8.35 9.6
3/30/2021 2:15:00 AM 10.74 51.332 0.557 7.84 5.79 9.57
3/30/2021 2:30:00 AM 10.69 51.242 0.557 7.83 9.3 9.57
3/30/2021 2:45:00 AM 10.65 51.17 0.558 7.83 7.22 9.54
3/30/2021 3:00:00 AM 10.6 51.08 0.558 7.82 5.4 9.56
3/30/2021 3:15:00 AM 10.55 50.99 0.558 7.82 5.25 9.55
3/30/2021 3:30:00 AM 10.5 50.9 0.559 7.82 6.94 9.54
3/30/2021 3:45:00 AM 10.45 50.81 0.559 7.82 9.28 9.55
3/30/2021 4:00:00 AM 10.4 50.72 0.558 7.81 8.14 9.55
3/30/2021 4:15:00 AM 10.35 50.63 0.559 7.81 5.52 9.55
3/30/2021 4:30:00 AM 10.3 50.54 0.559 7.81 5.68 9.55
3/30/2021 4:45:00 AM 10.24 50.432 0.56 7.81 5.48 9.55
3/30/2021 5:00:00 AM 10.19 50.342 0.56 7.81 6.37 9.54
3/30/2021 5:15:00 AM 10.13 50.234 0.56 7.81 7.72 9.58
3/30/2021 5:30:00 AM 10.07 50.126 0.561 7.81 6.56 9.58
3/30/2021 5:45:00 AM 10.02 50.036 0.561 7.81 6.85 9.61
3/30/2021 6:00:00 AM 9.96 49.928 0.561 7.81 10.51 9.62
3/30/2021 6:15:00 AM 9.91 49.838 0.561 7.81 4.16 9.64
3/30/2021 6:30:00 AM 9.85 49.73 0.562 7.81 6.64 9.65
3/30/2021 6:45:00 AM 9.8 49.64 0.562 7.81 7.9 9.67
3/30/2021 7:00:00 AM 9.75 49.55 0.562 7.81 4.94 9.68
3/30/2021 7:15:00 AM 9.7 49.46 0.562 7.81 7.43 9.73
3/30/2021 7:30:00 AM 9.65 49.37 0.562 7.81 5 9.79
3/30/2021 7:45:00 AM 9.62 49.316 0.561 7.81 6.6 9.82
3/30/2021 8:00:00 AM 9.59 49.262 0.563 7.81 5.88 9.91
3/30/2021 8:15:00 AM 9.57 49.226 0.562 7.81 3.58 10
3/30/2021 8:30:00 AM 9.57 49.226 0.562 7.82 4.25 10.15
3/30/2021 8:45:00 AM 9.59 49.262 0.563 7.82 5.96 10.32
3/30/2021 9:00:00 AM 9.64 49.352 0.563 7.83 3.32 10.53
3/30/2021 9:15:00 AM 9.7 49.46 0.563 7.84 3.69 10.71
3/30/2021 9:30:00 AM 9.78 49.604 0.564 7.85 3.6 10.92
3/30/2021 9:45:00 AM 9.87 49.766 0.563 7.86 4.1 11.12
3/30/2021 10:00:00 AM 9.97 49.946 0.564 7.87 4.91 11.34
3/30/2021 10:15:00 AM 10.08 50.144 0.563 7.88 2.72 11.57
3/30/2021 10:30:00 AM 10.2 50.36 0.564 7.89 3.62 11.77
3/30/2021 10:45:00 AM 10.34 50.612 0.564 7.9 2.97 12
3/30/2021 11:00:00 AM 10.49 50.882 0.564 7.92 2.62 12.18
3/30/2021 11:15:00 AM 10.63 51.134 0.563 7.94 2.87 12.4
3/30/2021 11:30:00 AM 10.79 51.422 0.564 7.96 2.31 12.61
3/30/2021 11:45:00 AM 10.95 51.71 0.564 7.97 2.69 12.79
3/30/2021 12:00:00 PM 11.11 51.998 0.564 7.99 2.48 12.99
3/30/2021 12:15:00 PM 11.26 52.268 0.563 8 3.54 13.16
3/30/2021 12:30:00 PM 11.42 52.556 0.563 8.01 2.47 13.33
3/30/2021 12:45:00 PM 11.57 52.826 0.563 8.02 2.65 13.48
3/30/2021 1:00:00 PM 11.72 53.096 0.563 8.04 2.77 13.65
3/30/2021 1:15:00 PM 11.87 53.366 0.563 8.06 2.15 13.79
3/30/2021 1:30:00 PM 12.02 53.636 0.562 8.07 3.03 13.92
3/30/2021 1:45:00 PM 12.17 53.906 0.562 8.08 2.63 14.04
3/30/2021 2:00:00 PM 12.31 54.158 0.562 8.09 2.48 14.15
3/30/2021 2:15:00 PM 12.44 54.392 0.561 8.1 2.3 14.24
3/30/2021 2:30:00 PM 12.58 54.644 0.562 8.13 3.31 14.34
3/30/2021 2:45:00 PM 12.69 54.842 0.561 8.14 2.71 14.38
3/30/2021 3:00:00 PM 12.8 55.04 0.561 8.16 3.27 14.44
3/30/2021 3:15:00 PM 12.9 55.22 0.562 8.17 2.72 14.49
3/30/2021 3:30:00 PM 12.99 55.382 0.559 8.18 5.42 14.48
3/30/2021 3:45:00 PM 13.09 55.562 0.56 8.2 2.94 14.51
3/30/2021 4:00:00 PM 13.17 55.706 0.559 8.21 2.96 14.48
3/30/2021 4:15:00 PM 13.23 55.814 0.559 8.22 2.74 14.42
3/30/2021 4:30:00 PM 13.28 55.904 0.559 8.22 3.11 14.39
3/30/2021 4:45:00 PM 13.31 55.958 0.559 8.23 4.16 14.28
3/30/2021 5:00:00 PM 13.33 55.994 0.558 8.23 5.76 14.16
3/30/2021 5:15:00 PM 13.34 56.012 0.558 8.23 6.52 14.02
3/30/2021 5:30:00 PM 13.32 55.976 0.559 8.23 141.3 13.81
3/30/2021 5:45:00 PM 13.31 55.958 0.56 8.22 3 13.67
3/30/2021 6:00:00 PM 13.29 55.922 0.558 8.23 3.65 13.43
3/30/2021 6:15:00 PM 13.27 55.886 0.558 8.23 3.14 13.26
3/30/2021 6:30:00 PM 13.24 55.832 0.56 8.21 3.7 13.02
3/30/2021 6:45:00 PM 13.2 55.76 0.56 8.2 5.25 12.74
3/30/2021 7:00:00 PM 13.16 55.688 0.561 8.19 22.69 12.49
3/30/2021 7:15:00 PM 13.12 55.616 0.561 8.18 61.16 12.26
3/30/2021 7:30:00 PM 13.08 55.544 0.562 8.16 15.05 12.02
3/30/2021 7:45:00 PM 13.04 55.472 0.563 8.14 62.08 11.77
3/30/2021 8:00:00 PM 13.01 55.418 0.564 8.13 10.64 11.55
3/30/2021 8:15:00 PM 12.98 55.364 0.564 8.11 11.32 11.34
3/30/2021 8:30:00 PM 12.95 55.31 0.563 8.1 24.54 11.17
3/30/2021 8:45:00 PM 12.92 55.256 0.563 8.09 13.16 11.02
3/30/2021 9:00:00 PM 12.89 55.202 0.566 8.08 102.1 10.87
3/30/2021 9:15:00 PM 12.86 55.148 0.565 8.07 50.08 10.69
3/30/2021 9:30:00 PM 12.82 55.076 0.566 8.05 43.15 10.56
3/30/2021 9:45:00 PM 12.78 55.004 0.567 8.05 30.21 10.44
3/30/2021 10:00:00 PM 12.75 54.95 0.566 8.04 52.94 10.31
3/30/2021 10:15:00 PM 12.72 54.896 0.566 8.03 25.97 10.2
3/30/2021 10:30:00 PM 12.7 54.86 0.567 8.02 93.91 10.1
3/30/2021 10:45:00 PM 12.67 54.806 0.566 8 53.59 9.99
3/30/2021 11:00:00 PM 12.65 54.77 0.566 7.99 76.88 9.9
3/30/2021 11:15:00 PM 12.63 54.734 0.566 7.98 118.1 9.79
3/30/2021 11:30:00 PM 12.61 54.698 0.566 7.97 54.28 9.7
3/30/2021 11:45:00 PM 12.59 54.662 0.566 7.96 49.55 9.61
3/31/2021 12:00:00 AM 12.56 54.608 0.567 7.95 30.88 9.53
3/31/2021 12:15:00 AM 12.53 54.554 0.566 7.94 6.43 9.43
3/31/2021 12:30:00 AM 12.5 54.5 0.567 7.94 23.77 9.37
3/31/2021 12:45:00 AM 12.47 54.446 0.567 7.93 86.09 9.32
3/31/2021 1:00:00 AM 12.44 54.392 0.567 7.92 6.48 9.24
3/31/2021 1:15:00 AM 12.41 54.338 0.568 7.91 6.53 9.21
3/31/2021 1:30:00 AM 12.38 54.284 0.568 7.9 7.9 9.16
3/31/2021 1:45:00 AM 12.34 54.212 0.568 7.89 9.43 9.13
3/31/2021 2:00:00 AM 12.3 54.14 0.568 7.89 22.48 9.09
3/31/2021 2:15:00 AM 12.26 54.068 0.569 7.88 9.06 9.05
3/31/2021 2:30:00 AM 12.23 54.014 0.569 7.88 7.38 9.03
3/31/2021 2:45:00 AM 12.19 53.942 0.569 7.88 22.96 9
3/31/2021 3:00:00 AM 12.15 53.87 0.569 7.87 9.27 8.95
3/31/2021 3:15:00 AM 12.13 53.834 0.57 7.86 24.55 8.88
3/31/2021 3:30:00 AM 12.1 53.78 0.568 7.85 30.42 8.85
3/31/2021 3:45:00 AM 12.06 53.708 0.57 7.85 6.62 8.83
3/31/2021 4:00:00 AM 12.03 53.654 0.57 7.85 10.81 8.8
3/31/2021 4:15:00 AM 11.99 53.582 0.57 7.84 7.15 8.79
3/31/2021 4:30:00 AM 11.95 53.51 0.57 7.84 6.72 8.78
3/31/2021 4:45:00 AM 11.91 53.438 0.57 7.84 51.04 8.82
3/31/2021 5:00:00 AM 11.85 53.33 0.57 7.84 18.53 8.86
3/31/2021 5:15:00 AM 11.8 53.24 0.57 7.84 11.28 8.89
3/31/2021 5:30:00 AM 11.75 53.15 0.57 7.84 95.02 8.93
3/31/2021 5:45:00 AM 11.71 53.078 0.57 7.84 22.97 8.95
3/31/2021 6:00:00 AM 11.66 52.988 0.57 7.84 40.68 8.96
3/31/2021 6:15:00 AM 11.62 52.916 0.57 7.84 94.69 8.97
3/31/2021 6:30:00 AM 11.57 52.826 0.57 7.84 202.8 8.98
3/31/2021 6:45:00 AM 11.52 52.736 0.57 7.84 24.74 8.98
3/31/2021 7:00:00 AM 11.47 52.646 0.57 7.84 10.23 9
3/31/2021 7:15:00 AM 11.43 52.574 0.57 7.84 9 9.03
3/31/2021 7:30:00 AM 11.39 52.502 0.57 7.84 19.47 9.07
3/31/2021 7:45:00 AM 11.37 52.466 0.57 7.84 55.63 9.16
3/31/2021 8:00:00 AM 11.35 52.43 0.571 7.84 33.99 9.29
3/31/2021 8:15:00 AM 11.34 52.412 0.572 7.85 18.46 9.41
3/31/2021 8:30:00 AM 11.34 52.412 0.574 7.85 9.94 9.52
3/31/2021 8:45:00 AM 11.34 52.412 0.574 7.86 4.51 9.59
3/31/2021 9:00:00 AM 11.36 52.448 0.571 7.86 10.79 9.69
3/31/2021 9:15:00 AM 11.37 52.466 0.574 7.87 7.24 9.81
3/31/2021 9:30:00 AM 11.38 52.484 0.574 7.87 9.1 9.89
3/31/2021 9:45:00 AM 11.38 52.484 0.572 7.88 6.1 9.97
3/31/2021 10:00:00 AM 11.4 52.52 0.573 7.89 10.22 10.07
3/31/2021 10:15:00 AM 11.43 52.574 0.572 7.89 9.82 10.23
3/31/2021 10:30:00 AM 11.46 52.628 0.572 7.91 16.88 10.41
3/31/2021 10:45:00 AM 11.5 52.7 0.572 7.92 3.91 10.61
3/31/2021 11:00:00 AM 11.53 52.754 0.572 7.93 52.05 10.75
3/31/2021 11:15:00 AM 11.55 52.79 0.572 7.94 5.35 10.83
3/31/2021 11:30:00 AM 11.57 52.826 0.571 7.94 12.12 10.93
3/31/2021 11:45:00 AM 11.61 52.898 0.571 7.96 4.96 11.18
3/31/2021 12:00:00 PM 11.68 53.024 0.571 7.97 3.58 11.46
3/31/2021 12:15:00 PM 11.73 53.114 0.57 7.99 4.21 11.64
3/31/2021 12:30:00 PM